Provisional Data: Mill Creek near Lancaster, PA


Please select a monitoring station.
Please select start date.
Please select start date.

Toggle Unit: C/F Toggle Unit: C/F
Sample Time Temperature (C) Temperature (F) Specific Conductivity (mS/cm) pH   Turbidity (NTU+) DO (mg/L)
1/12/2021 12:00:00 AM 4.23 39.614 0.773 7.84 2.38 12.51
1/12/2021 12:15:00 AM 4.19 39.542 0.772 7.84 3.23 12.52
1/12/2021 12:30:00 AM 4.16 39.488 0.772 7.84 2.24 12.51
1/12/2021 12:45:00 AM 4.13 39.434 0.771 7.83 2.07 12.53
1/12/2021 1:00:00 AM 4.1 39.38 0.77 7.83 2.73 12.55
1/12/2021 1:15:00 AM 4.07 39.326 0.77 7.83 2.17 12.56
1/12/2021 1:30:00 AM 4.04 39.272 0.769 7.83 2.26 12.58
1/12/2021 1:45:00 AM 4.01 39.218 0.768 7.83 2.38 12.59
1/12/2021 2:00:00 AM 3.98 39.164 0.767 7.83 2.48 12.59
1/12/2021 2:15:00 AM 3.96 39.128 0.766 7.83 2.71 12.6
1/12/2021 2:30:00 AM 3.93 39.074 0.765 7.83 2.59 12.61
1/12/2021 2:45:00 AM 3.91 39.038 0.765 7.83 2.41 12.59
1/12/2021 3:00:00 AM 3.88 38.984 0.764 7.83 3.51 12.62
1/12/2021 3:15:00 AM 3.86 38.948 0.763 7.83 2.78 12.61
1/12/2021 3:30:00 AM 3.84 38.912 0.762 7.83 2.8 12.63
1/12/2021 3:45:00 AM 3.82 38.876 0.761 7.83 2.85 12.63
1/12/2021 4:00:00 AM 3.8 38.84 0.76 7.83 2.63 12.66
1/12/2021 4:15:00 AM 3.78 38.804 0.76 7.83 2.63 12.65
1/12/2021 4:30:00 AM 3.76 38.768 0.759 7.83 2.61 12.66
1/12/2021 4:45:00 AM 3.73 38.714 0.758 7.83 2.62 12.66
1/12/2021 5:00:00 AM 3.71 38.678 0.758 7.83 2.73 12.67
1/12/2021 5:15:00 AM 3.69 38.642 0.758 7.83 2.55 12.69
1/12/2021 5:30:00 AM 3.67 38.606 0.758 7.83 2.28 12.67
1/12/2021 5:45:00 AM 3.65 38.57 0.758 7.83 2.65 12.67
1/12/2021 6:00:00 AM 3.63 38.534 0.758 7.83 4.81 12.61
1/12/2021 6:15:00 AM 3.61 38.498 0.759 7.83 2.34 12.68
1/12/2021 6:30:00 AM 3.59 38.462 0.759 7.83 2.77 12.7
1/12/2021 6:45:00 AM 3.57 38.426 0.76 7.83 2 12.68
1/12/2021 7:00:00 AM 3.55 38.39 0.761 7.83 2.36 12.73
1/12/2021 7:15:00 AM 3.53 38.354 0.762 7.83 2.84 12.73
1/12/2021 7:30:00 AM 3.51 38.318 0.763 7.83 3.33 12.7
1/12/2021 7:45:00 AM 3.49 38.282 0.764 7.83 2.83 12.76
1/12/2021 8:00:00 AM 3.47 38.246 0.765 7.83 3.02 12.8
1/12/2021 8:15:00 AM 3.46 38.228 0.767 7.83 2.5 12.81
1/12/2021 8:30:00 AM 3.46 38.228 0.767 7.83 2.33 12.84
1/12/2021 8:45:00 AM 3.45 38.21 0.769 7.83 2.99 12.88
1/12/2021 9:00:00 AM 3.45 38.21 0.77 7.83 3.82 12.91
1/12/2021 9:15:00 AM 3.46 38.228 0.771 7.83 2.91 12.95
1/12/2021 9:30:00 AM 3.48 38.264 0.772 7.84 2.92 13.02
1/12/2021 9:45:00 AM 3.52 38.336 0.773 7.84 2.75 13.04
1/12/2021 10:00:00 AM 3.58 38.444 0.774 7.84 2.56 13.09
1/12/2021 10:15:00 AM 3.66 38.588 0.775 7.84 2.83 13.15
1/12/2021 10:30:00 AM 3.76 38.768 0.776 7.85 3.47 13.22
1/12/2021 10:45:00 AM 3.85 38.93 0.776 7.85 3 13.25
1/12/2021 11:00:00 AM 3.95 39.11 0.776 7.85 2.62 13.33
1/12/2021 11:15:00 AM 4.06 39.308 0.777 7.86 3.17 13.35
1/12/2021 11:30:00 AM 4.14 39.452 0.777 7.86 3.08 13.42
1/12/2021 11:45:00 AM 4.19 39.542 0.778 7.86 3.24 13.4
1/12/2021 12:00:00 PM 4.27 39.686 0.778 7.87 2.67 13.46
1/12/2021 12:15:00 PM 4.34 39.812 0.777 7.87 3.16 13.53
1/12/2021 12:30:00 PM 4.4 39.92 0.778 7.87 3.1 13.52
1/12/2021 12:45:00 PM 4.46 40.028 0.778 7.88 2.77 13.57
1/12/2021 1:00:00 PM 4.55 40.19 0.778 7.88 2.57 13.57
1/12/2021 1:15:00 PM 4.61 40.298 0.778 7.89 2.71 13.62
1/12/2021 1:30:00 PM 4.69 40.442 0.778 7.89 2.46 13.64
1/12/2021 1:45:00 PM 4.76 40.568 0.777 7.9 2.74 13.62
1/12/2021 2:00:00 PM 4.82 40.676 0.777 7.91 2.27 13.64
1/12/2021 2:15:00 PM 4.87 40.766 0.777 7.91 2.76 13.65
1/12/2021 2:30:00 PM 4.92 40.856 0.776 7.92 2.47 13.67
1/12/2021 2:45:00 PM 4.97 40.946 0.775 7.92 3.01 13.67
1/12/2021 3:00:00 PM 5.01 41.018 0.774 7.93 3.24 13.65
1/12/2021 3:15:00 PM 5.04 41.072 0.773 7.94 3.4 13.61
1/12/2021 3:30:00 PM 5.07 41.126 0.772 7.94 2.71 13.62
1/12/2021 3:45:00 PM 5.1 41.18 0.771 7.95 7.87 13.59
1/12/2021 4:00:00 PM 5.13 41.234 0.769 7.95 5.59 13.53
1/12/2021 4:15:00 PM 5.15 41.27 0.769 7.96 4.48 13.5
1/12/2021 4:30:00 PM 5.16 41.288 0.767 7.96 3.05 13.46
1/12/2021 4:45:00 PM 5.15 41.27 0.765 7.96 3.11 13.46
1/12/2021 5:00:00 PM 5.15 41.27 0.763 7.97 2.99 13.4
1/12/2021 5:15:00 PM 5.13 41.234 0.761 7.97 3.53 13.28
1/12/2021 5:30:00 PM 5.1 41.18 0.759 7.97 3.27 13.29
1/12/2021 5:45:00 PM 5.08 41.144 0.758 7.97 3 13.26
1/12/2021 6:00:00 PM 5.05 41.09 0.755 7.97 3.07 13.22
1/12/2021 6:15:00 PM 5.01 41.018 0.754 7.97 3.55 13.14
1/12/2021 6:30:00 PM 4.98 40.964 0.752 7.96 3.29 13.09
1/12/2021 6:45:00 PM 4.94 40.892 0.75 7.96 2.97 13.03
1/12/2021 7:00:00 PM 4.9 40.82 0.748 7.96 3.4 13.01
1/12/2021 7:15:00 PM 4.86 40.748 0.747 7.95 2.49 12.97
1/12/2021 7:30:00 PM 4.82 40.676 0.745 7.95 2.93 12.96
1/12/2021 7:45:00 PM 4.78 40.604 0.743 7.94 2.43 12.88
1/12/2021 8:00:00 PM 4.74 40.532 0.743 7.94 2.53 12.82
1/12/2021 8:15:00 PM 4.7 40.46 0.741 7.93 2.79 12.83
1/12/2021 8:30:00 PM 4.66 40.388 0.74 7.93 2.43 12.77
1/12/2021 8:45:00 PM 4.62 40.316 0.74 7.92 2.56 12.73
1/12/2021 9:00:00 PM 4.58 40.244 0.739 7.91 2.12 12.74
1/12/2021 9:15:00 PM 4.54 40.172 0.739 7.91 2.2 12.69
1/12/2021 9:30:00 PM 4.49 40.082 0.739 7.91 3.11 12.68
1/12/2021 9:45:00 PM 4.46 40.028 0.738 7.9 3.13 12.65
1/12/2021 10:00:00 PM 4.42 39.956 0.738 7.89 2.89 12.65
1/12/2021 10:15:00 PM 4.38 39.884 0.737 7.88 3.14 12.62
1/12/2021 10:30:00 PM 4.34 39.812 0.737 7.88 3.51 12.61
1/12/2021 10:45:00 PM 4.3 39.74 0.737 7.87 2.7 12.62
1/12/2021 11:00:00 PM 4.26 39.668 0.738 7.87 2.68 12.61
1/12/2021 11:15:00 PM 4.23 39.614 0.738 7.86 6.53 12.6
1/12/2021 11:30:00 PM 4.2 39.56 0.739 7.86 3.01 12.58
1/12/2021 11:45:00 PM 4.16 39.488 0.739 7.85 2.42 12.59
1/13/2021 12:00:00 AM 4.13 39.434 0.739 7.85 2.34 12.56
1/13/2021 12:15:00 AM 4.09 39.362 0.74 7.85 2.44 12.58
1/13/2021 12:30:00 AM 4.07 39.326 0.74 7.84 2.31 12.56
1/13/2021 12:45:00 AM 4.07 39.326 0.741 7.84 2.08 12.56
1/13/2021 1:00:00 AM 4.05 39.29 0.741 7.84 2.5 12.57
1/13/2021 1:15:00 AM 4.02 39.236 0.742 7.84 2.89 12.57
1/13/2021 1:30:00 AM 4 39.2 0.743 7.84 2.51 12.59
1/13/2021 1:45:00 AM 3.97 39.146 0.744 7.84 2.23 12.58
1/13/2021 2:00:00 AM 3.95 39.11 0.744 7.83 2.45 12.6
1/13/2021 2:15:00 AM 3.93 39.074 0.745 7.84 2.63 12.62
1/13/2021 2:30:00 AM 3.91 39.038 0.746 7.84 2.1 12.63
1/13/2021 2:45:00 AM 3.89 39.002 0.752 7.84 2.32 12.59
1/13/2021 3:00:00 AM 3.87 38.966 0.753 7.83 2.65 12.61
1/13/2021 3:15:00 AM 3.86 38.948 0.754 7.83 2.28 12.62
1/13/2021 3:30:00 AM 3.84 38.912 0.755 7.83 2.49 12.62
1/13/2021 3:45:00 AM 3.83 38.894 0.756 7.83 2.92 12.66
1/13/2021 4:00:00 AM 3.82 38.876 0.758 7.83 2.63 12.61
1/13/2021 4:15:00 AM 3.8 38.84 0.759 7.84 2.49 12.63
1/13/2021 4:30:00 AM 3.78 38.804 0.761 7.83 2.31 12.63
1/13/2021 4:45:00 AM 3.77 38.786 0.761 7.84 2.47 12.65
1/13/2021 5:00:00 AM 3.77 38.786 0.763 7.84 2.54 12.64
1/13/2021 5:15:00 AM 3.77 38.786 0.764 7.84 2.78 12.66
1/13/2021 5:30:00 AM 3.77 38.786 0.765 7.84 2.39 12.63
1/13/2021 5:45:00 AM 3.77 38.786 0.766 7.83 2.85 12.61
1/13/2021 6:00:00 AM 3.77 38.786 0.768 7.84 2.4 12.64
1/13/2021 6:15:00 AM 3.76 38.768 0.769 7.84 2.14 12.65
1/13/2021 6:30:00 AM 3.74 38.732 0.77 7.84 2.65 12.61
1/13/2021 6:45:00 AM 3.73 38.714 0.772 7.84 2.93 12.65
1/13/2021 7:00:00 AM 3.72 38.696 0.773 7.83 2.87 12.63
1/13/2021 7:15:00 AM 3.72 38.696 0.774 7.84 2.6 12.63
1/13/2021 7:30:00 AM 3.73 38.714 0.775 7.84 2.17 12.65
1/13/2021 7:45:00 AM 3.74 38.732 0.776 7.84 2.22 12.66
1/13/2021 8:00:00 AM 3.75 38.75 0.778 7.83 2.19 12.68
1/13/2021 8:15:00 AM 3.77 38.786 0.779 7.84 2.21 12.72
1/13/2021 8:30:00 AM 3.79 38.822 0.78 7.84 2.63 12.72
1/13/2021 8:45:00 AM 3.82 38.876 0.781 7.84 4.57 12.76
1/13/2021 9:00:00 AM 3.85 38.93 0.782 7.84 2.52 12.79
1/13/2021 9:15:00 AM 3.9 39.02 0.782 7.84 2.43 12.86
1/13/2021 9:30:00 AM 3.95 39.11 0.784 7.84 2.51 12.93
1/13/2021 9:45:00 AM 4.01 39.218 0.784 7.85 2.76 12.93
1/13/2021 10:00:00 AM 4.09 39.362 0.785 7.85 2.99 13.03
1/13/2021 10:15:00 AM 4.15 39.47 0.785 7.85 2.56 13.06
1/13/2021 10:30:00 AM 4.22 39.596 0.786 7.85 2.44 13.11
1/13/2021 10:45:00 AM 4.28 39.704 0.787 7.86 2.69 13.14
1/13/2021 11:00:00 AM 4.35 39.83 0.787 7.86 2.97 13.25
1/13/2021 11:15:00 AM 4.5 40.1 0.787 7.87 2.79 13.23
1/13/2021 11:30:00 AM 4.62 40.316 0.787 7.87 2.96 13.28
1/13/2021 11:45:00 AM 4.72 40.496 0.788 7.87 2.88 13.3
1/13/2021 12:00:00 PM 4.79 40.622 0.788 7.88 2.77 13.35
1/13/2021 12:15:00 PM 4.86 40.748 0.788 7.88 2.68 13.38
1/13/2021 12:30:00 PM 4.94 40.892 0.788 7.89 3.51 13.45
1/13/2021 12:45:00 PM 5.01 41.018 0.788 7.9 2.71 13.43
1/13/2021 1:00:00 PM 5.08 41.144 0.788 7.9 2.81 13.48
1/13/2021 1:15:00 PM 5.15 41.27 0.788 7.91 2.87 13.5
1/13/2021 1:30:00 PM 5.22 41.396 0.787 7.91 7.11 13.55
1/13/2021 1:45:00 PM 5.3 41.54 0.787 7.92 2.46 13.55
1/13/2021 2:00:00 PM 5.34 41.612 0.787 7.93 2.83 13.57
1/13/2021 2:15:00 PM 5.4 41.72 0.786 7.94 2.75 13.56
1/13/2021 2:30:00 PM 5.47 41.846 0.786 7.94 2.65 13.58
1/13/2021 2:45:00 PM 5.52 41.936 0.785 7.95 1.88 13.58
1/13/2021 3:00:00 PM 5.56 42.008 0.785 7.96 2.68 13.57
1/13/2021 3:15:00 PM 5.6 42.08 0.785 7.96 3.29 13.54
1/13/2021 3:30:00 PM 5.63 42.134 0.784 7.97 2.49 13.49
1/13/2021 3:45:00 PM 5.66 42.188 0.784 7.97 2.34 13.43
1/13/2021 4:00:00 PM 5.69 42.242 0.783 7.98 2.31 13.43
1/13/2021 4:15:00 PM 5.72 42.296 0.782 7.98 2.55 13.41
1/13/2021 4:30:00 PM 5.73 42.314 0.782 7.99 1.94 13.35
1/13/2021 4:45:00 PM 5.74 42.332 0.782 7.99 2.45 13.3
1/13/2021 5:00:00 PM 5.74 42.332 0.782 7.99 2.95 13.25
1/13/2021 5:15:00 PM 5.72 42.296 0.782 7.99 2.79 13.19
1/13/2021 5:30:00 PM 5.71 42.278 0.781 8 2.25 13.14
1/13/2021 5:45:00 PM 5.69 42.242 0.781 8 2.4 13.07
1/13/2021 6:00:00 PM 5.67 42.206 0.781 8 2.47 13.02
1/13/2021 6:15:00 PM 5.63 42.134 0.781 7.99 3.74 12.95
1/13/2021 6:30:00 PM 5.6 42.08 0.781 7.99 2.44 12.89
1/13/2021 6:45:00 PM 5.56 42.008 0.781 7.99 3.04 12.84
1/13/2021 7:00:00 PM 5.53 41.954 0.781 7.98 2.54 12.81
1/13/2021 7:15:00 PM 5.49 41.882 0.782 7.98 5.1 12.75
1/13/2021 7:30:00 PM 5.46 41.828 0.782 7.98 2.72 12.68
1/13/2021 7:45:00 PM 5.42 41.756 0.782 7.97 3.11 12.64
1/13/2021 8:00:00 PM 5.39 41.702 0.782 7.96 2.51 12.58
1/13/2021 8:15:00 PM 5.35 41.63 0.783 7.96 3.32 12.56
1/13/2021 8:30:00 PM 5.32 41.576 0.784 7.95 2.42 12.51
1/13/2021 8:45:00 PM 5.28 41.504 0.785 7.94 2.9 12.46
1/13/2021 9:00:00 PM 5.24 41.432 0.785 7.93 2.52 12.43
1/13/2021 9:15:00 PM 5.21 41.378 0.786 7.93 2.8 12.39
1/13/2021 9:30:00 PM 5.17 41.306 0.786 7.92 2.3 12.38
1/13/2021 9:45:00 PM 5.14 41.252 0.786 7.91 2.38 12.35
1/13/2021 10:00:00 PM 5.1 41.18 0.786 7.91 3.14 12.27
1/13/2021 10:15:00 PM 5.07 41.126 0.786 7.9 3.03 12.26
1/13/2021 10:30:00 PM 5.03 41.054 0.786 7.9 2.43 12.26
1/13/2021 10:45:00 PM 5 41 0.785 7.89 2.46 12.24
1/13/2021 11:00:00 PM 4.97 40.946 0.785 7.88 2.78 12.23
1/13/2021 11:15:00 PM 4.94 40.892 0.785 7.88 3.24 12.23
1/13/2021 11:30:00 PM 4.91 40.838 0.785 7.87 2.75 12.2
1/13/2021 11:45:00 PM 4.88 40.784 0.785 7.87 2.3 12.21
1/14/2021 12:00:00 AM 4.85 40.73 0.785 7.87 3.16 12.16
1/14/2021 12:15:00 AM 4.83 40.694 0.785 7.86 4.16 12.17
1/14/2021 12:30:00 AM 4.79 40.622 0.784 7.86 2.37 12.17
1/14/2021 12:45:00 AM 4.77 40.586 0.784 7.86 2.13 12.2
1/14/2021 1:00:00 AM 4.74 40.532 0.783 7.85 2.73 12.18
1/14/2021 1:15:00 AM 4.71 40.478 0.782 7.85 2.59 12.22
1/14/2021 1:30:00 AM 4.69 40.442 0.782 7.85 3.35 12.18
1/14/2021 1:45:00 AM 4.68 40.424 0.781 7.85 3.03 12.18
1/14/2021 2:00:00 AM 4.67 40.406 0.78 7.85 2.66 12.18
1/14/2021 2:15:00 AM 4.65 40.37 0.78 7.85 2.69 12.19
1/14/2021 2:30:00 AM 4.64 40.352 0.78 7.85 2.68 12.21
1/14/2021 2:45:00 AM 4.63 40.334 0.779 7.85 2.02 12.17
1/14/2021 3:00:00 AM 4.61 40.298 0.779 7.84 2.6 12.2
1/14/2021 3:15:00 AM 4.61 40.298 0.779 7.84 2.89 12.21
1/14/2021 3:30:00 AM 4.6 40.28 0.779 7.84 2.54 12.2
1/14/2021 3:45:00 AM 4.59 40.262 0.78 7.84 2.62 12.23
1/14/2021 4:00:00 AM 4.58 40.244 0.78 7.84 2.59 12.23
1/14/2021 4:15:00 AM 4.57 40.226 0.781 7.84 2.91 12.19
1/14/2021 4:30:00 AM 4.58 40.244 0.781 7.84 2.46 12.23
1/14/2021 4:45:00 AM 4.58 40.244 0.782 7.84 3.09 12.22
1/14/2021 5:00:00 AM 4.59 40.262 0.782 7.84 2.85 12.23
1/14/2021 5:15:00 AM 4.59 40.262 0.783 7.84 3.28 12.23
1/14/2021 5:30:00 AM 4.6 40.28 0.783 7.84 2.72 12.23
1/14/2021 5:45:00 AM 4.61 40.298 0.784 7.84 3.36 12.2
1/14/2021 6:00:00 AM 4.61 40.298 0.785 7.84 2.34 12.2
1/14/2021 6:15:00 AM 4.61 40.298 0.786 7.84 5.88 12.22
1/14/2021 6:30:00 AM 4.6 40.28 0.787 7.84 3.1 12.21
1/14/2021 6:45:00 AM 4.61 40.298 0.788 7.84 3.21 12.2
1/14/2021 7:00:00 AM 4.61 40.298 0.789 7.84 3.93 12.21
1/14/2021 7:15:00 AM 4.61 40.298 0.789 7.84 2.31 12.21
1/14/2021 7:30:00 AM 4.63 40.334 0.79 7.84 2.53 12.2
1/14/2021 7:45:00 AM 4.64 40.352 0.791 7.84 2.55 12.19
1/14/2021 8:00:00 AM 4.67 40.406 0.791 7.84 2.29 12.22
1/14/2021 8:15:00 AM 4.7 40.46 0.792 7.85 2.58 12.34
1/14/2021 8:30:00 AM 4.74 40.532 0.793 7.85 2.55 12.31
1/14/2021 8:45:00 AM 4.77 40.586 0.793 7.85 3.34 12.38
1/14/2021 9:00:00 AM 4.82 40.676 0.794 7.85 2.89 12.37
1/14/2021 9:15:00 AM 4.87 40.766 0.795 7.85 2.64 12.44
1/14/2021 9:30:00 AM 4.91 40.838 0.795 7.85 2.85 12.48
1/14/2021 9:45:00 AM 4.93 40.874 0.796 7.86 2.26 12.53
1/14/2021 10:00:00 AM 4.98 40.964 0.796 7.86 2.31 12.59
1/14/2021 10:15:00 AM 5.04 41.072 0.797 7.86 3.06 12.62
1/14/2021 10:30:00 AM 5.1 41.18 0.797 7.87 2.55 12.69
1/14/2021 10:45:00 AM 5.18 41.324 0.798 7.87 2.23 12.75
1/14/2021 11:00:00 AM 5.27 41.486 0.798 7.87 2.38 12.77
1/14/2021 11:15:00 AM 5.32 41.576 0.799 7.88 2.13 12.81
1/14/2021 11:30:00 AM 5.38 41.684 0.793 7.88 2.48 12.87
1/14/2021 11:45:00 AM 5.44 41.792 0.799 7.88 2.29 12.9
1/14/2021 12:00:00 PM 5.53 41.954 0.8 7.89 2.78 12.95
1/14/2021 12:15:00 PM 5.64 42.152 0.8 7.89 2.33 13
1/14/2021 12:30:00 PM 5.77 42.386 0.8 7.9 3.92 13.06
1/14/2021 12:45:00 PM 5.86 42.548 0.8 7.9 2.56 13.1
1/14/2021 1:00:00 PM 5.96 42.728 0.8 7.91 2.33 13.15
1/14/2021 1:15:00 PM 6.01 42.818 0.8 7.92 2.56 13.2
1/14/2021 1:30:00 PM 6.05 42.89 0.8 7.92 2.23 13.21
1/14/2021 1:45:00 PM 6.13 43.034 0.8 7.93 5.88 13.23
1/14/2021 2:00:00 PM 6.19 43.142 0.801 7.93 2.7 13.22
1/14/2021 2:15:00 PM 6.24 43.232 0.8 7.94 2.57 13.24
1/14/2021 2:30:00 PM 6.3 43.34 0.8 7.95 2.74 13.27
1/14/2021 2:45:00 PM 6.36 43.448 0.8 7.96 3.14 13.26
1/14/2021 3:00:00 PM 6.41 43.538 0.8 7.97 2.46 13.28
1/14/2021 3:15:00 PM 6.45 43.61 0.8 7.97 3.05 13.23
1/14/2021 3:30:00 PM 6.48 43.664 0.799 7.98 3.04 13.22
1/14/2021 3:45:00 PM 6.51 43.718 0.799 7.99 2.79 13.2
1/14/2021 4:00:00 PM 6.55 43.79 0.799 7.99 3.08 13.17
1/14/2021 4:15:00 PM 6.59 43.862 0.799 8 3.28 13.16
1/14/2021 4:30:00 PM 6.6 43.88 0.798 8 2.75 13.12
1/14/2021 4:45:00 PM 6.58 43.844 0.798 8.01 4.18 12.99
1/14/2021 5:00:00 PM 6.57 43.826 0.797 8.01 5.46 12.96
1/14/2021 5:15:00 PM 6.58 43.844 0.797 8.01 3.24 12.9
1/14/2021 5:30:00 PM 6.6 43.88 0.796 8.01 2.67 12.82
1/14/2021 5:45:00 PM 6.61 43.898 0.796 8.01 2.78 12.78
1/14/2021 6:00:00 PM 6.6 43.88 0.795 8.01 2.73 12.69
1/14/2021 6:15:00 PM 6.58 43.844 0.795 8 3.34 12.64
1/14/2021 6:30:00 PM 6.55 43.79 0.794 8 2.35 12.57
1/14/2021 6:45:00 PM 6.53 43.754 0.794 8 3.08 12.53
1/14/2021 7:00:00 PM 6.51 43.718 0.793 8 3.43 12.47
1/14/2021 7:15:00 PM 6.48 43.664 0.793 7.99 2.96 12.37
1/14/2021 7:30:00 PM 6.45 43.61 0.793 7.99 2.74 12.32
1/14/2021 7:45:00 PM 6.42 43.556 0.792 7.98 3.12 12.27
1/14/2021 8:00:00 PM 6.38 43.484 0.793 7.97 2.67 12.24
1/14/2021 8:15:00 PM 6.34 43.412 0.793 7.97 2.11 12.14
1/14/2021 8:30:00 PM 6.3 43.34 0.793 7.96 3.64 12.16
1/14/2021 8:45:00 PM 6.26 43.268 0.792 7.95 2.48 12.11
1/14/2021 9:00:00 PM 6.21 43.178 0.792 7.94 2.79 12.04
1/14/2021 9:15:00 PM 6.17 43.106 0.792 7.93 2.58 12.03
1/14/2021 9:30:00 PM 6.13 43.034 0.791 7.93 2.55 11.99
1/14/2021 9:45:00 PM 6.08 42.944 0.791 7.92 2.86 11.96
1/14/2021 10:00:00 PM 6.04 42.872 0.791 7.91 3 11.91
1/14/2021 10:15:00 PM 6 42.8 0.79 7.9 2.86 11.87
1/14/2021 10:30:00 PM 5.97 42.746 0.79 7.9 2.65 11.87
1/14/2021 10:45:00 PM 5.93 42.674 0.789 7.89 3.04 11.84
1/14/2021 11:00:00 PM 5.89 42.602 0.788 7.88 2.47 11.84
1/14/2021 11:15:00 PM 5.85 42.53 0.788 7.88 2.93 11.84
1/14/2021 11:30:00 PM 5.82 42.476 0.787 7.87 3.02 11.81
1/14/2021 11:45:00 PM 5.79 42.422 0.787 7.87 2.31 11.79
1/15/2021 12:00:00 AM 5.77 42.386 0.786 7.86 3.04 11.81
1/15/2021 12:15:00 AM 5.74 42.332 0.786 7.86 2.8 11.81
1/15/2021 12:30:00 AM 5.72 42.296 0.785 7.85 3.02 11.8
1/15/2021 12:45:00 AM 5.69 42.242 0.785 7.85 2.56 11.8
1/15/2021 1:00:00 AM 5.66 42.188 0.784 7.85 2.37 11.77
1/15/2021 1:15:00 AM 5.62 42.116 0.784 7.85 2.97 11.8
1/15/2021 1:30:00 AM 5.59 42.062 0.783 7.85 2.89 11.81
1/15/2021 1:45:00 AM 5.57 42.026 0.783 7.84 2.46 11.82
1/15/2021 2:00:00 AM 5.54 41.972 0.783 7.84 2.94 11.82
1/15/2021 2:15:00 AM 5.52 41.936 0.783 7.84 2.88 11.83
1/15/2021 2:30:00 AM 5.49 41.882 0.783 7.84 3.29 11.82
1/15/2021 2:45:00 AM 5.47 41.846 0.783 7.84 3.63 11.85
1/15/2021 3:00:00 AM 5.45 41.81 0.783 7.83 2.74 11.86
1/15/2021 3:15:00 AM 5.44 41.792 0.783 7.83 2.85 11.86
1/15/2021 3:30:00 AM 5.42 41.756 0.75 7.83 2.61 11.88
1/15/2021 3:45:00 AM 5.41 41.738 0.788 7.83 2.46 11.87
1/15/2021 4:00:00 AM 5.39 41.702 0.788 7.83 2.6 11.9
1/15/2021 4:15:00 AM 5.38 41.684 0.789 7.83 2.75 11.89
1/15/2021 4:30:00 AM 5.37 41.666 0.79 7.83 3.84 11.89
1/15/2021 4:45:00 AM 5.36 41.648 0.79 7.83 2.41 11.83
1/15/2021 5:00:00 AM 5.34 41.612 0.791 7.83 2.89 11.82
1/15/2021 5:15:00 AM 5.33 41.594 0.792 7.83 2.75 11.9
1/15/2021 5:30:00 AM 5.32 41.576 0.793 7.83 2.47 11.91
1/15/2021 5:45:00 AM 5.31 41.558 0.794 7.83 3.9 11.91
1/15/2021 6:00:00 AM 5.3 41.54 0.795 7.83 3.23 11.85
1/15/2021 6:15:00 AM 5.29 41.522 0.796 7.83 3.2 11.92
1/15/2021 6:30:00 AM 5.28 41.504 0.797 7.84 2.52 11.9
1/15/2021 6:45:00 AM 5.27 41.486 0.797 7.84 2.76 11.93
1/15/2021 7:00:00 AM 5.27 41.486 0.799 7.83 2.98 11.91
1/15/2021 7:15:00 AM 5.26 41.468 0.799 7.84 3.65 11.91
1/15/2021 7:30:00 AM 5.26 41.468 0.8 7.83 2.94 11.93
1/15/2021 7:45:00 AM 5.26 41.468 0.801 7.83 2.75 11.94
1/15/2021 8:00:00 AM 5.26 41.468 0.802 7.84 2.54 11.97
1/15/2021 8:15:00 AM 5.28 41.504 0.802 7.84 2.46 12
1/15/2021 8:30:00 AM 5.29 41.522 0.804 7.84 2.66 12.01
1/15/2021 8:45:00 AM 5.31 41.558 0.804 7.84 2.73 12.07
1/15/2021 9:00:00 AM 5.34 41.612 0.805 7.84 2.15 12.12
1/15/2021 9:15:00 AM 5.37 41.666 0.806 7.85 2.35 12.18
1/15/2021 9:30:00 AM 5.41 41.738 0.806 7.85 2.49 12.23
1/15/2021 9:45:00 AM 5.46 41.828 0.807 7.85 2.59 12.3
1/15/2021 10:00:00 AM 5.51 41.918 0.808 7.85 2.58 12.35
1/15/2021 10:15:00 AM 5.55 41.99 0.809 7.86 2.27 12.39
1/15/2021 10:30:00 AM 5.59 42.062 0.81 7.86 2.26 12.43
1/15/2021 10:45:00 AM 5.64 42.152 0.81 7.86 2.77 12.48
1/15/2021 11:00:00 AM 5.69 42.242 0.811 7.87 2.42 12.52
1/15/2021 11:15:00 AM 5.73 42.314 0.812 7.87 2.28 12.55
1/15/2021 11:30:00 AM 5.78 42.404 0.812 7.87 2.34 12.53
1/15/2021 11:45:00 AM 5.84 42.512 0.813 7.88 4.42 12.59
1/15/2021 12:00:00 PM 5.89 42.602 0.814 7.88 2.3 12.66
1/15/2021 12:15:00 PM 5.93 42.674 0.815 7.89 2.45 12.66
1/15/2021 12:30:00 PM 5.99 42.782 0.815 7.89 2.09 12.69
1/15/2021 12:45:00 PM 6.05 42.89 0.815 7.89 2.78 12.76
1/15/2021 1:00:00 PM 6.11 42.998 0.816 7.9 2.24 12.78
1/15/2021 1:15:00 PM 6.19 43.142 0.815 7.91 2.4 12.85
1/15/2021 1:30:00 PM 6.27 43.286 0.816 7.92 2.22 12.91
1/15/2021 1:45:00 PM 6.34 43.412 0.816 7.92 2.41 12.96
1/15/2021 2:00:00 PM 6.4 43.52 0.816 7.93 2.33 12.99
1/15/2021 2:15:00 PM 6.45 43.61 0.816 7.94 2.03 13.02
1/15/2021 2:30:00 PM 6.49 43.682 0.816 7.94 2.25 12.98
1/15/2021 2:45:00 PM 6.53 43.754 0.816 7.95 2.13 13.02
1/15/2021 3:00:00 PM 6.57 43.826 0.816 7.96 2.14 12.97
1/15/2021 3:15:00 PM 6.61 43.898 0.816 7.96 1.9 12.98
1/15/2021 3:30:00 PM 6.64 43.952 0.816 7.96 2.03 12.96
1/15/2021 3:45:00 PM 6.67 44.006 0.816 7.97 1.66 12.9
1/15/2021 4:00:00 PM 6.69 44.042 0.816 7.97 1.97 12.88
1/15/2021 4:15:00 PM 6.71 44.078 0.815 7.98 2.21 12.77
1/15/2021 4:30:00 PM 6.73 44.114 0.815 7.98 2.47 12.76
1/15/2021 4:45:00 PM 6.74 44.132 0.815 7.98 2.03 12.69
1/15/2021 5:00:00 PM 6.76 44.168 0.815 7.98 2.21 12.67
1/15/2021 5:15:00 PM 6.78 44.204 0.815 7.99 1.95 12.62
1/15/2021 5:30:00 PM 6.79 44.222 0.815 7.99 2.16 12.53
1/15/2021 5:45:00 PM 6.81 44.258 0.814 7.99 2.97 12.49
1/15/2021 6:00:00 PM 6.82 44.276 0.814 7.98 1.96 12.42
1/15/2021 6:15:00 PM 6.84 44.312 0.818 7.98 2.04 12.38
1/15/2021 6:30:00 PM 6.86 44.348 0.818 7.98 2.39 12.32
1/15/2021 6:45:00 PM 6.87 44.366 0.818 7.98 2.04 12.19
1/15/2021 7:00:00 PM 6.89 44.402 0.817 7.97 2.03 12.16
1/15/2021 7:15:00 PM 6.91 44.438 0.817 7.97 2 12.12
1/15/2021 7:30:00 PM 6.93 44.474 0.816 7.96 2.31 12.08
1/15/2021 7:45:00 PM 6.94 44.492 0.815 7.96 2.42 12.01
1/15/2021 8:00:00 PM 6.96 44.528 0.815 7.95 2.03 11.94
1/15/2021 8:15:00 PM 6.97 44.546 0.813 7.95 2.24 11.87
1/15/2021 8:30:00 PM 6.97 44.546 0.812 7.94 2.06 11.82
1/15/2021 8:45:00 PM 6.98 44.564 0.811 7.93 2.62 11.78
1/15/2021 9:00:00 PM 6.99 44.582 0.809 7.92 2.89 11.75
1/15/2021 9:15:00 PM 6.99 44.582 0.807 7.92 2.5 11.69
1/15/2021 9:30:00 PM 7 44.6 0.805 7.91 2.9 11.67
1/15/2021 9:45:00 PM 6.99 44.582 0.804 7.91 2.68 11.62
1/15/2021 10:00:00 PM 6.99 44.582 0.801 7.9 3.52 11.61
1/15/2021 10:15:00 PM 6.99 44.582 0.8 7.89 3.31 11.55
1/15/2021 10:30:00 PM 6.99 44.582 0.798 7.89 3.53 11.52
1/15/2021 10:45:00 PM 6.99 44.582 0.797 7.88 3.92 11.49
1/15/2021 11:00:00 PM 6.99 44.582 0.795 7.88 3.68 11.5
1/15/2021 11:15:00 PM 6.99 44.582 0.794 7.87 3.06 11.44
1/15/2021 11:30:00 PM 6.99 44.582 0.793 7.86 3.56 11.43
1/15/2021 11:45:00 PM 6.99 44.582 0.793 7.86 3.62 11.41
1/16/2021 12:00:00 AM 6.99 44.582 0.792 7.85 3.39 11.39
1/16/2021 12:15:00 AM 7 44.6 0.791 7.85 3.17 11.38
1/16/2021 12:30:00 AM 7 44.6 0.789 7.85 3.8 11.35
1/16/2021 12:45:00 AM 7.01 44.618 0.788 7.84 3.09 11.3
1/16/2021 1:00:00 AM 7.02 44.636 0.787 7.84 3.76 11.35
1/16/2021 1:15:00 AM 7.03 44.654 0.787 7.84 3.32 11.32
1/16/2021 1:30:00 AM 7.05 44.69 0.785 7.84 4.47 11.33
1/16/2021 1:45:00 AM 7.06 44.708 0.783 7.83 4.01 11.3
1/16/2021 2:00:00 AM 7.08 44.744 0.781 7.83 3.88 11.24
1/16/2021 2:15:00 AM 7.09 44.762 0.78 7.83 6.05 11.27
1/16/2021 2:30:00 AM 7.11 44.798 0.779 7.82 5.87 11.27
1/16/2021 2:45:00 AM 7.13 44.834 0.778 7.82 4.5 11.24
1/16/2021 3:00:00 AM 7.14 44.852 0.777 7.82 5.74 11.25
1/16/2021 3:15:00 AM 7.16 44.888 0.777 7.82 5.12 11.22
1/16/2021 3:30:00 AM 7.17 44.906 0.777 7.82 6.21 11.22
1/16/2021 3:45:00 AM 7.18 44.924 0.778 7.82 7.91 11.21
1/16/2021 4:00:00 AM 7.17 44.906 0.779 7.82 6.33 11.2
1/16/2021 4:15:00 AM 7.17 44.906 0.78 7.82 4.95 11.2
1/16/2021 4:30:00 AM 7.17 44.906 0.782 7.82 3.98 11.19
1/16/2021 4:45:00 AM 7.16 44.888 0.784 7.82 4.33 11.19
1/16/2021 5:00:00 AM 7.16 44.888 0.786 7.82 4.78 11.18
1/16/2021 5:15:00 AM 7.16 44.888 0.788 7.82 4.98 11.17
1/16/2021 5:30:00 AM 7.15 44.87 0.79 7.82 4.42 11.16
1/16/2021 5:45:00 AM 7.14 44.852 0.792 7.82 4.9 11.18
1/16/2021 6:00:00 AM 7.14 44.852 0.794 7.82 4 11.18
1/16/2021 6:15:00 AM 7.13 44.834 0.795 7.81 4.93 11.18
1/16/2021 6:30:00 AM 7.12 44.816 0.795 7.81 4.08 11.12
1/16/2021 6:45:00 AM 7.1 44.78 0.795 7.82 4.5 11.17
1/16/2021 7:00:00 AM 7.07 44.726 0.795 7.82 4.85 11.11
1/16/2021 7:15:00 AM 7.04 44.672 0.794 7.82 5.47 11.14
1/16/2021 7:30:00 AM 7.02 44.636 0.793 7.82 3.52 11.11
1/16/2021 7:45:00 AM 7 44.6 0.792 7.81 3.96 11.14
1/16/2021 8:00:00 AM 6.97 44.546 0.792 7.82 3.67 11.2
1/16/2021 8:15:00 AM 6.95 44.51 0.789 7.82 3.29 11.18
1/16/2021 8:30:00 AM 6.94 44.492 0.789 7.82 3.59 11.23
1/16/2021 8:45:00 AM 6.92 44.456 0.791 7.82 3.14 11.25
1/16/2021 9:00:00 AM 6.91 44.438 0.79 7.82 3.94 11.28
1/16/2021 9:15:00 AM 6.9 44.42 0.79 7.81 3.44 11.31
1/16/2021 9:30:00 AM 6.91 44.438 0.788 7.81 3.38 11.31
1/16/2021 9:45:00 AM 6.92 44.456 0.788 7.82 4.12 11.41
1/16/2021 10:00:00 AM 6.96 44.528 0.787 7.82 3.14 11.46
1/16/2021 10:15:00 AM 7.03 44.654 0.786 7.82 3.92 11.57
1/16/2021 10:30:00 AM 7.06 44.708 0.785 7.83 3.96 11.67
1/16/2021 10:45:00 AM 7.1 44.78 0.785 7.83 4.16 11.75
1/16/2021 11:00:00 AM 7.14 44.852 0.785 7.84 3.72 11.82
1/16/2021 11:15:00 AM 7.17 44.906 0.785 7.84 3.63 11.89
1/16/2021 11:30:00 AM 7.19 44.942 0.785 7.85 3.51 11.99
1/16/2021 11:45:00 AM 7.24 45.032 0.786 7.86 3.85 12.06
1/16/2021 12:00:00 PM 7.29 45.122 0.786 7.86 3.52 12.12
1/16/2021 12:15:00 PM 7.32 45.176 0.787 7.87 3.39 12.22
1/16/2021 12:30:00 PM 7.35 45.23 0.787 7.88 3.94 12.31
1/16/2021 12:45:00 PM 7.41 45.338 0.787 7.89 3.73 12.39
1/16/2021 1:00:00 PM 7.46 45.428 0.787 7.9 3.68 12.44
1/16/2021 1:15:00 PM 7.48 45.464 0.787 7.91 2.92 12.5
1/16/2021 1:30:00 PM 7.53 45.554 0.787 7.92 3.7 12.56
1/16/2021 1:45:00 PM 7.59 45.662 0.787 7.93 4.11 12.64
1/16/2021 2:00:00 PM 7.59 45.662 0.787 7.94 2.77 12.68
1/16/2021 2:15:00 PM 7.61 45.698 0.787 7.95 3.24 12.7
1/16/2021 2:30:00 PM 7.65 45.77 0.787 7.96 4.15 12.75
1/16/2021 2:45:00 PM 7.68 45.824 0.786 7.97 3.87 12.79
1/16/2021 3:00:00 PM 7.71 45.878 0.786 7.98 3.54 12.81
1/16/2021 3:15:00 PM 7.75 45.95 0.785 7.99 3.22 12.81
1/16/2021 3:30:00 PM 7.78 46.004 0.785 8 3.63 12.85
1/16/2021 3:45:00 PM 7.8 46.04 0.785 8.01 2.76 12.81
1/16/2021 4:00:00 PM 7.82 46.076 0.785 8.01 2.89 12.79
1/16/2021 4:15:00 PM 7.84 46.112 0.785 8.02 2.87 12.74
1/16/2021 4:30:00 PM 7.84 46.112 0.785 8.02 3.37 12.72
1/16/2021 4:45:00 PM 7.83 46.094 0.785 8.03 3.19 12.7
1/16/2021 5:00:00 PM 7.83 46.094 0.785 8.03 2.65 12.67
1/16/2021 5:15:00 PM 7.83 46.094 0.785 8.03 3.64 12.57
1/16/2021 5:30:00 PM 7.82 46.076 0.785 8.03 2.96 12.51
1/16/2021 5:45:00 PM 7.8 46.04 0.786 8.03 3.04 12.47
1/16/2021 6:00:00 PM 7.77 45.986 0.786 8.03 3.16 12.38
1/16/2021 6:15:00 PM 7.74 45.932 0.786 8.02 3.5 12.32
1/16/2021 6:30:00 PM 7.72 45.896 0.774 8.02 3.6 12.22
1/16/2021 6:45:00 PM 7.67 45.806 0.786 8.01 4.64 12.13
1/16/2021 7:00:00 PM 7.62 45.716 0.786 8 5.42 12.06
1/16/2021 7:15:00 PM 7.59 45.662 0.785 7.99 5.33 11.96
1/16/2021 7:30:00 PM 7.55 45.59 0.785 7.99 3.72 11.85
1/16/2021 7:45:00 PM 7.5 45.5 0.783 7.98 4.91 11.8
1/16/2021 8:00:00 PM 7.45 45.41 0.784 7.97 3.78 11.76
1/16/2021 8:15:00 PM 7.39 45.302 0.783 7.96 3.39 11.69
1/16/2021 8:30:00 PM 7.34 45.212 0.784 7.95 3.95 11.61
1/16/2021 8:45:00 PM 7.29 45.122 0.784 7.94 4.49 11.58
1/16/2021 9:00:00 PM 7.23 45.014 0.783 7.93 4.08 11.51
1/16/2021 9:15:00 PM 7.18 44.924 0.783 7.92 5.12 11.47
1/16/2021 9:30:00 PM 7.12 44.816 0.782 7.91 3.68 11.44
1/16/2021 9:45:00 PM 7.06 44.708 0.782 7.9 4.52 11.4
1/16/2021 10:00:00 PM 7.02 44.636 0.781 7.89 4.44 11.35
1/16/2021 10:15:00 PM 6.99 44.582 0.781 7.88 3.32 11.26
1/16/2021 10:30:00 PM 6.93 44.474 0.777 7.87 4.57 11.32
1/16/2021 10:45:00 PM 6.88 44.384 0.775 7.87 3.97 11.29
1/16/2021 11:00:00 PM 6.84 44.312 0.779 7.86 5.23 11.28
1/16/2021 11:15:00 PM 6.8 44.24 0.778 7.86 4.27 11.28
1/16/2021 11:30:00 PM 6.76 44.168 0.777 7.85 3.88 11.22
1/16/2021 11:45:00 PM 6.72 44.096 0.775 7.85 4.04 11.25
1/17/2021 12:00:00 AM 6.68 44.024 0.773 7.85 3.8 11.25
1/17/2021 12:15:00 AM 6.64 43.952 0.776 7.84 3.49 11.26
1/17/2021 12:30:00 AM 6.6 43.88 0.776 7.84 3.53 11.27
1/17/2021 12:45:00 AM 6.57 43.826 0.775 7.84 3.07 11.28
1/17/2021 1:00:00 AM 6.53 43.754 0.775 7.84 3.79 11.27
1/17/2021 1:15:00 AM 6.49 43.682 0.775 7.84 4.14 11.28
1/17/2021 1:30:00 AM 6.46 43.628 0.775 7.83 3.61 11.28
1/17/2021 1:45:00 AM 6.42 43.556 0.775 7.83 3.31 11.33
1/17/2021 2:00:00 AM 6.39 43.502 0.775 7.83 3.31 11.32
1/17/2021 2:15:00 AM 6.36 43.448 0.776 7.83 3.62 11.32
1/17/2021 2:30:00 AM 6.32 43.376 0.776 7.84 6.2 11.34
1/17/2021 2:45:00 AM 6.28 43.304 0.776 7.83 4.17 11.35
1/17/2021 3:00:00 AM 6.25 43.25 0.777 7.84 4.94 11.31
1/17/2021 3:15:00 AM 6.22 43.196 0.777 7.83 3.34 11.36
1/17/2021 3:30:00 AM 6.2 43.16 0.778 7.84 4.21 11.37
1/17/2021 3:45:00 AM 6.16 43.088 0.768 7.84 3.98 11.41
1/17/2021 4:00:00 AM 6.14 43.052 0.78 7.84 3.83 11.35
1/17/2021 4:15:00 AM 6.11 42.998 0.78 7.83 3.67 11.41
1/17/2021 4:30:00 AM 6.1 42.98 0.777 7.83 3.73 11.4
1/17/2021 4:45:00 AM 6.09 42.962 0.779 7.84 3.15 11.42
1/17/2021 5:00:00 AM 6.08 42.944 0.78 7.83 3.44 11.45
1/17/2021 5:15:00 AM 6.07 42.926 0.758 7.83 3.54 11.44
1/17/2021 5:30:00 AM 6.05 42.89 0.779 7.83 3.62 11.43
1/17/2021 5:45:00 AM 6.05 42.89 0.785 7.83 3.66 11.44
1/17/2021 6:00:00 AM 6.04 42.872 0.786 7.84 3.09 11.46
1/17/2021 6:15:00 AM 6.03 42.854 0.787 7.83 3.25 11.45
1/17/2021 6:30:00 AM 6.02 42.836 0.788 7.84 3.37 11.47
1/17/2021 6:45:00 AM 6.01 42.818 0.789 7.83 3.74 11.48
1/17/2021 7:00:00 AM 6 42.8 0.789 7.83 3.6 11.48
1/17/2021 7:15:00 AM 5.99 42.782 0.79 7.83 3.42 11.48
1/17/2021 7:30:00 AM 5.98 42.764 0.791 7.84 4.01 11.5
1/17/2021 7:45:00 AM 5.98 42.764 0.791 7.83 3.37 11.51
1/17/2021 8:00:00 AM 5.97 42.746 0.792 7.83 5.12 11.51
1/17/2021 8:15:00 AM 5.96 42.728 0.792 7.83 2.8 11.51
1/17/2021 8:30:00 AM 5.96 42.728 0.792 7.84 2.44 11.55
1/17/2021 8:45:00 AM 5.97 42.746 0.793 7.84 2.7 11.62
1/17/2021 9:00:00 AM 5.97 42.746 0.793 7.84 2.71 11.62
1/17/2021 9:15:00 AM 5.99 42.782 0.793 7.84 2.97 11.72
1/17/2021 9:30:00 AM 6.01 42.818 0.793 7.84 6.65 11.78
1/17/2021 9:45:00 AM 6.03 42.854 0.793 7.85 2.68 11.83
1/17/2021 10:00:00 AM 6.05 42.89 0.793 7.85 3.05 11.92
1/17/2021 10:15:00 AM 6.07 42.926 0.794 7.85 2.71 11.99
1/17/2021 10:30:00 AM 6.11 42.998 0.793 7.86 2.89 12.06
1/17/2021 10:45:00 AM 6.16 43.088 0.793 7.86 2.77 12.14
1/17/2021 11:00:00 AM 6.2 43.16 0.792 7.86 2.7 12.23
1/17/2021 11:15:00 AM 6.24 43.232 0.792 7.87 2.94 12.28
1/17/2021 11:30:00 AM 6.37 43.466 0.792 7.87 2.81 12.36
1/17/2021 11:45:00 AM 6.37 43.466 0.792 7.88 2.93 12.43
1/17/2021 12:00:00 PM 6.43 43.574 0.791 7.89 2.77 12.49
1/17/2021 12:15:00 PM 6.54 43.772 0.791 7.89 2.73 12.61
1/17/2021 12:30:00 PM 6.58 43.844 0.79 7.9 2.78 12.68
1/17/2021 12:45:00 PM 6.57 43.826 0.79 7.91 2.73 12.7
1/17/2021 1:00:00 PM 6.6 43.88 0.789 7.92 2.46 12.79
1/17/2021 1:15:00 PM 6.68 44.024 0.789 7.92 2.57 12.86
1/17/2021 1:30:00 PM 6.72 44.096 0.788 7.93 2.37 12.93
1/17/2021 1:45:00 PM 6.77 44.186 0.787 7.95 2.72 13
1/17/2021 2:00:00 PM 6.81 44.258 0.786 7.96 2.45 13.09
1/17/2021 2:15:00 PM 6.83 44.294 0.786 7.96 2.42 13.12
1/17/2021 2:30:00 PM 6.86 44.348 0.785 7.97 2.77 13.17
1/17/2021 2:45:00 PM 6.88 44.384 0.785 7.98 2.52 13.19
1/17/2021 3:00:00 PM 6.91 44.438 0.784 7.99 2.19 13.23
1/17/2021 3:15:00 PM 6.93 44.474 0.783 8 2.12 13.23
1/17/2021 3:30:00 PM 6.95 44.51 0.782 8.01 1.93 13.2
1/17/2021 3:45:00 PM 6.96 44.528 0.782 8.02 2.27 13.23
1/17/2021 4:00:00 PM 6.97 44.546 0.782 8.03 2.19 13.23
1/17/2021 4:15:00 PM 6.97 44.546 0.781 8.03 2.46 13.16
1/17/2021 4:30:00 PM 6.97 44.546 0.78 8.04 2.06 13.11
1/17/2021 4:45:00 PM 6.96 44.528 0.78 8.04 2.08 13.09
1/17/2021 5:00:00 PM 6.96 44.528 0.78 8.05 2.76 13.03
1/17/2021 5:15:00 PM 6.94 44.492 0.78 8.05 2.56 12.97
1/17/2021 5:30:00 PM 6.93 44.474 0.78 8.06 2.19 12.89
1/17/2021 5:45:00 PM 6.92 44.456 0.779 8.06 2.09 12.82
1/17/2021 6:00:00 PM 6.9 44.42 0.78 8.06 2.78 12.81
1/17/2021 6:15:00 PM 6.88 44.384 0.779 8.05 2.6 12.7
1/17/2021 6:30:00 PM 6.85 44.33 0.78 8.05 2.03 12.64
1/17/2021 6:45:00 PM 6.83 44.294 0.78 8.05 2.95 12.57
1/17/2021 7:00:00 PM 6.81 44.258 0.779 8.04 3.29 12.5
1/17/2021 7:15:00 PM 6.79 44.222 0.779 8.04 2.78 12.44
1/17/2021 7:30:00 PM 6.77 44.186 0.779 8.03 2.14 12.36
1/17/2021 7:45:00 PM 6.73 44.114 0.779 8.02 2.91 12.3
1/17/2021 8:00:00 PM 6.71 44.078 0.779 8.01 2.35 12.22
1/17/2021 8:15:00 PM 6.68 44.024 0.778 8 2.84 12.17
1/17/2021 8:30:00 PM 6.66 43.988 0.778 7.99 2.15 12.1
1/17/2021 8:45:00 PM 6.63 43.934 0.777 7.98 2.49 12.04
1/17/2021 9:00:00 PM 6.61 43.898 0.777 7.97 2.16 11.98
1/17/2021 9:15:00 PM 6.58 43.844 0.776 7.96 2.71 11.94
1/17/2021 9:30:00 PM 6.55 43.79 0.775 7.95 2.4 11.87
1/17/2021 9:45:00 PM 6.53 43.754 0.775 7.94 2.66 11.82
1/17/2021 10:00:00 PM 6.5 43.7 0.774 7.93 2.87 11.75
1/17/2021 10:15:00 PM 6.48 43.664 0.774 7.92 3.22 11.74
1/17/2021 10:30:00 PM 6.45 43.61 0.773 7.92 2.33 11.68
1/17/2021 10:45:00 PM 6.43 43.574 0.772 7.9 2.21 11.68
1/17/2021 11:00:00 PM 6.4 43.52 0.771 7.9 2.07 11.66
1/17/2021 11:15:00 PM 6.38 43.484 0.77 7.89 2.44 11.61
1/17/2021 11:30:00 PM 6.36 43.448 0.77 7.88 2.08 11.58
1/17/2021 11:45:00 PM 6.35 43.43 0.769 7.87 2.17 11.59
1/18/2021 12:00:00 AM 6.33 43.394 0.769 7.87 2.21 11.56
1/18/2021 12:15:00 AM 6.31 43.358 0.768 7.86 2.37 11.54
1/18/2021 12:30:00 AM 6.3 43.34 0.767 7.86 2.38 11.53
1/18/2021 12:45:00 AM 6.29 43.322 0.766 7.86 2.33 11.53
1/18/2021 1:00:00 AM 6.27 43.286 0.766 7.85 2.4 11.53
1/18/2021 1:15:00 AM 6.25 43.25 0.765 7.85 2.71 11.53
1/18/2021 1:30:00 AM 6.24 43.232 0.764 7.84 2.51 11.53
1/18/2021 1:45:00 AM 6.23 43.214 0.763 7.85 3.28 11.52
1/18/2021 2:00:00 AM 6.22 43.196 0.763 7.84 2.32 11.52
1/18/2021 2:15:00 AM 6.22 43.196 0.762 7.84 2.59 11.53
1/18/2021 2:30:00 AM 6.21 43.178 0.761 7.84 2.23 11.52
1/18/2021 2:45:00 AM 6.2 43.16 0.76 7.84 2.04 11.54
1/18/2021 3:00:00 AM 6.19 43.142 0.759 7.84 2.62 11.55
1/18/2021 3:15:00 AM 6.18 43.124 0.759 7.84 3.02 11.56
1/18/2021 3:30:00 AM 6.16 43.088 0.757 7.83 2.19 11.57
1/18/2021 3:45:00 AM 6.12 43.016 0.757 7.84 2.62 11.54
1/18/2021 4:00:00 AM 6.09 42.962 0.757 7.83 2.61 11.58
1/18/2021 4:15:00 AM 6.06 42.908 0.756 7.84 2.64 11.57
1/18/2021 4:30:00 AM 6.03 42.854 0.755 7.84 2.17 11.49
1/18/2021 4:45:00 AM 6 42.8 0.754 7.84 1.83 11.59
1/18/2021 5:00:00 AM 5.97 42.746 0.753 7.84 1.9 11.58
1/18/2021 5:15:00 AM 5.94 42.692 0.745 7.84 2.38 11.57
1/18/2021 5:30:00 AM 5.9 42.62 0.752 7.84 2.09 11.59
1/18/2021 5:45:00 AM 5.88 42.584 0.752 7.84 2.29 11.59
1/18/2021 6:00:00 AM 5.85 42.53 0.752 7.84 2.03 11.6
1/18/2021 6:15:00 AM 5.82 42.476 0.752 7.84 2.33 11.6
1/18/2021 6:30:00 AM 5.79 42.422 0.752 7.84 2.11 11.63
1/18/2021 6:45:00 AM 5.75 42.35 0.752 7.84 2.2 11.63
1/18/2021 7:00:00 AM 5.74 42.332 0.752 7.84 3.03 11.55
1/18/2021 7:15:00 AM 5.73 42.314 0.752 7.84 2.01 11.65
1/18/2021 7:30:00 AM 5.69 42.242 0.753 7.85 3.27 11.65
1/18/2021 7:45:00 AM 5.66 42.188 0.753 7.85 2.24 11.67
1/18/2021 8:00:00 AM 5.63 42.134 0.753 7.85 1.95 11.71
1/18/2021 8:15:00 AM 5.61 42.098 0.754 7.85 2.04 11.75
1/18/2021 8:30:00 AM 5.6 42.08 0.754 7.85 1.38 11.82
1/18/2021 8:45:00 AM 5.58 42.044 0.754 7.85 2.44 11.83
1/18/2021 9:00:00 AM 5.57 42.026 0.755 7.86 1.61 11.88
1/18/2021 9:15:00 AM 5.56 42.008 0.756 7.86 1.88 11.93
1/18/2021 9:30:00 AM 5.58 42.044 0.757 7.87 2.37 12.04
1/18/2021 9:45:00 AM 5.62 42.116 0.757 7.88 1.69 12.11
1/18/2021 10:00:00 AM 5.69 42.242 0.758 7.88 2 12.21
1/18/2021 10:15:00 AM 5.78 42.404 0.758 7.89 2.24 12.34
1/18/2021 10:30:00 AM 5.89 42.602 0.759 7.9 1.81 12.44
1/18/2021 10:45:00 AM 5.93 42.674 0.759 7.9 2.08 12.53
1/18/2021 11:00:00 AM 5.94 42.692 0.76 7.91 1.99 12.6
1/18/2021 11:15:00 AM 6 42.8 0.76 7.92 2.19 12.68
1/18/2021 11:30:00 AM 6.06 42.908 0.761 7.92 2.31 12.8
1/18/2021 11:45:00 AM 6.08 42.944 0.762 7.93 2.08 12.85
1/18/2021 12:00:00 PM 6.11 42.998 0.763 7.94 2.21 12.92
1/18/2021 12:15:00 PM 6.18 43.124 0.763 7.94 1.87 12.99
1/18/2021 12:30:00 PM 6.23 43.214 0.764 7.95 1.67 13.07
1/18/2021 12:45:00 PM 6.28 43.304 0.764 7.96 1.94 13.16
1/18/2021 1:00:00 PM 6.32 43.376 0.766 7.97 2.35 13.23
1/18/2021 1:15:00 PM 6.35 43.43 0.767 7.98 2.35 13.26
1/18/2021 1:30:00 PM 6.41 43.538 0.767 7.98 1.94 13.33
1/18/2021 1:45:00 PM 6.45 43.61 0.767 8 3 13.42
1/18/2021 2:00:00 PM 6.5 43.7 0.768 8.01 1.54 13.48
1/18/2021 2:15:00 PM 6.51 43.718 0.768 8.02 1.68 13.5
1/18/2021 2:30:00 PM 6.53 43.754 0.768 8.02 1.63 13.52
1/18/2021 2:45:00 PM 6.54 43.772 0.768 8.03 1.99 13.53
1/18/2021 3:00:00 PM 6.55 43.79 0.768 8.04 2 13.59
1/18/2021 3:15:00 PM 6.57 43.826 0.768 8.05 1.5 13.57
1/18/2021 3:30:00 PM 6.59 43.862 0.768 8.06 1.64 13.59
1/18/2021 3:45:00 PM 6.6 43.88 0.767 8.07 1.71 13.61
1/18/2021 4:00:00 PM 6.6 43.88 0.767 8.08 1.87 13.54
1/18/2021 4:15:00 PM 6.6 43.88 0.767 8.08 1.7 13.44
1/18/2021 4:30:00 PM 6.6 43.88 0.767 8.09 7.55 13.41
1/18/2021 4:45:00 PM 6.58 43.844 0.766 8.09 2.59 13.39
1/18/2021 5:00:00 PM 6.57 43.826 0.766 8.1 1.62 13.34
1/18/2021 5:15:00 PM 6.55 43.79 0.766 8.1 1.46 13.25
1/18/2021 5:30:00 PM 6.54 43.772 0.766 8.11 1.51 13.17
1/18/2021 5:45:00 PM 6.52 43.736 0.766 8.1 2.32 13.08
1/18/2021 6:00:00 PM 6.48 43.664 0.766 8.1 1.47 13.05
1/18/2021 6:15:00 PM 6.44 43.592 0.766 8.1 1.44 12.99
1/18/2021 6:30:00 PM 6.41 43.538 0.766 8.1 1.59 12.9
1/18/2021 6:45:00 PM 6.37 43.466 0.766 8.1 1.59 12.83
1/18/2021 7:00:00 PM 6.32 43.376 0.766 8.09 1.41 12.75
1/18/2021 7:15:00 PM 6.28 43.304 0.766 8.09 2.04 12.7
1/18/2021 7:30:00 PM 6.23 43.214 0.766 8.08 1.85 12.61
1/18/2021 7:45:00 PM 6.18 43.124 0.766 8.07 2.37 12.55
1/18/2021 8:00:00 PM 6.13 43.034 0.766 8.06 1.53 12.51
1/18/2021 8:15:00 PM 6.08 42.944 0.767 8.05 1.96 12.44
1/18/2021 8:30:00 PM 6.03 42.854 0.767 8.04 2.2 12.38
1/18/2021 8:45:00 PM 5.97 42.746 0.767 8.03 2.18 12.33
1/18/2021 9:00:00 PM 5.92 42.656 0.767 8.02 1.83 12.29
1/18/2021 9:15:00 PM 5.87 42.566 0.767 8.01 1.57 12.23
1/18/2021 9:30:00 PM 5.84 42.512 0.767 8 1.6 12.19
1/18/2021 9:45:00 PM 5.81 42.458 0.767 7.99 1.71 12.15
1/18/2021 10:00:00 PM 5.79 42.422 0.766 7.98 1.63 12.12
1/18/2021 10:15:00 PM 5.76 42.368 0.766 7.97 1.65 12.07
1/18/2021 10:30:00 PM 5.72 42.296 0.765 7.96 2.16 12.04
1/18/2021 10:45:00 PM 5.67 42.206 0.765 7.95 2.82 12.04
1/18/2021 11:00:00 PM 5.62 42.116 0.763 7.95 1.22 12
1/18/2021 11:15:00 PM 5.59 42.062 0.763 7.94 1.52 11.99
1/18/2021 11:30:00 PM 5.55 41.99 0.761 7.93 1.6 11.98
1/18/2021 11:45:00 PM 5.51 41.918 0.76 7.92 1.81 11.96
1/19/2021 12:00:00 AM 5.48 41.864 0.759 7.91 2.13 11.94
1/19/2021 12:15:00 AM 5.44 41.792 0.758 7.91 2.01 11.93
1/19/2021 12:30:00 AM 5.41 41.738 0.757 7.91 1.53 11.97
1/19/2021 12:45:00 AM 5.38 41.684 0.755 7.9 1.48 11.97
1/19/2021 1:00:00 AM 5.34 41.612 0.754 7.9 1.7 11.96
1/19/2021 1:15:00 AM 5.31 41.558 0.751 7.9 2.54 11.95
1/19/2021 1:30:00 AM 5.27 41.486 0.751 7.89 2.16 11.98
1/19/2021 1:45:00 AM 5.24 41.432 0.75 7.89 2.35 11.97
1/19/2021 2:00:00 AM 5.21 41.378 0.751 7.89 1.86 11.99
1/19/2021 2:15:00 AM 5.18 41.324 0.75 7.89 1.9 11.95
1/19/2021 2:30:00 AM 5.15 41.27 0.748 7.89 1.91 11.99
1/19/2021 2:45:00 AM 5.13 41.234 0.747 7.89 3.3 12
1/19/2021 3:00:00 AM 5.09 41.162 0.746 7.89 1.72 12
1/19/2021 3:15:00 AM 5.07 41.126 0.745 7.88 4.3 12.04
1/19/2021 3:30:00 AM 5.04 41.072 0.744 7.88 1.54 12.04
1/19/2021 3:45:00 AM 5.01 41.018 0.743 7.88 2.06 12.05
1/19/2021 4:00:00 AM 4.99 40.982 0.742 7.89 2.18 12.04
1/19/2021 4:15:00 AM 4.98 40.964 0.741 7.89 4.11 12.06
1/19/2021 4:30:00 AM 4.98 40.964 0.742 7.88 2.47 12.11
1/19/2021 4:45:00 AM 4.98 40.964 0.74 7.88 1.88 12.09
1/19/2021 5:00:00 AM 4.98 40.964 0.74 7.88 2.39 12.1
1/19/2021 5:15:00 AM 4.97 40.946 0.74 7.88 1.62 12.08
1/19/2021 5:30:00 AM 4.97 40.946 0.741 7.88 1.68 12.11
1/19/2021 5:45:00 AM 4.97 40.946 0.741 7.88 2.05 12.09
1/19/2021 6:00:00 AM 4.97 40.946 0.74 7.88 1.86 12.11
1/19/2021 6:15:00 AM 4.95 40.91 0.74 7.88 1.89 12.1
1/19/2021 6:30:00 AM 4.92 40.856 0.739 7.88 1.63 12.13
1/19/2021 6:45:00 AM 4.92 40.856 0.739 7.88 1.69 12.13
1/19/2021 7:00:00 AM 4.92 40.856 0.739 7.88 1.69 12.14
1/19/2021 7:15:00 AM 4.9 40.82 0.739 7.88 1.54 12.13
1/19/2021 7:30:00 AM 4.88 40.784 0.739 7.88 1.73 12.16
1/19/2021 7:45:00 AM 4.87 40.766 0.739 7.89 1.65 12.16
1/19/2021 8:00:00 AM 4.86 40.748 0.739 7.89 3.14 12.21
1/19/2021 8:15:00 AM 4.87 40.766 0.739 7.89 1.95 12.24
1/19/2021 8:30:00 AM 4.89 40.802 0.739 7.9 1.76 12.26
1/19/2021 8:45:00 AM 4.92 40.856 0.739 7.9 1.61 12.35
1/19/2021 9:00:00 AM 4.94 40.892 0.74 7.9 1.71 12.43
1/19/2021 9:15:00 AM 4.97 40.946 0.74 7.91 1.74 12.47
1/19/2021 9:30:00 AM 5.01 41.018 0.74 7.92 1.72 12.58
1/19/2021 9:45:00 AM 5.06 41.108 0.741 7.92 1.66 12.69
1/19/2021 10:00:00 AM 5.13 41.234 0.741 7.93 1.66 12.79
1/19/2021 10:15:00 AM 5.21 41.378 0.742 7.93 1.96 12.86
1/19/2021 10:30:00 AM 5.29 41.522 0.743 7.94 1.67 12.91
1/19/2021 10:45:00 AM 5.4 41.72 0.743 7.94 2.76 13.06
1/19/2021 11:00:00 AM 5.49 41.882 0.743 7.95 1.59 13.11
1/19/2021 11:15:00 AM 5.52 41.936 0.744 7.96 1.56 13.18
1/19/2021 11:30:00 AM 5.52 41.936 0.746 7.96 1.74 13.21
1/19/2021 11:45:00 AM 5.52 41.936 0.746 7.96 1.57 13.18
1/19/2021 12:00:00 PM 5.55 41.99 0.747 7.97 4.25 13.24
1/19/2021 12:15:00 PM 5.6 42.08 0.748 7.98 1.95 13.3
1/19/2021 12:30:00 PM 5.64 42.152 0.749 7.98 1.92 13.4
1/19/2021 12:45:00 PM 5.72 42.296 0.75 7.99 1.41 13.5
1/19/2021 1:00:00 PM 5.81 42.458 0.75 8 1.74 13.54
1/19/2021 1:15:00 PM 5.88 42.584 0.751 8 1.68 13.65
1/19/2021 1:30:00 PM 5.95 42.71 0.751 8.02 1.66 13.74
1/19/2021 1:45:00 PM 6.03 42.854 0.752 8.02 1.8 13.8
1/19/2021 2:00:00 PM 6.06 42.908 0.753 8.03 1.36 13.82
1/19/2021 2:15:00 PM 6.08 42.944 0.753 8.04 3.53 13.85
1/19/2021 2:30:00 PM 6.1 42.98 0.753 8.06 1.69 13.91
1/19/2021 2:45:00 PM 6.14 43.052 0.753 8.06 1.67 13.94
1/19/2021 3:00:00 PM 6.15 43.07 0.753 8.07 2.93 13.92
1/19/2021 3:15:00 PM 6.14 43.052 0.751 8.08 2.51 13.91
1/19/2021 3:30:00 PM 6.14 43.052 0.751 8.09 1.77 13.87
1/19/2021 3:45:00 PM 6.14 43.052 0.751 8.09 1.64 13.88
1/19/2021 4:00:00 PM 6.15 43.07 0.752 8.1 1.62 13.84
1/19/2021 4:15:00 PM 6.16 43.088 0.754 8.11 1.5 13.77
1/19/2021 4:30:00 PM 6.18 43.124 0.754 8.11 1.39 13.75
1/19/2021 4:45:00 PM 6.18 43.124 0.754 8.12 1.37 13.75
1/19/2021 5:00:00 PM 6.16 43.088 0.753 8.13 1.26 13.7
1/19/2021 5:15:00 PM 6.14 43.052 0.754 8.13 1.94 13.64
1/19/2021 5:30:00 PM 6.1 42.98 0.754 8.13 1.71 13.58
1/19/2021 5:45:00 PM 6.07 42.926 0.754 8.13 1.7 13.5
1/19/2021 6:00:00 PM 6.03 42.854 0.753 8.13 1.37 13.45
1/19/2021 6:15:00 PM 5.99 42.782 0.753 8.13 1.59 13.38
1/19/2021 6:30:00 PM 5.94 42.692 0.753 8.13 1.54 13.29
1/19/2021 6:45:00 PM 5.9 42.62 0.753 8.13 1.61 13.24
1/19/2021 7:00:00 PM 5.85 42.53 0.753 8.12 1.45 13.17
1/19/2021 7:15:00 PM 5.8 42.44 0.753 8.12 1.49 13.12
1/19/2021 7:30:00 PM 5.76 42.368 0.753 8.12 1.42 13.01
1/19/2021 7:45:00 PM 5.71 42.278 0.753 8.11 1.48 12.96
1/19/2021 8:00:00 PM 5.67 42.206 0.753 8.1 1.67 12.88
1/19/2021 8:15:00 PM 5.62 42.116 0.753 8.09 1.68 12.83
1/19/2021 8:30:00 PM 5.57 42.026 0.752 8.08 1.95 12.78
1/19/2021 8:45:00 PM 5.52 41.936 0.753 8.07 1.97 12.62
1/19/2021 9:00:00 PM 5.47 41.846 0.753 8.06 1.5 12.65
1/19/2021 9:15:00 PM 5.42 41.756 0.753 8.05 2.73 12.61
1/19/2021 9:30:00 PM 5.37 41.666 0.753 8.04 1.8 12.55
1/19/2021 9:45:00 PM 5.32 41.576 0.752 8.03 1.42 12.48
1/19/2021 10:00:00 PM 5.26 41.468 0.748 8.02 1.65 12.44
1/19/2021 10:15:00 PM 5.21 41.378 0.752 8.01 1.97 12.46
1/19/2021 10:30:00 PM 5.16 41.288 0.751 8 1.28 12.39
1/19/2021 10:45:00 PM 5.13 41.234 0.75 7.99 1.68 12.34
1/19/2021 11:00:00 PM 5.11 41.198 0.75 7.98 1.71 12.29
1/19/2021 11:15:00 PM 5.08 41.144 0.75 7.97 2.06 12.29
1/19/2021 11:30:00 PM 5.05 41.09 0.749 7.96 1.8 12.28
1/19/2021 11:45:00 PM 5.02 41.036 0.748 7.95 1.51 12.27
1/20/2021 12:00:00 AM 4.99 40.982 0.748 7.95 1.9 12.24
1/20/2021 12:15:00 AM 4.97 40.946 0.747 7.94 1.78 12.21
1/20/2021 12:30:00 AM 4.95 40.91 0.747 7.93 1.51 12.19
1/20/2021 12:45:00 AM 4.93 40.874 0.746 7.92 1.71 12.19
1/20/2021 1:00:00 AM 4.92 40.856 0.746 7.92 1.8 12.19
1/20/2021 1:15:00 AM 4.91 40.838 0.745 7.91 1.55 12.16
1/20/2021 1:30:00 AM 4.9 40.82 0.745 7.91 1.64 12.19
1/20/2021 1:45:00 AM 4.89 40.802 0.746 7.91 1.75 12.2
1/20/2021 2:00:00 AM 4.88 40.784 0.746 7.9 1.66 12.17
1/20/2021 2:15:00 AM 4.87 40.766 0.745 7.9 1.75 12.16
1/20/2021 2:30:00 AM 4.86 40.748 0.746 7.89 1.91 12.18
1/20/2021 2:45:00 AM 4.86 40.748 0.746 7.89 1.5 12.15
1/20/2021 3:00:00 AM 4.85 40.73 0.746 7.89 1.7 12.17
1/20/2021 3:15:00 AM 4.85 40.73 0.747 7.89 1.87 12.15
1/20/2021 3:30:00 AM 4.85 40.73 0.747 7.89 1.89 12.15
1/20/2021 3:45:00 AM 4.86 40.748 0.748 7.89 1.56 12.15
1/20/2021 4:00:00 AM 4.86 40.748 0.748 7.88 2.09 12.17
1/20/2021 4:15:00 AM 4.87 40.766 0.749 7.88 1.63 12.18
1/20/2021 4:30:00 AM 4.88 40.784 0.75 7.89 1.87 12.15
1/20/2021 4:45:00 AM 4.89 40.802 0.751 7.89 1.89 12.12
1/20/2021 5:00:00 AM 4.9 40.82 0.751 7.88 1.58 12.14
1/20/2021 5:15:00 AM 4.91 40.838 0.752 7.89 1.4 12.13
1/20/2021 5:30:00 AM 4.92 40.856 0.753 7.88 1.69 12.15
1/20/2021 5:45:00 AM 4.93 40.874 0.754 7.89 1.44 12.14
1/20/2021 6:00:00 AM 4.94 40.892 0.754 7.89 2.06 12.14
1/20/2021 6:15:00 AM 4.93 40.874 0.754 7.89 1.64 12.13
1/20/2021 6:30:00 AM 4.93 40.874 0.745 7.89 2.12 12.1
1/20/2021 6:45:00 AM 4.93 40.874 0.745 7.88 2.04 12.09
1/20/2021 7:00:00 AM 4.91 40.838 0.746 7.89 2.43 12.13
1/20/2021 7:15:00 AM 4.89 40.802 0.727 7.89 1.97 12.11
1/20/2021 7:30:00 AM 4.9 40.82 0.73 7.89 3.23 12.12
1/20/2021 7:45:00 AM 4.89 40.802 0.728 7.89 1.6 12.15
1/20/2021 8:00:00 AM 4.88 40.784 0.73 7.89 1.83 12.12
1/20/2021 8:15:00 AM 4.87 40.766 0.731 7.89 2.73 12.15
1/20/2021 8:30:00 AM 4.86 40.748 0.731 7.9 1.76 12.23
1/20/2021 8:45:00 AM 4.86 40.748 0.732 7.9 1.58 12.29
1/20/2021 9:00:00 AM 4.85 40.73 0.73 7.91 1.99 12.35
1/20/2021 9:15:00 AM 4.84 40.712 0.731 7.91 1.88 12.36
1/20/2021 9:30:00 AM 4.86 40.748 0.736 7.91 1.56 12.42
1/20/2021 9:45:00 AM 4.88 40.784 0.738 7.92 1.65 12.5
1/20/2021 10:00:00 AM 4.94 40.892 0.736 7.93 1.73 12.61
1/20/2021 10:15:00 AM 5.01 41.018 0.74 7.93 1.99 12.73
1/20/2021 10:30:00 AM 5.09 41.162 0.74 7.94 2.04 12.82
1/20/2021 10:45:00 AM 5.14 41.252 0.75 7.94 1.68 12.89
1/20/2021 11:00:00 AM 5.21 41.378 0.748 7.95 1.63 12.97
1/20/2021 11:15:00 AM 5.26 41.468 0.768 7.95 1.73 13.07
1/20/2021 11:30:00 AM 5.23 41.414 0.769 7.96 1.73 13.09
1/20/2021 11:45:00 AM 5.25 41.45 0.771 7.97 1.53 13.13
1/20/2021 12:00:00 PM 5.37 41.666 0.772 7.97 1.37 13.28
1/20/2021 12:15:00 PM 5.43 41.774 0.773 7.98 1.79 13.38
1/20/2021 12:30:00 PM 5.48 41.864 0.773 7.99 1.74 13.46
1/20/2021 12:45:00 PM 5.53 41.954 0.774 8 1.39 13.52
1/20/2021 1:00:00 PM 5.59 42.062 0.775 8.01 1.65 13.59
1/20/2021 1:15:00 PM 5.54 41.972 0.777 8.02 1.7 13.63
1/20/2021 1:30:00 PM 5.53 41.954 0.778 8.02 2.21 13.62
1/20/2021 1:45:00 PM 5.56 42.008 0.779 8.03 1.99 13.69
1/20/2021 2:00:00 PM 5.61 42.098 0.779 8.04 1.65 13.78
1/20/2021 2:15:00 PM 5.64 42.152 0.782 8.05 1.36 13.84
1/20/2021 2:30:00 PM 5.64 42.152 0.783 8.06 1.85 13.89
1/20/2021 2:45:00 PM 5.6 42.08 0.784 8.07 1.68 13.86
1/20/2021 3:00:00 PM 5.6 42.08 0.785 8.07 1.55 13.9
1/20/2021 3:15:00 PM 5.57 42.026 0.786 8.08 2.75 13.93
1/20/2021 3:30:00 PM 5.52 41.936 0.786 8.09 2.3 13.94
1/20/2021 3:45:00 PM 5.5 41.9 0.787 8.1 1.88 13.89
1/20/2021 4:00:00 PM 5.48 41.864 0.787 8.11 2.46 13.94
1/20/2021 4:15:00 PM 5.47 41.846 0.787 8.11 1.86 13.95
1/20/2021 4:30:00 PM 5.46 41.828 0.788 8.12 2.4 13.88
1/20/2021 4:45:00 PM 5.45 41.81 0.788 8.13 1.95 13.89
1/20/2021 5:00:00 PM 5.42 41.756 0.788 8.14 2.13 13.86
1/20/2021 5:15:00 PM 5.39 41.702 0.789 8.14 1.67 13.81
1/20/2021 5:30:00 PM 5.35 41.63 0.789 8.14 1.54 13.77
1/20/2021 5:45:00 PM 5.31 41.558 0.78 8.15 1.59 13.71
1/20/2021 6:00:00 PM 5.27 41.486 0.779 8.15 1.47 13.65
1/20/2021 6:15:00 PM 5.23 41.414 0.787 8.15 1.4 13.63
1/20/2021 6:30:00 PM 5.18 41.324 0.79 8.15 1.58 13.53
1/20/2021 6:45:00 PM 5.13 41.234 0.79 8.15 1.82 13.5
1/20/2021 7:00:00 PM 5.08 41.144 0.791 8.15 1.64 13.48
1/20/2021 7:15:00 PM 5.03 41.054 0.791 8.15 1.47 13.38
1/20/2021 7:30:00 PM 4.97 40.946 0.792 8.14 1.86 13.32
1/20/2021 7:45:00 PM 4.92 40.856 0.792 8.14 1.5 13.24
1/20/2021 8:00:00 PM 4.87 40.766 0.793 8.13 1.61 13.15
1/20/2021 8:15:00 PM 4.82 40.676 0.793 8.12 2.13 13.11
1/20/2021 8:30:00 PM 4.77 40.586 0.793 8.11 1.35 13.09
1/20/2021 8:45:00 PM 4.73 40.514 0.794 8.1 1.59 13.01
1/20/2021 9:00:00 PM 4.67 40.406 0.794 8.09 1.61 12.94
1/20/2021 9:15:00 PM 4.62 40.316 0.795 8.08 1.93 12.9
1/20/2021 9:30:00 PM 4.57 40.226 0.795 8.07 1.99 12.84
1/20/2021 9:45:00 PM 4.52 40.136 0.795 8.06 1.56 12.81
1/20/2021 10:00:00 PM 4.47 40.046 0.796 8.05 2.26 12.72
1/20/2021 10:15:00 PM 4.42 39.956 0.795 8.04 1.58 12.69
1/20/2021 10:30:00 PM 4.36 39.848 0.751 8.03 1.68 12.66
1/20/2021 10:45:00 PM 4.31 39.758 0.798 8.02 2.42 12.68
1/20/2021 11:00:00 PM 4.26 39.668 0.798 8.01 3.69 12.62
1/20/2021 11:15:00 PM 4.21 39.578 0.798 8 1.57 12.61
1/20/2021 11:30:00 PM 4.16 39.488 0.798 7.99 1.56 12.58
1/20/2021 11:45:00 PM 4.12 39.416 0.798 7.99 1.65 12.56
1/21/2021 12:00:00 AM 4.07 39.326 0.797 7.98 1.5 12.54
1/21/2021 12:15:00 AM 4.02 39.236 0.797 7.97 1.25 12.53
1/21/2021 12:30:00 AM 3.98 39.164 0.797 7.97 1.38 12.48
1/21/2021 12:45:00 AM 3.93 39.074 0.796 7.96 1.67 12.51
1/21/2021 1:00:00 AM 3.89 39.002 0.796 7.95 1.43 12.49
1/21/2021 1:15:00 AM 3.85 38.93 0.796 7.95 1.55 12.52
1/21/2021 1:30:00 AM 3.8 38.84 0.795 7.95 1.68 12.48
1/21/2021 1:45:00 AM 3.76 38.768 0.795 7.94 1.78 12.52
1/21/2021 2:00:00 AM 3.73 38.714 0.794 7.94 1.81 12.51
1/21/2021 2:15:00 AM 3.68 38.624 0.794 7.94 1.45 12.54
1/21/2021 2:30:00 AM 3.64 38.552 0.793 7.93 1.81 12.55
1/21/2021 2:45:00 AM 3.61 38.498 0.793 7.93 1.49 12.56
1/21/2021 3:00:00 AM 3.58 38.444 0.793 7.93 1.71 12.57
1/21/2021 3:15:00 AM 3.54 38.372 0.792 7.93 1.77 12.55
1/21/2021 3:30:00 AM 3.5 38.3 0.792 7.93 1.51 12.59
1/21/2021 3:45:00 AM 3.46 38.228 0.792 7.93 1.4 12.59
1/21/2021 4:00:00 AM 3.43 38.174 0.792 7.92 1.41 12.62
1/21/2021 4:15:00 AM 3.39 38.102 0.792 7.92 1.85 12.61
1/21/2021 4:30:00 AM 3.36 38.048 0.792 7.93 1.6 12.62
1/21/2021 4:45:00 AM 3.33 37.994 0.792 7.92 1.51 12.62
1/21/2021 5:00:00 AM 3.3 37.94 0.792 7.93 1.68 12.63
1/21/2021 5:15:00 AM 3.27 37.886 0.792 7.93 1.44 12.66
1/21/2021 5:30:00 AM 3.24 37.832 0.792 7.93 1.43 12.67
1/21/2021 5:45:00 AM 3.22 37.796 0.792 7.93 1.55 12.67
1/21/2021 6:00:00 AM 3.22 37.796 0.792 7.94 1.58 12.69
1/21/2021 6:15:00 AM 3.21 37.778 0.792 7.93 1.29 12.71
1/21/2021 6:30:00 AM 3.2 37.76 0.792 7.93 2.15 12.7
1/21/2021 6:45:00 AM 3.19 37.742 0.793 7.94 2.09 12.7
1/21/2021 7:00:00 AM 3.19 37.742 0.793 7.94 1.75 12.72
1/21/2021 7:15:00 AM 3.18 37.724 0.793 7.94 1.86 12.73
1/21/2021 7:30:00 AM 3.17 37.706 0.793 7.94 1.6 12.74
1/21/2021 7:45:00 AM 3.18 37.724 0.794 7.94 1.66 12.73
1/21/2021 8:00:00 AM 3.18 37.724 0.794 7.94 1.56 12.79
1/21/2021 8:15:00 AM 3.19 37.742 0.794 7.94 1.62 12.81
1/21/2021 8:30:00 AM 3.22 37.796 0.794 7.95 3.65 12.84
1/21/2021 8:45:00 AM 3.25 37.85 0.795 7.95 1.51 12.9
1/21/2021 9:00:00 AM 3.27 37.886 0.795 7.95 2.81 13
1/21/2021 9:15:00 AM 3.27 37.886 0.796 7.96 1.61 13.02
1/21/2021 9:30:00 AM 3.29 37.922 0.796 7.96 5.3 13.07
1/21/2021 9:45:00 AM 3.34 38.012 0.796 7.96 1.7 13.13
1/21/2021 10:00:00 AM 3.4 38.12 0.797 7.97 1.81 13.21
1/21/2021 10:15:00 AM 3.5 38.3 0.797 7.97 1.7 13.27
1/21/2021 10:30:00 AM 3.61 38.498 0.798 7.98 3.38 13.4
1/21/2021 10:45:00 AM 3.74 38.732 0.798 7.98 1.79 13.44
1/21/2021 11:00:00 AM 3.87 38.966 0.798 7.98 1.66 13.51
1/21/2021 11:15:00 AM 3.99 39.182 0.799 7.98 1.62 13.58
1/21/2021 11:30:00 AM 4.13 39.434 0.799 7.99 1.97 13.61
1/21/2021 11:45:00 AM 4.22 39.596 0.8 7.99 1.9 13.7
1/21/2021 12:00:00 PM 4.31 39.758 0.8 8 2.13 13.74
1/21/2021 12:15:00 PM 4.39 39.902 0.801 8.01 1.7 13.79
1/21/2021 12:30:00 PM 4.48 40.064 0.801 8.01 1.91 13.88
1/21/2021 12:45:00 PM 4.55 40.19 0.802 8.01 1.93 13.9
1/21/2021 1:00:00 PM 4.64 40.352 0.802 8.02 2.14 13.96
1/21/2021 1:15:00 PM 4.74 40.532 0.803 8.03 2.33 14
1/21/2021 1:30:00 PM 4.83 40.694 0.803 8.03 2.08 14.08
1/21/2021 1:45:00 PM 4.93 40.874 0.803 8.05 2.4 14.13
1/21/2021 2:00:00 PM 4.98 40.964 0.804 8.06 2.18 14.08
1/21/2021 2:15:00 PM 5.05 41.09 0.804 8.07 2.17 14.19
1/21/2021 2:30:00 PM 5.1 41.18 0.804 8.07 1.87 14.21
1/21/2021 2:45:00 PM 5.14 41.252 0.804 8.08 1.95 14.27
1/21/2021 3:00:00 PM 5.18 41.324 0.804 8.09 1.68 14.23
1/21/2021 3:15:00 PM 5.22 41.396 0.803 8.1 3.16 14.26
1/21/2021 3:30:00 PM 5.24 41.432 0.803 8.1 2.29 14.26
1/21/2021 3:45:00 PM 5.27 41.486 0.803 8.11 1.75 14.21
1/21/2021 4:00:00 PM 5.31 41.558 0.802 8.12 1.54 14.2
1/21/2021 4:15:00 PM 5.33 41.594 0.802 8.13 1.8 14.16
1/21/2021 4:30:00 PM 5.34 41.612 0.802 8.13 2.9 14.11
1/21/2021 4:45:00 PM 5.34 41.612 0.802 8.14 2.29 14.05
1/21/2021 5:00:00 PM 5.34 41.612 0.802 8.14 1.76 14.01
1/21/2021 5:15:00 PM 5.33 41.594 0.802 8.15 1.89 13.97
1/21/2021 5:30:00 PM 5.31 41.558 0.801 8.15 1.63 13.91
1/21/2021 5:45:00 PM 5.28 41.504 0.801 8.15 1.71 13.86
1/21/2021 6:00:00 PM 5.25 41.45 0.802 8.16 1.49 13.71
1/21/2021 6:15:00 PM 5.22 41.396 0.802 8.16 2.72 13.7
1/21/2021 6:30:00 PM 5.18 41.324 0.802 8.16 1.36 13.63
1/21/2021 6:45:00 PM 5.14 41.252 0.802 8.16 1.61 13.55
1/21/2021 7:00:00 PM 5.1 41.18 0.803 8.16 1.57 13.45
1/21/2021 7:15:00 PM 5.06 41.108 0.803 8.15 1.46 13.39
1/21/2021 7:30:00 PM 5.02 41.036 0.804 8.15 1.78 13.3
1/21/2021 7:45:00 PM 4.98 40.964 0.804 8.15 1.43 13.2
1/21/2021 8:00:00 PM 4.93 40.874 0.805 8.14 1.45 13.14
1/21/2021 8:15:00 PM 4.89 40.802 0.806 8.13 1.95 13.04
1/21/2021 8:30:00 PM 4.85 40.73 0.806 8.13 1.44 13.01
1/21/2021 8:45:00 PM 4.8 40.64 0.807 8.12 1.96 12.95
1/21/2021 9:00:00 PM 4.76 40.568 0.807 8.11 1.82 12.89
1/21/2021 9:15:00 PM 4.71 40.478 0.808 8.1 1.45 12.83
1/21/2021 9:30:00 PM 4.67 40.406 0.809 8.09 1.53 12.77
1/21/2021 9:45:00 PM 4.62 40.316 0.81 8.07 1.79 12.69
1/21/2021 10:00:00 PM 4.58 40.244 0.81 8.07 1.62 12.61
1/21/2021 10:15:00 PM 4.53 40.154 0.811 8.05 1.95 12.59
1/21/2021 10:30:00 PM 4.49 40.082 0.811 8.04 1.52 12.55
1/21/2021 10:45:00 PM 4.44 39.992 0.811 8.03 1.59 12.52
1/21/2021 11:00:00 PM 4.4 39.92 0.812 8.02 1.46 12.48
1/21/2021 11:15:00 PM 4.36 39.848 0.812 8.01 1.65 12.46
1/21/2021 11:30:00 PM 4.33 39.794 0.812 8 1.58 12.42
1/21/2021 11:45:00 PM 4.31 39.758 0.812 7.99 1.58 12.38
1/22/2021 12:00:00 AM 4.29 39.722 0.812 7.98 1.58 12.37
1/22/2021 12:15:00 AM 4.27 39.686 0.812 7.97 1.89 12.36
1/22/2021 12:30:00 AM 4.25 39.65 0.812 7.96 2.17 12.34
1/22/2021 12:45:00 AM 4.24 39.632 0.812 7.96 1.54 12.32
1/22/2021 1:00:00 AM 4.22 39.596 0.812 7.95 1.52 12.3
1/22/2021 1:15:00 AM 4.22 39.596 0.811 7.94 2.75 12.31
1/22/2021 1:30:00 AM 4.22 39.596 0.811 7.94 1.66 12.28
1/22/2021 1:45:00 AM 4.21 39.578 0.81 7.93 1.96 12.3
1/22/2021 2:00:00 AM 4.21 39.578 0.809 7.93 1.75 12.27
1/22/2021 2:15:00 AM 4.19 39.542 0.809 7.92 1.46 12.3
1/22/2021 2:30:00 AM 4.17 39.506 0.808 7.92 1.71 12.27
1/22/2021 2:45:00 AM 4.15 39.47 0.808 7.92 1.81 12.3
1/22/2021 3:00:00 AM 4.13 39.434 0.807 7.92 2.03 12.33
1/22/2021 3:15:00 AM 4.12 39.416 0.806 7.91 1.85 12.28
1/22/2021 3:30:00 AM 4.11 39.398 0.805 7.91 1.81 12.3
1/22/2021 3:45:00 AM 4.1 39.38 0.805 7.91 1.74 12.3
1/22/2021 4:00:00 AM 4.1 39.38 0.805 7.91 2.57 12.28
1/22/2021 4:15:00 AM 4.09 39.362 0.804 7.91 2.35 12.27
1/22/2021 4:30:00 AM 4.09 39.362 0.803 7.91 1.77 12.3
1/22/2021 4:45:00 AM 4.08 39.344 0.802 7.91 2.25 12.31
1/22/2021 5:00:00 AM 4.07 39.326 0.802 7.91 1.66 12.3
1/22/2021 5:15:00 AM 4.06 39.308 0.801 7.91 1.76 12.29
1/22/2021 5:30:00 AM 4.05 39.29 0.801 7.91 2.25 12.28
1/22/2021 5:45:00 AM 4.04 39.272 0.8 7.9 1.55 12.29
1/22/2021 6:00:00 AM 4.04 39.272 0.8 7.9 4.2 12.29
1/22/2021 6:15:00 AM 4.05 39.29 0.799 7.91 2.37 12.29
1/22/2021 6:30:00 AM 4.06 39.308 0.799 7.91 2.07 12.29
1/22/2021 6:45:00 AM 4.07 39.326 0.799 7.91 2.3 12.29
1/22/2021 7:00:00 AM 4.09 39.362 0.799 7.9 2.22 12.27
1/22/2021 7:15:00 AM 4.11 39.398 0.799 7.9 1.86 12.28
1/22/2021 7:30:00 AM 4.13 39.434 0.799 7.91 1.73 12.29
1/22/2021 7:45:00 AM 4.14 39.452 0.799 7.9 1.78 12.29
1/22/2021 8:00:00 AM 4.16 39.488 0.799 7.9 1.8 12.28
1/22/2021 8:15:00 AM 4.17 39.506 0.799 7.91 1.66 12.32
1/22/2021 8:30:00 AM 4.2 39.56 0.8 7.91 5.23 12.41
1/22/2021 8:45:00 AM 4.23 39.614 0.8 7.92 2.08 12.46
1/22/2021 9:00:00 AM 4.26 39.668 0.8 7.92 1.86 12.47
1/22/2021 9:15:00 AM 4.31 39.758 0.8 7.92 8.69 12.56
1/22/2021 9:30:00 AM 4.37 39.866 0.8 7.93 3.85 12.63
1/22/2021 9:45:00 AM 4.43 39.974 0.8 7.93 3.16 12.78
1/22/2021 10:00:00 AM 4.5 40.1 0.801 7.94 2.3 12.85
1/22/2021 10:15:00 AM 4.59 40.262 0.801 7.95 2.43 12.93
1/22/2021 10:30:00 AM 4.66 40.388 0.802 7.95 2.12 13.01
1/22/2021 10:45:00 AM 4.77 40.586 0.803 7.96 2.16 13.12
1/22/2021 11:00:00 AM 4.9 40.82 0.803 7.97 2.06 13.19
1/22/2021 11:15:00 AM 4.97 40.946 0.803 7.97 2.29 13.31
1/22/2021 11:30:00 AM 5.12 41.216 0.804 7.98 1.55 13.37
1/22/2021 11:45:00 AM 5.2 41.36 0.805 7.99 1.39 13.42
1/22/2021 12:00:00 PM 5.22 41.396 0.806 8 2 13.51
1/22/2021 12:15:00 PM 5.26 41.468 0.806 8.01 1.89 13.61
1/22/2021 12:30:00 PM 5.31 41.558 0.807 8.02 1.43 13.67
1/22/2021 12:45:00 PM 5.36 41.648 0.808 8.02 1.53 13.73
1/22/2021 1:00:00 PM 5.37 41.666 0.809 8.03 1.66 13.79
1/22/2021 1:15:00 PM 5.37 41.666 0.809 8.04 1.7 13.77
1/22/2021 1:30:00 PM 5.43 41.774 0.81 8.05 1.55 13.83
1/22/2021 1:45:00 PM 5.51 41.918 0.811 8.06 2.84 13.9
1/22/2021 2:00:00 PM 5.48 41.864 0.811 8.07 4.43 13.98
1/22/2021 2:15:00 PM 5.57 42.026 0.811 8.08 4.16 14.06
1/22/2021 2:30:00 PM 5.61 42.098 0.811 8.09 1.86 14.12
1/22/2021 2:45:00 PM 5.62 42.116 0.811 8.1 2.91 14.12
1/22/2021 3:00:00 PM 5.61 42.098 0.812 8.11 3.06 14.16
1/22/2021 3:15:00 PM 5.62 42.116 0.812 8.12 2.7 14.19
1/22/2021 3:30:00 PM 5.62 42.116 0.812 8.13 2.55 14.21
1/22/2021 3:45:00 PM 5.62 42.116 0.812 8.14 1.93 14.19
1/22/2021 4:00:00 PM 5.64 42.152 0.812 8.15 2.28 14.19
1/22/2021 4:15:00 PM 5.66 42.188 0.813 8.16 2.2 14.2
1/22/2021 4:30:00 PM 5.68 42.224 0.813 8.16 1.79 14.15
1/22/2021 4:45:00 PM 5.68 42.224 0.813 8.17 1.59 14.14
1/22/2021 5:00:00 PM 5.68 42.224 0.813 8.17 2.11 14.08
1/22/2021 5:15:00 PM 5.68 42.224 0.814 8.18 1.64 14.03
1/22/2021 5:30:00 PM 5.68 42.224 0.814 8.18 2 13.96
1/22/2021 5:45:00 PM 5.66 42.188 0.814 8.18 2.21 13.88
1/22/2021 6:00:00 PM 5.64 42.152 0.814 8.18 2.07 13.79
1/22/2021 6:15:00 PM 5.61 42.098 0.815 8.18 1.73 13.73
1/22/2021 6:30:00 PM 5.58 42.044 0.815 8.18 1.88 13.63
1/22/2021 6:45:00 PM 5.55 41.99 0.816 8.18 2.07 13.55
1/22/2021 7:00:00 PM 5.52 41.936 0.816 8.18 1.72 13.49
1/22/2021 7:15:00 PM 5.49 41.882 0.817 8.17 2.03 13.37
1/22/2021 7:30:00 PM 5.46 41.828 0.817 8.17 1.67 13.31
1/22/2021 7:45:00 PM 5.44 41.792 0.817 8.16 1.71 13.25
1/22/2021 8:00:00 PM 5.42 41.756 0.818 8.16 3.21 13.15
1/22/2021 8:15:00 PM 5.39 41.702 0.819 8.14 2.06 13.05
1/22/2021 8:30:00 PM 5.36 41.648 0.819 8.14 2.18 13.01
1/22/2021 8:45:00 PM 5.35 41.63 0.819 8.13 1.76 12.9
1/22/2021 9:00:00 PM 5.32 41.576 0.82 8.11 2.39 12.84
1/22/2021 9:15:00 PM 5.3 41.54 0.82 8.11 1.57 12.76
1/22/2021 9:30:00 PM 5.28 41.504 0.82 8.09 1.56 12.69
1/22/2021 9:45:00 PM 5.26 41.468 0.821 8.08 4.38 12.64
1/22/2021 10:00:00 PM 5.23 41.414 0.822 8.07 1.81 12.56
1/22/2021 10:15:00 PM 5.22 41.396 0.822 8.06 2.03 12.48
1/22/2021 10:30:00 PM 5.2 41.36 0.822 8.05 2.12 12.45
1/22/2021 10:45:00 PM 5.18 41.324 0.822 8.03 2.04 12.37
1/22/2021 11:00:00 PM 5.15 41.27 0.823 8.02 2.56 12.35
1/22/2021 11:15:00 PM 5.13 41.234 0.823 8.01 1.77 12.33
1/22/2021 11:30:00 PM 5.09 41.162 0.823 8 1.96 12.24
1/22/2021 11:45:00 PM 5.06 41.108 0.823 7.99 1.7 12.24
1/23/2021 12:00:00 AM 5.03 41.054 0.823 7.98 2.09 12.19
1/23/2021 12:15:00 AM 4.99 40.982 0.824 7.98 2.45 12.16
1/23/2021 12:30:00 AM 4.96 40.928 0.824 7.97 2.05 12.15
1/23/2021 12:45:00 AM 4.93 40.874 0.824 7.96 11.28 12.13
1/23/2021 1:00:00 AM 4.91 40.838 0.824 7.96 1.34 12.13
1/23/2021 1:15:00 AM 4.87 40.766 0.823 7.95 2.01 12.13
1/23/2021 1:30:00 AM 4.84 40.712 0.823 7.95 1.35 12.08
1/23/2021 1:45:00 AM 4.81 40.658 0.822 7.94 1.55 12.12
1/23/2021 2:00:00 AM 4.77 40.586 0.822 7.94 1.61 12.12
1/23/2021 2:15:00 AM 4.74 40.532 0.822 7.93 1.56 12.11
1/23/2021 2:30:00 AM 4.71 40.478 0.822 7.93 2.14 12.13
1/23/2021 2:45:00 AM 4.67 40.406 0.821 7.93 1.95 12.16
1/23/2021 3:00:00 AM 4.64 40.352 0.821 7.92 1.96 12.14
1/23/2021 3:15:00 AM 4.62 40.316 0.82 7.92 2.01 12.12
1/23/2021 3:30:00 AM 4.61 40.298 0.819 7.92 1.74 12.14
1/23/2021 3:45:00 AM 4.58 40.244 0.819 7.92 2.11 12.19
1/23/2021 4:00:00 AM 4.57 40.226 0.818 7.92 1.62 12.17
1/23/2021 4:15:00 AM 4.54 40.172 0.818 7.92 2.06 12.2
1/23/2021 4:30:00 AM 4.5 40.1 0.818 7.92 1.86 12.17
1/23/2021 4:45:00 AM 4.49 40.082 0.817 7.92 1.64 12.16
1/23/2021 5:00:00 AM 4.46 40.028 0.816 7.92 1.81 12.18
1/23/2021 5:15:00 AM 4.43 39.974 0.816 7.92 1.72 12.2
1/23/2021 5:30:00 AM 4.41 39.938 0.815 7.92 2 12.2
1/23/2021 5:45:00 AM 4.36 39.848 0.814 7.92 1.73 12.22
1/23/2021 6:00:00 AM 4.34 39.812 0.814 7.91 1.87 12.23
1/23/2021 6:15:00 AM 4.3 39.74 0.813 7.91 1.52 12.26
1/23/2021 6:30:00 AM 4.25 39.65 0.813 7.92 2.67 12.25
1/23/2021 6:45:00 AM 4.22 39.596 0.813 7.92 1.64 12.25
1/23/2021 7:00:00 AM 4.18 39.524 0.812 7.92 1.8 12.28
1/23/2021 7:15:00 AM 4.14 39.452 0.812 7.92 2.33 12.3
1/23/2021 7:30:00 AM 4.1 39.38 0.812 7.93 1.89 12.3
1/23/2021 7:45:00 AM 4.07 39.326 0.811 7.92 1.83 12.32
1/23/2021 8:00:00 AM 4.04 39.272 0.811 7.93 1.62 12.42
1/23/2021 8:15:00 AM 4.03 39.254 0.811 7.93 3.21 12.46
1/23/2021 8:30:00 AM 4 39.2 0.81 7.93 1.68 12.52
1/23/2021 8:45:00 AM 3.95 39.11 0.81 7.94 1.81 12.59
1/23/2021 9:00:00 AM 3.92 39.056 0.81 7.94 2.05 12.65
1/23/2021 9:15:00 AM 3.94 39.092 0.81 7.95 1.82 12.75
1/23/2021 9:30:00 AM 3.92 39.056 0.81 7.95 6.22 12.82
1/23/2021 9:45:00 AM 3.94 39.092 0.81 7.96 4.56 12.9
1/23/2021 10:00:00 AM 3.94 39.092 0.81 7.97 2 13
1/23/2021 10:15:00 AM 4.01 39.218 0.81 7.97 1.88 13.12
1/23/2021 10:30:00 AM 4.05 39.29 0.81 7.98 1.55 13.22
1/23/2021 10:45:00 AM 4.05 39.29 0.811 7.99 1.32 13.31
1/23/2021 11:00:00 AM 4.07 39.326 0.811 8 1.41 13.38
1/23/2021 11:15:00 AM 4.11 39.398 0.81 8.01 1.81 13.48
1/23/2021 11:30:00 AM 4.11 39.398 0.811 8.01 1.43 13.6
1/23/2021 11:45:00 AM 4.12 39.416 0.811 8.02 1.65 13.67
1/23/2021 12:00:00 PM 4.14 39.452 0.811 8.03 2.57 13.76
1/23/2021 12:15:00 PM 4.17 39.506 0.812 8.04 1.97 13.88
1/23/2021 12:30:00 PM 4.26 39.668 0.812 8.04 1.59 14
1/23/2021 12:45:00 PM 4.3 39.74 0.812 8.05 1.7 14.09
1/23/2021 1:00:00 PM 4.3 39.74 0.812 8.06 1.57 14.18
1/23/2021 1:15:00 PM 4.3 39.74 0.812 8.07 1.81 14.25
1/23/2021 1:30:00 PM 4.32 39.776 0.812 8.08 2.78 14.31
1/23/2021 1:45:00 PM 4.3 39.74 0.813 8.09 2.26 14.42
1/23/2021 2:00:00 PM 4.27 39.686 0.813 8.1 6.29 14.4
1/23/2021 2:15:00 PM 4.23 39.614 0.813 8.11 2.41 14.47
1/23/2021 2:30:00 PM 4.25 39.65 0.813 8.12 2.63 14.52
1/23/2021 2:45:00 PM 4.27 39.686 0.813 8.13 2.14 14.6
1/23/2021 3:00:00 PM 4.24 39.632 0.813 8.14 2.97 14.67
1/23/2021 3:15:00 PM 4.19 39.542 0.813 8.15 3 14.68
1/23/2021 3:30:00 PM 4.17 39.506 0.812 8.16 2.14 14.72
1/23/2021 3:45:00 PM 4.13 39.434 0.812 8.17 2.25 14.71
1/23/2021 4:00:00 PM 4.07 39.326 0.812 8.17 1.93 14.64
1/23/2021 4:15:00 PM 4.03 39.254 0.812 8.19 2.23 14.7
1/23/2021 4:30:00 PM 4 39.2 0.811 8.19 2.12 14.68
1/23/2021 4:45:00 PM 3.98 39.164 0.811 8.2 2.91 14.63
1/23/2021 5:00:00 PM 3.95 39.11 0.811 8.2 1.66 14.6
1/23/2021 5:15:00 PM 3.92 39.056 0.811 8.21 1.68 14.64
1/23/2021 5:30:00 PM 3.9 39.02 0.81 8.22 1.59 14.56
1/23/2021 5:45:00 PM 3.88 38.984 0.81 8.22 1.65 14.52
1/23/2021 6:00:00 PM 3.84 38.912 0.81 8.23 1.51 14.42
1/23/2021 6:15:00 PM 3.81 38.858 0.81 8.23 2.31 14.39
1/23/2021 6:30:00 PM 3.77 38.786 0.81 8.23 1.82 14.33
1/23/2021 6:45:00 PM 3.73 38.714 0.81 8.23 1.52 14.33
1/23/2021 7:00:00 PM 3.68 38.624 0.81 8.23 1.75 14.29
1/23/2021 7:15:00 PM 3.62 38.516 0.81 8.22 1.66 14.18
1/23/2021 7:30:00 PM 3.57 38.426 0.811 8.22 1.5 14.11
1/23/2021 7:45:00 PM 3.53 38.354 0.811 8.21 1.49 14.07
1/23/2021 8:00:00 PM 3.49 38.282 0.811 8.21 1.57 14
1/23/2021 8:15:00 PM 3.44 38.192 0.812 8.2 1.55 13.91
1/23/2021 8:30:00 PM 3.39 38.102 0.812 8.2 1.49 13.85
1/23/2021 8:45:00 PM 3.35 38.03 0.813 8.19 1.51 13.8
1/23/2021 9:00:00 PM 3.31 37.958 0.813 8.17 1.74 13.69
1/23/2021 9:15:00 PM 3.27 37.886 0.813 8.17 1.84 13.68
1/23/2021 9:30:00 PM 3.22 37.796 0.814 8.15 1.6 13.61
1/23/2021 9:45:00 PM 3.17 37.706 0.815 8.14 3.04 13.6
1/23/2021 10:00:00 PM 3.14 37.652 0.816 8.12 2.03 13.5
1/23/2021 10:15:00 PM 3.1 37.58 0.816 8.12 1.54 13.45
1/23/2021 10:30:00 PM 3.08 37.544 0.817 8.11 1.4 13.4
1/23/2021 10:45:00 PM 3.04 37.472 0.817 8.09 1.5 13.32
1/23/2021 11:00:00 PM 3.01 37.418 0.818 8.08 1.55 13.3
1/23/2021 11:15:00 PM 2.97 37.346 0.818 8.07 2.43 13.3
1/23/2021 11:30:00 PM 2.93 37.274 0.819 8.06 1.25 13.28
1/23/2021 11:45:00 PM 2.9 37.22 0.819 8.05 1.43 13.22
1/24/2021 12:00:00 AM 2.88 37.184 0.819 8.04 1.58 13.2
1/24/2021 12:15:00 AM 2.87 37.166 0.819 8.03 1.32 13.11
1/24/2021 12:30:00 AM 2.84 37.112 0.82 8.03 1.82 13.17
1/24/2021 12:45:00 AM 2.82 37.076 0.82 8.02 1.33 13.17
1/24/2021 1:00:00 AM 2.78 37.004 0.82 8.01 1.38 13.12
1/24/2021 1:15:00 AM 2.75 36.95 0.82 8 1.65 13.14
1/24/2021 1:30:00 AM 2.71 36.878 0.82 7.99 1.58 13.13
1/24/2021 1:45:00 AM 2.68 36.824 0.82 7.99 1.26 13.13
1/24/2021 2:00:00 AM 2.65 36.77 0.82 7.98 2.41 13.17
1/24/2021 2:15:00 AM 2.63 36.734 0.82 7.98 1.38 13.13
1/24/2021 2:30:00 AM 2.6 36.68 0.819 7.98 1.63 13.14
1/24/2021 2:45:00 AM 2.58 36.644 0.819 7.98 1.48 13.15
1/24/2021 3:00:00 AM 2.55 36.59 0.819 7.97 2.08 13.16
1/24/2021 3:15:00 AM 2.52 36.536 0.818 7.97 1.57 13.19
1/24/2021 3:30:00 AM 2.51 36.518 0.818 7.97 1.41 13.2
1/24/2021 3:45:00 AM 2.5 36.5 0.817 7.97 2.06 13.16
1/24/2021 4:00:00 AM 2.48 36.464 0.817 7.97 1.33 13.21
1/24/2021 4:15:00 AM 2.45 36.41 0.816 7.97 1.65 13.19
1/24/2021 4:30:00 AM 2.42 36.356 0.816 7.96 1.51 13.22
1/24/2021 4:45:00 AM 2.39 36.302 0.815 7.96 1.38 13.23
1/24/2021 5:00:00 AM 2.37 36.266 0.815 7.96 1.5 13.17
1/24/2021 5:15:00 AM 2.34 36.212 0.813 7.97 1.46 13.25
1/24/2021 5:30:00 AM 2.3 36.14 0.813 7.96 1.87 13.24
1/24/2021 5:45:00 AM 2.27 36.086 0.812 7.97 1.43 13.17
1/24/2021 6:00:00 AM 2.24 36.032 0.811 7.97 2.09 13.27
1/24/2021 6:15:00 AM 2.21 35.978 0.81 7.97 1.48 13.27
1/24/2021 6:30:00 AM 2.18 35.924 0.81 7.97 2.1 13.26
1/24/2021 6:45:00 AM 2.15 35.87 0.809 7.97 1.64 13.31
1/24/2021 7:00:00 AM 2.12 35.816 0.809 7.97 2.36 13.3
1/24/2021 7:15:00 AM 2.1 35.78 0.808 7.97 2.68 13.35
1/24/2021 7:30:00 AM 2.08 35.744 0.807 7.97 1.63 13.34
1/24/2021 7:45:00 AM 2.05 35.69 0.806 7.98 1.59 13.39
1/24/2021 8:00:00 AM 2.03 35.654 0.806 7.98 2.18 13.41
1/24/2021 8:15:00 AM 2.01 35.618 0.805 7.98 2.08 13.44
1/24/2021 8:30:00 AM 1.99 35.582 0.804 7.99 1.8 13.51
1/24/2021 8:45:00 AM 1.98 35.564 0.804 7.99 2.32 13.56
1/24/2021 9:00:00 AM 1.98 35.564 0.803 8 1.6 13.66
1/24/2021 9:15:00 AM 1.98 35.564 0.802 8 1.86 13.71
1/24/2021 9:30:00 AM 1.99 35.582 0.802 8 1.9 13.76
1/24/2021 9:45:00 AM 2.01 35.618 0.802 8 2.12 13.83
1/24/2021 10:00:00 AM 2.05 35.69 0.801 8.01 3.18 13.92
1/24/2021 10:15:00 AM 2.12 35.816 0.801 8.01 1.77 14
1/24/2021 10:30:00 AM 2.21 35.978 0.8 8.02 1.58 14.12
1/24/2021 10:45:00 AM 2.31 36.158 0.8 8.02 1.76 14.24
1/24/2021 11:00:00 AM 2.42 36.356 0.8 8.03 2.18 14.3
1/24/2021 11:15:00 AM 2.52 36.536 0.8 8.03 1.99 14.41
1/24/2021 11:30:00 AM 2.64 36.752 0.799 8.04 3.03 14.49
1/24/2021 11:45:00 AM 2.72 36.896 0.799 8.04 2.23 14.57
1/24/2021 12:00:00 PM 2.8 37.04 0.799 8.05 1.93 14.6
1/24/2021 12:15:00 PM 2.86 37.148 0.799 8.05 2.48 14.72
1/24/2021 12:30:00 PM 2.9 37.22 0.799 8.06 1.68 14.76
1/24/2021 12:45:00 PM 2.95 37.31 0.8 8.07 2.19 14.86
1/24/2021 1:00:00 PM 3.02 37.436 0.8 8.08 1.56 14.87
1/24/2021 1:15:00 PM 3.1 37.58 0.8 8.08 3.06 14.97
1/24/2021 1:30:00 PM 3.15 37.67 0.801 8.09 2.09 15
1/24/2021 1:45:00 PM 3.15 37.67 0.801 8.11 1.79 15.09
1/24/2021 2:00:00 PM 3.22 37.796 0.801 8.11 1.58 15.07
1/24/2021 2:15:00 PM 3.27 37.886 0.802 8.13 2.14 15.07
1/24/2021 2:30:00 PM 3.31 37.958 0.803 8.14 1.58 15.22
1/24/2021 2:45:00 PM 3.37 38.066 0.803 8.14 1.77 15.23
1/24/2021 3:00:00 PM 3.39 38.102 0.804 8.15 1.61 15.32
1/24/2021 3:15:00 PM 3.4 38.12 0.805 8.17 1.5 15.33
1/24/2021 3:30:00 PM 3.41 38.138 0.806 8.18 1.48 15.33
1/24/2021 3:45:00 PM 3.4 38.12 0.806 8.18 1.89 15.3
1/24/2021 4:00:00 PM 3.39 38.102 0.807 8.19 1.41 15.29
1/24/2021 4:15:00 PM 3.4 38.12 0.808 8.19 1.67 15.3
1/24/2021 4:30:00 PM 3.41 38.138 0.809 8.2 1.82 15.27
1/24/2021 4:45:00 PM 3.42 38.156 0.809 8.21 1.66 15.24
1/24/2021 5:00:00 PM 3.41 38.138 0.81 8.21 1.79 15.19
1/24/2021 5:15:00 PM 3.41 38.138 0.811 8.22 1.45 15.16
1/24/2021 5:30:00 PM 3.42 38.156 0.811 8.21 2.22 15.1
1/24/2021 5:45:00 PM 3.41 38.138 0.812 8.22 1.67 15.01
1/24/2021 6:00:00 PM 3.41 38.138 0.812 8.22 1.6 14.94
1/24/2021 6:15:00 PM 3.4 38.12 0.813 8.22 1.59 14.88
1/24/2021 6:30:00 PM 3.37 38.066 0.813 8.22 2.14 14.81
1/24/2021 6:45:00 PM 3.35 38.03 0.813 8.22 1.36 14.73
1/24/2021 7:00:00 PM 3.34 38.012 0.814 8.22 1.89 14.69
1/24/2021 7:15:00 PM 3.32 37.976 0.815 8.21 1.88 14.56
1/24/2021 7:30:00 PM 3.3 37.94 0.815 8.21 2.46 14.51
1/24/2021 7:45:00 PM 3.28 37.904 0.815 8.19 1.89 14.38
1/24/2021 8:00:00 PM 3.26 37.868 0.815 8.19 1.45 14.32
1/24/2021 8:15:00 PM 3.24 37.832 0.816 8.18 1.52 14.23
1/24/2021 8:30:00 PM 3.22 37.796 0.816 8.17 1.5 14.17
1/24/2021 8:45:00 PM 3.21 37.778 0.817 8.16 1.41 14.1
1/24/2021 9:00:00 PM 3.19 37.742 0.817 8.16 1.44 14
1/24/2021 9:15:00 PM 3.17 37.706 0.817 8.14 1.26 13.97
1/24/2021 9:30:00 PM 3.16 37.688 0.817 8.13 1.58 13.84
1/24/2021 9:45:00 PM 3.15 37.67 0.817 8.12 1.64 13.78
1/24/2021 10:00:00 PM 3.13 37.634 0.818 8.11 1.43 13.69
1/24/2021 10:15:00 PM 3.11 37.598 0.818 8.1 1.8 13.65
1/24/2021 10:30:00 PM 3.09 37.562 0.818 8.08 3.7 13.57
1/24/2021 10:45:00 PM 3.08 37.544 0.818 8.07 1.54 13.53
1/24/2021 11:00:00 PM 3.06 37.508 0.819 8.06 1.55 13.47
1/24/2021 11:15:00 PM 3.05 37.49 0.819 8.05 1.16 13.42
1/24/2021 11:30:00 PM 3.04 37.472 0.819 8.04 1.64 13.37
1/24/2021 11:45:00 PM 3.02 37.436 0.819 8.03 1.38 13.28
1/25/2021 12:00:00 AM 3.01 37.418 0.819 8.02 1.26 13.3
1/25/2021 12:15:00 AM 3.01 37.418 0.819 8.02 1.61 13.26
1/25/2021 12:30:00 AM 3 37.4 0.819 8.01 1.57 13.22
1/25/2021 12:45:00 AM 2.99 37.382 0.819 8 1.41 13.18
1/25/2021 1:00:00 AM 2.98 37.364 0.819 7.99 1.66 13.16
1/25/2021 1:15:00 AM 2.97 37.346 0.819 7.99 1.31 13.15
1/25/2021 1:30:00 AM 2.97 37.346 0.818 7.98 1.93 13.12
1/25/2021 1:45:00 AM 2.96 37.328 0.818 7.97 1.5 13.09
1/25/2021 2:00:00 AM 2.96 37.328 0.818 7.97 1.86 13.11
1/25/2021 2:15:00 AM 2.96 37.328 0.818 7.96 1.46 13.06
1/25/2021 2:30:00 AM 2.96 37.328 0.817 7.96 1.42 13.07
1/25/2021 2:45:00 AM 2.95 37.31 0.817 7.96 1.42 13.02
1/25/2021 3:00:00 AM 2.95 37.31 0.816 7.95 2.15 13.08
1/25/2021 3:15:00 AM 2.95 37.31 0.816 7.95 1.6 13.05
1/25/2021 3:30:00 AM 2.95 37.31 0.816 7.95 1.6 13.05
1/25/2021 3:45:00 AM 2.94 37.292 0.815 7.94 1.64 13.04
1/25/2021 4:00:00 AM 2.94 37.292 0.815 7.95 1.52 13.05
1/25/2021 4:15:00 AM 2.94 37.292 0.815 7.94 1.46 13.05
1/25/2021 4:30:00 AM 2.94 37.292 0.814 7.94 1.36 13.04
1/25/2021 4:45:00 AM 2.93 37.274 0.814 7.94 1.43 13.06
1/25/2021 5:00:00 AM 2.93 37.274 0.814 7.94 1.39 13.03
1/25/2021 5:15:00 AM 2.93 37.274 0.813 7.94 1.45 13.04
1/25/2021 5:30:00 AM 2.92 37.256 0.813 7.93 1.4 13.03
1/25/2021 5:45:00 AM 2.92 37.256 0.813 7.93 1.66 13.05
1/25/2021 6:00:00 AM 2.92 37.256 0.812 7.93 1.46 13.06
1/25/2021 6:15:00 AM 2.91 37.238 0.811 7.93 1.66 13.05
1/25/2021 6:30:00 AM 2.91 37.238 0.811 7.93 2.14 13.06
1/25/2021 6:45:00 AM 2.91 37.238 0.811 7.93 1.55 13.06
1/25/2021 7:00:00 AM 2.91 37.238 0.81 7.93 1.66 13.03
1/25/2021 7:15:00 AM 2.91 37.238 0.81 7.93 1.19 13.06
1/25/2021 7:30:00 AM 2.91 37.238 0.809 7.93 1.28 13.05
1/25/2021 7:45:00 AM 2.91 37.238 0.809 7.93 1.61 13.08
1/25/2021 8:00:00 AM 2.91 37.238 0.808 7.93 1.76 13.06
1/25/2021 8:15:00 AM 2.92 37.256 0.808 7.93 1.38 13.08
1/25/2021 8:30:00 AM 2.92 37.256 0.808 7.93 17.03 13.13
1/25/2021 8:45:00 AM 2.93 37.274 0.807 7.94 1.51 13.16
1/25/2021 9:00:00 AM 2.95 37.31 0.806 7.94 2 13.19
1/25/2021 9:15:00 AM 2.97 37.346 0.806 7.94 2.31 13.21
1/25/2021 9:30:00 AM 2.98 37.364 0.805 7.95 1.52 13.32
1/25/2021 9:45:00 AM 3.01 37.418 0.804 7.95 1.58 13.37
1/25/2021 10:00:00 AM 3.06 37.508 0.804 7.96 5.69 13.44
1/25/2021 10:15:00 AM 3.11 37.598 0.803 7.96 1.59 13.53
1/25/2021 10:30:00 AM 3.14 37.652 0.802 7.97 3.37 13.62
1/25/2021 10:45:00 AM 3.2 37.76 0.801 7.97 1.45 13.67
1/25/2021 11:00:00 AM 3.25 37.85 0.801 7.98 1.58 13.75
1/25/2021 11:15:00 AM 3.29 37.922 0.8 7.98 3.72 13.82
1/25/2021 11:30:00 AM 3.33 37.994 0.8 7.99 1.72 13.89
1/25/2021 11:45:00 AM 3.39 38.102 0.799 8 1.82 13.97
1/25/2021 12:00:00 PM 3.43 38.174 0.799 8.01 1.71 14.04
1/25/2021 12:15:00 PM 3.47 38.246 0.798 8.02 1.36 14.07
1/25/2021 12:30:00 PM 3.51 38.318 0.798 8.03 4.3 14.17
1/25/2021 12:45:00 PM 3.55 38.39 0.798 8.03 2.87 14.24
1/25/2021 1:00:00 PM 3.6 38.48 0.797 8.04 1.48 14.33
1/25/2021 1:15:00 PM 3.64 38.552 0.797 8.05 1.88 14.36
1/25/2021 1:30:00 PM 3.67 38.606 0.797 8.06 1.86 14.45
1/25/2021 1:45:00 PM 3.69 38.642 0.797 8.07 1.96 14.45
1/25/2021 2:00:00 PM 3.72 38.696 0.797 8.07 2.13 14.54
1/25/2021 2:15:00 PM 3.75 38.75 0.797 8.09 1.55 14.59
1/25/2021 2:30:00 PM 3.77 38.786 0.797 8.09 1.68 14.6
1/25/2021 2:45:00 PM 3.79 38.822 0.797 8.1 1.59 14.64
1/25/2021 3:00:00 PM 3.8 38.84 0.797 8.11 2.11 14.68
1/25/2021 3:15:00 PM 3.82 38.876 0.797 8.12 1.33 14.66
1/25/2021 3:30:00 PM 3.84 38.912 0.797 8.13 1.32 14.72
1/25/2021 3:45:00 PM 3.85 38.93 0.797 8.14 1.37 14.74
1/25/2021 4:00:00 PM 3.86 38.948 0.797 8.14 1.31 14.72
1/25/2021 4:15:00 PM 3.86 38.948 0.797 8.15 1.23 14.68
1/25/2021 4:30:00 PM 3.87 38.966 0.798 8.15 1.5 14.72
1/25/2021 4:45:00 PM 3.87 38.966 0.798 8.16 3.2 14.65
1/25/2021 5:00:00 PM 3.88 38.984 0.799 8.16 5.16 14.62
1/25/2021 5:15:00 PM 3.88 38.984 0.799 8.16 1.86 14.53
1/25/2021 5:30:00 PM 3.88 38.984 0.799 8.16 1.8 14.51
1/25/2021 5:45:00 PM 3.88 38.984 0.8 8.16 1.93 14.4
1/25/2021 6:00:00 PM 3.88 38.984 0.8 8.17 1.67 14.35
1/25/2021 6:15:00 PM 3.87 38.966 0.801 8.16 2.81 14.27
1/25/2021 6:30:00 PM 3.87 38.966 0.801 8.16 1.85 14.22
1/25/2021 6:45:00 PM 3.87 38.966 0.802 8.16 1.48 14.14
1/25/2021 7:00:00 PM 3.86 38.948 0.803 8.16 1.54 14.09
1/25/2021 7:15:00 PM 3.86 38.948 0.803 8.15 1.6 13.98
1/25/2021 7:30:00 PM 3.85 38.93 0.804 8.15 1.91 13.9
1/25/2021 7:45:00 PM 3.85 38.93 0.805 8.14 1.52 13.83
1/25/2021 8:00:00 PM 3.85 38.93 0.805 8.14 1.86 13.66
1/25/2021 8:15:00 PM 3.84 38.912 0.806 8.12 1.65 13.69
1/25/2021 8:30:00 PM 3.84 38.912 0.806 8.11 1.66 13.59
1/25/2021 8:45:00 PM 3.83 38.894 0.807 8.11 1.62 13.51
1/25/2021 9:00:00 PM 3.83 38.894 0.808 8.1 1.66 13.41
1/25/2021 9:15:00 PM 3.82 38.876 0.808 8.09 1.56 13.38
1/25/2021 9:30:00 PM 3.82 38.876 0.809 8.08 1.32 13.31
1/25/2021 9:45:00 PM 3.81 38.858 0.809 8.07 1.58 13.23
1/25/2021 10:00:00 PM 3.81 38.858 0.81 8.05 2.09 13.2
1/25/2021 10:15:00 PM 3.81 38.858 0.81 8.04 1.67 13.12
1/25/2021 10:30:00 PM 3.81 38.858 0.81 8.04 1.97 13.07
1/25/2021 10:45:00 PM 3.8 38.84 0.81 8.02 1.66 13.02
1/25/2021 11:00:00 PM 3.8 38.84 0.811 8.01 1.65 12.97
1/25/2021 11:15:00 PM 3.8 38.84 0.811 8.01 2.42 12.92
1/25/2021 11:30:00 PM 3.8 38.84 0.811 8 1.51 12.86
1/25/2021 11:45:00 PM 3.79 38.822 0.811 7.99 1.49 12.84
1/26/2021 12:00:00 AM 3.79 38.822 0.807 7.98 1.69 12.81
1/26/2021 12:15:00 AM 3.79 38.822 0.81 7.97 1.48 12.74
1/26/2021 12:30:00 AM 3.79 38.822 0.81 7.97 1.83 12.74
1/26/2021 12:45:00 AM 3.8 38.84 0.81 7.96 1.71 12.73
1/26/2021 1:00:00 AM 3.8 38.84 0.81 7.95 1.39 12.69
1/26/2021 1:15:00 AM 3.8 38.84 0.81 7.95 3.32 12.66
1/26/2021 1:30:00 AM 3.8 38.84 0.809 7.95 1.38 12.66
1/26/2021 1:45:00 AM 3.8 38.84 0.809 7.94 1.58 12.63
1/26/2021 2:00:00 AM 3.81 38.858 0.808 7.94 1.62 12.64
1/26/2021 2:15:00 AM 3.81 38.858 0.807 7.94 1.36 12.63
1/26/2021 2:30:00 AM 3.82 38.876 0.807 7.93 2.4 12.58
1/26/2021 2:45:00 AM 3.82 38.876 0.806 7.93 1.76 12.6
1/26/2021 3:00:00 AM 3.83 38.894 0.805 7.92 1.57 12.59
1/26/2021 3:15:00 AM 3.83 38.894 0.805 7.92 1.51 12.58
1/26/2021 3:30:00 AM 3.83 38.894 0.804 7.92 2.16 12.58
1/26/2021 3:45:00 AM 3.84 38.912 0.803 7.92 1.52 12.53
1/26/2021 4:00:00 AM 3.85 38.93 0.803 7.92 1.65 12.57
1/26/2021 4:15:00 AM 3.85 38.93 0.804 7.91 1.6 12.52
1/26/2021 4:30:00 AM 3.86 38.948 0.801 7.91 1.52 12.56
1/26/2021 4:45:00 AM 3.86 38.948 0.8 7.91 1.53 12.57
1/26/2021 5:00:00 AM 3.87 38.966 0.8 7.92 1.45 12.51
1/26/2021 5:15:00 AM 3.87 38.966 0.799 7.91 1.41 12.52
1/26/2021 5:30:00 AM 3.88 38.984 0.798 7.91 1.58 12.52
1/26/2021 5:45:00 AM 3.88 38.984 0.796 7.91 1.61 12.53
1/26/2021 6:00:00 AM 3.89 39.002 0.796 7.91 1.49 12.49
1/26/2021 6:15:00 AM 3.9 39.02 0.795 7.91 1.55 12.54
1/26/2021 6:30:00 AM 3.9 39.02 0.794 7.91 1.83 12.51
1/26/2021 6:45:00 AM 3.91 39.038 0.792 7.91 1.93 12.51
1/26/2021 7:00:00 AM 3.92 39.056 0.791 7.9 1.69 12.5
1/26/2021 7:15:00 AM 3.92 39.056 0.79 7.91 1.73 12.5
1/26/2021 7:30:00 AM 3.93 39.074 0.788 7.91 1.78 12.48
1/26/2021 7:45:00 AM 3.94 39.092 0.786 7.91 1.59 12.5
1/26/2021 8:00:00 AM 3.94 39.092 0.784 7.91 1.95 12.5
1/26/2021 8:15:00 AM 3.94 39.092 0.781 7.9 1.34 12.51
1/26/2021 8:30:00 AM 3.94 39.092 0.777 7.9 1.89 12.54
1/26/2021 8:45:00 AM 3.96 39.128 0.775 7.91 1.43 12.56
1/26/2021 9:00:00 AM 3.98 39.164 0.775 7.91 1.81 12.61
1/26/2021 9:15:00 AM 3.99 39.182 0.773 7.91 1.63 12.62
1/26/2021 9:30:00 AM 4.01 39.218 0.77 7.92 1.43 12.63
1/26/2021 9:45:00 AM 4.03 39.254 0.769 7.92 1.58 12.73
1/26/2021 10:00:00 AM 4.05 39.29 0.767 7.93 1.92 12.76
1/26/2021 10:15:00 AM 4.05 39.29 0.764 7.93 1.93 12.8
1/26/2021 10:30:00 AM 4 39.2 0.759 7.94 1.72 12.8
1/26/2021 10:45:00 AM 4.01 39.218 0.756 7.94 2.28 12.78
1/26/2021 11:00:00 AM 4.05 39.29 0.754 7.95 2.73 12.88
1/26/2021 11:15:00 AM 4.09 39.362 0.753 7.95 1.99 12.95
1/26/2021 11:30:00 AM 4.12 39.416 0.751 7.96 2.77 12.98
1/26/2021 11:45:00 AM 4.15 39.47 0.75 7.96 2.55 13.05
1/26/2021 12:00:00 PM 4.18 39.524 0.748 7.96 2.49 13.1
1/26/2021 12:15:00 PM 4.21 39.578 0.747 7.97 2.12 13.14
1/26/2021 12:30:00 PM 4.23 39.614 0.746 7.97 2.31 13.18
1/26/2021 12:45:00 PM 4.26 39.668 0.745 7.97 2.2 13.23
1/26/2021 1:00:00 PM 4.29 39.722 0.744 7.98 1.97 13.29
1/26/2021 1:15:00 PM 4.31 39.758 0.743 7.98 1.82 13.35
1/26/2021 1:30:00 PM 4.33 39.794 0.742 7.99 1.97 13.36
1/26/2021 1:45:00 PM 4.36 39.848 0.742 7.99 2.48 13.41
1/26/2021 2:00:00 PM 4.39 39.902 0.74 7.99 2.02 13.46
1/26/2021 2:15:00 PM 4.41 39.938 0.74 8 3.41 13.51
1/26/2021 2:30:00 PM 4.44 39.992 0.741 8 3.18 13.54
1/26/2021 2:45:00 PM 4.46 40.028 0.742 8.01 2.7 13.57
1/26/2021 3:00:00 PM 4.48 40.064 0.743 8.01 2.7 13.53
1/26/2021 3:15:00 PM 4.5 40.1 0.743 8.01 3.21 13.58
1/26/2021 3:30:00 PM 4.52 40.136 0.744 8.01 2.53 13.59
1/26/2021 3:45:00 PM 4.53 40.154 0.745 8.01 2.4 13.59
1/26/2021 4:00:00 PM 4.55 40.19 0.746 8.02 2.87 13.58
1/26/2021 4:15:00 PM 4.56 40.208 0.749 8.02 2.48 13.56
1/26/2021 4:30:00 PM 4.57 40.226 0.751 8.02 2.95 13.54
1/26/2021 4:45:00 PM 4.58 40.244 0.754 8.02 2.76 13.44
1/26/2021 5:00:00 PM 4.59 40.262 0.756 8.02 2.4 13.45
1/26/2021 5:15:00 PM 4.61 40.298 0.759 8.02 2.33 13.41
1/26/2021 5:30:00 PM 4.62 40.316 0.761 8.02 2.35 13.36
1/26/2021 5:45:00 PM 4.62 40.316 0.764 8.02 2.53 13.32
1/26/2021 6:00:00 PM 4.63 40.334 0.768 8.02 2.94 13.27
1/26/2021 6:15:00 PM 4.64 40.352 0.767 8.02 2.58 13.22
1/26/2021 6:30:00 PM 4.64 40.352 0.77 8.02 2.23 13.11
1/26/2021 6:45:00 PM 4.65 40.37 0.771 8.01 2.99 13.09
1/26/2021 7:00:00 PM 4.66 40.388 0.773 8.01 2.6 13.04
1/26/2021 7:15:00 PM 4.67 40.406 0.774 8.01 2.22 12.98
1/26/2021 7:30:00 PM 4.68 40.424 0.777 8 2.46 12.86
1/26/2021 7:45:00 PM 4.68 40.424 0.78 7.99 2.46 12.86
1/26/2021 8:00:00 PM 4.69 40.442 0.782 7.99 2.47 12.8
1/26/2021 8:15:00 PM 4.69 40.442 0.783 7.98 2.97 12.77
1/26/2021 8:30:00 PM 4.7 40.46 0.785 7.98 2.41 12.68
1/26/2021 8:45:00 PM 4.7 40.46 0.786 7.97 2.82 12.6
1/26/2021 9:00:00 PM 4.7 40.46 0.786 7.96 2.41 12.61
1/26/2021 9:15:00 PM 4.7 40.46 0.786 7.96 2.38 12.55
1/26/2021 9:30:00 PM 4.7 40.46 0.787 7.95 2.35 12.49
1/26/2021 9:45:00 PM 4.7 40.46 0.788 7.94 2.63 12.43
1/26/2021 10:00:00 PM 4.7 40.46 0.791 7.94 2.53 12.41
1/26/2021 10:15:00 PM 4.7 40.46 0.798 7.93 2.48 12.38
1/26/2021 10:30:00 PM 4.69 40.442 0.808 7.92 3.14 12.31
1/26/2021 10:45:00 PM 4.69 40.442 0.821 7.91 2.57 12.3
1/26/2021 11:00:00 PM 4.69 40.442 0.835 7.9 2.59 12.22
1/26/2021 11:15:00 PM 4.69 40.442 0.849 7.9 2.57 12.2
1/26/2021 11:30:00 PM 4.69 40.442 0.861 7.89 2.59 12.16
1/26/2021 11:45:00 PM 4.69 40.442 0.868 7.88 2.89 12.13
1/27/2021 12:00:00 AM 4.69 40.442 0.869 7.88 2.92 12.11
1/27/2021 12:15:00 AM 4.68 40.424 0.867 7.87 3.47 12.05
1/27/2021 12:30:00 AM 4.68 40.424 0.861 7.86 3.48 12.08
1/27/2021 12:45:00 AM 4.68 40.424 0.852 7.85 3.79 12.07
1/27/2021 1:00:00 AM 4.68 40.424 0.842 7.85 3.18 12.04
1/27/2021 1:15:00 AM 4.67 40.406 0.831 7.85 2.83 12.04
1/27/2021 1:30:00 AM 4.68 40.424 0.822 7.85 3.02 12.04
1/27/2021 1:45:00 AM 4.68 40.424 0.813 7.85 2.87 12.05
1/27/2021 2:00:00 AM 4.68 40.424 0.806 7.85 3.43 12.05
1/27/2021 2:15:00 AM 4.68 40.424 0.799 7.85 3.57 12.04
1/27/2021 2:30:00 AM 4.69 40.442 0.792 7.85 3.38 12.04
1/27/2021 2:45:00 AM 4.69 40.442 0.787 7.84 3 12.06
1/27/2021 3:00:00 AM 4.69 40.442 0.782 7.84 2.73 12.06
1/27/2021 3:15:00 AM 4.69 40.442 0.782 7.84 3.26 12.08
1/27/2021 3:30:00 AM 4.7 40.46 0.776 7.85 3.88 12.06
1/27/2021 3:45:00 AM 4.7 40.46 0.774 7.85 3.39 12.07
1/27/2021 4:00:00 AM 4.71 40.478 0.771 7.85 2.89 12.09
1/27/2021 4:15:00 AM 4.72 40.496 0.77 7.85 3.01 12.06
1/27/2021 4:30:00 AM 4.72 40.496 0.769 7.84 2.62 12.09
1/27/2021 4:45:00 AM 4.73 40.514 0.768 7.85 2.89 12.08
1/27/2021 5:00:00 AM 4.73 40.514 0.769 7.84 3.96 12.11
1/27/2021 5:15:00 AM 4.73 40.514 0.769 7.85 2.73 12.07
1/27/2021 5:30:00 AM 4.73 40.514 0.772 7.85 3.01 12.1
1/27/2021 5:45:00 AM 4.74 40.532 0.772 7.85 2.98 12.08
1/27/2021 6:00:00 AM 4.74 40.532 0.774 7.85 2.83 12.08
1/27/2021 6:15:00 AM 4.74 40.532 0.775 7.85 2.94 12.07
1/27/2021 6:30:00 AM 4.74 40.532 0.778 7.84 2.7 12.07
1/27/2021 6:45:00 AM 4.75 40.55 0.779 7.84 3.02 12.1
1/27/2021 7:00:00 AM 4.75 40.55 0.781 7.84 3.54 12.06
1/27/2021 7:15:00 AM 4.76 40.568 0.783 7.84 3.26 12.09
1/27/2021 7:30:00 AM 4.76 40.568 0.784 7.84 3.16 12.01
1/27/2021 7:45:00 AM 4.77 40.586 0.785 7.84 2.57 12.08
1/27/2021 8:00:00 AM 4.78 40.604 0.785 7.84 2.62 12.1
1/27/2021 8:15:00 AM 4.79 40.622 0.785 7.85 2.81 12.14
1/27/2021 8:30:00 AM 4.8 40.64 0.785 7.85 2.8 12.14
1/27/2021 8:45:00 AM 4.82 40.676 0.784 7.84 2.55 12.18
1/27/2021 9:00:00 AM 4.83 40.694 0.784 7.85 2.74 12.22
1/27/2021 9:15:00 AM 4.86 40.748 0.783 7.85 2.89 12.27
1/27/2021 9:30:00 AM 4.87 40.766 0.781 7.85 2.64 12.37
1/27/2021 9:45:00 AM 4.9 40.82 0.781 7.86 3.69 12.5
1/27/2021 10:00:00 AM 4.95 40.91 0.78 7.87 2.93 12.6
1/27/2021 10:15:00 AM 5.04 41.072 0.779 7.88 2.68 12.7
1/27/2021 10:30:00 AM 5.14 41.252 0.778 7.89 2.76 12.88
1/27/2021 10:45:00 AM 5.28 41.504 0.778 7.9 2.67 12.98
1/27/2021 11:00:00 AM 5.3 41.54 0.777 7.9 2.65 13.08
1/27/2021 11:15:00 AM 5.33 41.594 0.777 7.91 2.68 13.15
1/27/2021 11:30:00 AM 5.47 41.846 0.777 7.92 2.79 13.28
1/27/2021 11:45:00 AM 5.45 41.81 0.778 7.93 2.79 13.39
1/27/2021 12:00:00 PM 5.42 41.756 0.778 7.94 2.54 13.49
1/27/2021 12:15:00 PM 5.42 41.756 0.779 7.95 2.14 13.52
1/27/2021 12:30:00 PM 5.45 41.81 0.779 7.96 2.32 13.61
1/27/2021 12:45:00 PM 5.51 41.918 0.78 7.97 2.34 13.78
1/27/2021 1:00:00 PM 5.53 41.954 0.781 7.99 2.41 13.91
1/27/2021 1:15:00 PM 5.58 42.044 0.781 8 2.73 14.04
1/27/2021 1:30:00 PM 5.6 42.08 0.782 8.01 2.12 14.12
1/27/2021 1:45:00 PM 5.64 42.152 0.783 8.03 2.13 14.21
1/27/2021 2:00:00 PM 5.71 42.278 0.783 8.05 2.11 14.33
1/27/2021 2:15:00 PM 5.75 42.35 0.784 8.06 4.44 14.45
1/27/2021 2:30:00 PM 5.79 42.422 0.784 8.07 2.19 14.46
1/27/2021 2:45:00 PM 5.77 42.386 0.785 8.09 2.46 14.56
1/27/2021 3:00:00 PM 5.78 42.404 0.785 8.1 2.04 14.64
1/27/2021 3:15:00 PM 5.76 42.368 0.785 8.11 1.93 14.62
1/27/2021 3:30:00 PM 5.76 42.368 0.786 8.13 2.09 14.69
1/27/2021 3:45:00 PM 5.77 42.386 0.786 8.14 2.08 14.73
1/27/2021 4:00:00 PM 5.78 42.404 0.786 8.16 2.26 14.77
1/27/2021 4:15:00 PM 5.79 42.422 0.786 8.17 1.71 14.71
1/27/2021 4:30:00 PM 5.8 42.44 0.787 8.18 1.81 14.71
1/27/2021 4:45:00 PM 5.79 42.422 0.787 8.19 1.54 14.69
1/27/2021 5:00:00 PM 5.77 42.386 0.787 8.21 1.84 14.72
1/27/2021 5:15:00 PM 5.75 42.35 0.787 8.21 2.22 14.61
1/27/2021 5:30:00 PM 5.75 42.35 0.788 8.21 1.74 14.52
1/27/2021 5:45:00 PM 5.73 42.314 0.788 8.22 2 14.44
1/27/2021 6:00:00 PM 5.73 42.314 0.788 8.23 1.8 14.36
1/27/2021 6:15:00 PM 5.72 42.296 0.789 8.23 1.82 14.31
1/27/2021 6:30:00 PM 5.7 42.26 0.79 8.23 2.1 14.22
1/27/2021 6:45:00 PM 5.67 42.206 0.79 8.23 1.88 14.13
1/27/2021 7:00:00 PM 5.64 42.152 0.791 8.23 1.88 14.03
1/27/2021 7:15:00 PM 5.62 42.116 0.791 8.23 1.98 13.9
1/27/2021 7:30:00 PM 5.6 42.08 0.792 8.22 2.32 13.8
1/27/2021 7:45:00 PM 5.58 42.044 0.792 8.22 2.53 13.61
1/27/2021 8:00:00 PM 5.57 42.026 0.793 8.21 2 13.56
1/27/2021 8:15:00 PM 5.54 41.972 0.794 8.2 1.9 13.5
1/27/2021 8:30:00 PM 5.51 41.918 0.795 8.19 2.07 13.38
1/27/2021 8:45:00 PM 5.48 41.864 0.795 8.18 1.95 13.26
1/27/2021 9:00:00 PM 5.45 41.81 0.796 8.17 2.15 13.16
1/27/2021 9:15:00 PM 5.42 41.756 0.797 8.15 1.93 13.04
1/27/2021 9:30:00 PM 5.38 41.684 0.798 8.14 2.43 12.92
1/27/2021 9:45:00 PM 5.34 41.612 0.798 8.13 1.73 12.85
1/27/2021 10:00:00 PM 5.31 41.558 0.799 8.11 1.79 12.76
1/27/2021 10:15:00 PM 5.26 41.468 0.8 8.09 2.25 12.66
1/27/2021 10:30:00 PM 5.22 41.396 0.801 8.08 2.08 12.63
1/27/2021 10:45:00 PM 5.17 41.306 0.802 8.06 2.44 12.55
1/27/2021 11:00:00 PM 5.13 41.234 0.803 8.05 1.94 12.47
1/27/2021 11:15:00 PM 5.08 41.144 0.803 8.04 1.83 12.42
1/27/2021 11:30:00 PM 5.03 41.054 0.804 8.02 1.78 12.36
1/27/2021 11:45:00 PM 4.98 40.964 0.805 8.01 2.03 12.34
1/28/2021 12:00:00 AM 4.94 40.892 0.805 7.99 2 12.28
1/28/2021 12:15:00 AM 4.89 40.802 0.806 7.98 2.63 12.25
1/28/2021 12:30:00 AM 4.84 40.712 0.807 7.97 2.13 12.22
1/28/2021 12:45:00 AM 4.8 40.64 0.807 7.96 2.12 12.2
1/28/2021 1:00:00 AM 4.75 40.55 0.808 7.96 2.15 12.19
1/28/2021 1:15:00 AM 4.7 40.46 0.808 7.95 2.06 12.21
1/28/2021 1:30:00 AM 4.66 40.388 0.809 7.94 2.03 12.18
1/28/2021 1:45:00 AM 4.62 40.316 0.809 7.94 2.04 12.16
1/28/2021 2:00:00 AM 4.59 40.262 0.809 7.94 1.85 12.17
1/28/2021 2:15:00 AM 4.56 40.208 0.809 7.94 1.86 12.16
1/28/2021 2:30:00 AM 4.52 40.136 0.81 7.93 2.08 12.13
1/28/2021 2:45:00 AM 4.48 40.064 0.81 7.93 1.78 12.17
1/28/2021 3:00:00 AM 4.43 39.974 0.81 7.93 1.97 12.15
1/28/2021 3:15:00 AM 4.4 39.92 0.81 7.93 2.05 12.18
1/28/2021 3:30:00 AM 4.36 39.848 0.81 7.93 2.21 12.16
1/28/2021 3:45:00 AM 4.34 39.812 0.809 7.93 2.04 12.22
1/28/2021 4:00:00 AM 4.31 39.758 0.803 7.93 1.9 12.22
1/28/2021 4:15:00 AM 4.28 39.704 0.808 7.93 2.36 12.21
1/28/2021 4:30:00 AM 4.25 39.65 0.807 7.93 2.36 12.21
1/28/2021 4:45:00 AM 4.23 39.614 0.807 7.93 2 12.25
1/28/2021 5:00:00 AM 4.19 39.542 0.806 7.92 2.82 12.21
1/28/2021 5:15:00 AM 4.16 39.488 0.806 7.93 1.59 12.25
1/28/2021 5:30:00 AM 4.14 39.452 0.805 7.93 2.02 12.27
1/28/2021 5:45:00 AM 4.1 39.38 0.804 7.92 1.68 12.29
1/28/2021 6:00:00 AM 4.07 39.326 0.803 7.92 1.77 12.3
1/28/2021 6:15:00 AM 4.03 39.254 0.803 7.93 1.92 12.32
1/28/2021 6:30:00 AM 3.99 39.182 0.802 7.92 1.99 12.29
1/28/2021 6:45:00 AM 3.95 39.11 0.801 7.93 1.92 12.32
1/28/2021 7:00:00 AM 3.91 39.038 0.8 7.93 1.82 12.35
1/28/2021 7:15:00 AM 3.87 38.966 0.799 7.92 2.16 12.35
1/28/2021 7:30:00 AM 3.84 38.912 0.798 7.93 2.07 12.36
1/28/2021 7:45:00 AM 3.81 38.858 0.798 7.93 2.12 12.4
1/28/2021 8:00:00 AM 3.79 38.822 0.797 7.93 2.53 12.46
1/28/2021 8:15:00 AM 3.78 38.804 0.796 7.93 1.85 12.53
1/28/2021 8:30:00 AM 3.76 38.768 0.796 7.94 2 12.61
1/28/2021 8:45:00 AM 3.74 38.732 0.796 7.94 2.05 12.69
1/28/2021 9:00:00 AM 3.72 38.696 0.795 7.95 2.43 12.73
1/28/2021 9:15:00 AM 3.67 38.606 0.794 7.95 2 12.83
1/28/2021 9:30:00 AM 3.64 38.552 0.794 7.96 1.79 12.9
1/28/2021 9:45:00 AM 3.6 38.48 0.794 7.97 2.27 13.02
1/28/2021 10:00:00 AM 3.61 38.498 0.794 7.98 2.13 13.12
1/28/2021 10:15:00 AM 3.63 38.534 0.793 7.99 2.39 13.24
1/28/2021 10:30:00 AM 3.72 38.696 0.793 8 1.78 13.38
1/28/2021 10:45:00 AM 3.82 38.876 0.793 8 2.13 13.51
1/28/2021 11:00:00 AM 3.93 39.074 0.792 8.01 1.75 13.66
1/28/2021 11:15:00 AM 4.02 39.236 0.792 8.01 1.78 13.79
1/28/2021 11:30:00 AM 4.12 39.416 0.792 8.02 1.83 13.92
1/28/2021 11:45:00 AM 4.17 39.506 0.792 8.02 1.82 14
1/28/2021 12:00:00 PM 4.22 39.596 0.792 8.02 2.13 14.12
1/28/2021 12:15:00 PM 4.25 39.65 0.792 8.04 1.77 14.21
1/28/2021 12:30:00 PM 4.28 39.704 0.793 8.05 1.95 14.34
1/28/2021 12:45:00 PM 4.33 39.794 0.793 8.07 1.65 14.37
1/28/2021 1:00:00 PM 4.36 39.848 0.793 8.08 1.66 14.5
1/28/2021 1:15:00 PM 4.42 39.956 0.793 8.09 1.54 14.59
1/28/2021 1:30:00 PM 4.45 40.01 0.794 8.11 2.02 14.72
1/28/2021 1:45:00 PM 4.48 40.064 0.794 8.12 1.76 14.8
1/28/2021 2:00:00 PM 4.53 40.154 0.795 8.13 1.45 14.89
1/28/2021 2:15:00 PM 4.54 40.172 0.795 8.15 1.52 14.97
1/28/2021 2:30:00 PM 4.55 40.19 0.795 8.16 1.49 15.02
1/28/2021 2:45:00 PM 4.55 40.19 0.796 8.18 1.52 15.11
1/28/2021 3:00:00 PM 4.54 40.172 0.796 8.19 1.81 15.17
1/28/2021 3:15:00 PM 4.52 40.136 0.797 8.2 1.73 15.2
1/28/2021 3:30:00 PM 4.5 40.1 0.798 8.22 1.94 15.19
1/28/2021 3:45:00 PM 4.48 40.064 0.798 8.23 3.66 15.21
1/28/2021 4:00:00 PM 4.44 39.992 0.798 8.24 1.64 15.17
1/28/2021 4:15:00 PM 4.43 39.974 0.799 8.25 1.71 15.22
1/28/2021 4:30:00 PM 4.41 39.938 0.799 8.26 1.63 15.18
1/28/2021 4:45:00 PM 4.39 39.902 0.8 8.27 1.6 15.19
1/28/2021 5:00:00 PM 4.35 39.83 0.8 8.28 2.21 15.09
1/28/2021 5:15:00 PM 4.32 39.776 0.801 8.28 3.36 15.07
1/28/2021 5:30:00 PM 4.27 39.686 0.802 8.29 3.03 14.98
1/28/2021 5:45:00 PM 4.22 39.596 0.803 8.29 2.92 14.95
1/28/2021 6:00:00 PM 4.16 39.488 0.804 8.3 2.93 14.91
1/28/2021 6:15:00 PM 4.1 39.38 0.805 8.3 2.58 14.84
1/28/2021 6:30:00 PM 4.05 39.29 0.806 8.3 2.16 14.77
1/28/2021 6:45:00 PM 3.98 39.164 0.806 8.3 1.99 14.7
1/28/2021 7:00:00 PM 3.9 39.02 0.807 8.3 1.96 14.63
1/28/2021 7:15:00 PM 3.81 38.858 0.808 8.3 1.75 14.51
1/28/2021 7:30:00 PM 3.74 38.732 0.809 8.29 2.3 14.42
1/28/2021 7:45:00 PM 3.66 38.588 0.81 8.29 1.51 14.31
1/28/2021 8:00:00 PM 3.58 38.444 0.811 8.28 1.79 14.23
1/28/2021 8:15:00 PM 3.52 38.336 0.811 8.27 1.54 14.09
1/28/2021 8:30:00 PM 3.45 38.21 0.812 8.27 1.76 14.03
1/28/2021 8:45:00 PM 3.37 38.066 0.813 8.26 1.61 13.96
1/28/2021 9:00:00 PM 3.28 37.904 0.814 8.25 1.39 13.88
1/28/2021 9:15:00 PM 3.21 37.778 0.814 8.24 3.43 13.82
1/28/2021 9:30:00 PM 3.15 37.67 0.815 8.23 1.71 13.73
1/28/2021 9:45:00 PM 3.1 37.58 0.816 8.22 1.58 13.65
1/28/2021 10:00:00 PM 3.04 37.472 0.816 8.21 2.14 13.6
1/28/2021 10:15:00 PM 2.97 37.346 0.817 8.19 1.57 13.6
1/28/2021 10:30:00 PM 2.9 37.22 0.817 8.18 1.83 13.5
1/28/2021 10:45:00 PM 2.83 37.094 0.818 8.17 1.88 13.44
1/28/2021 11:00:00 PM 2.78 37.004 0.818 8.16 1.32 13.38
1/28/2021 11:15:00 PM 2.71 36.878 0.819 8.15 1.57 13.38
1/28/2021 11:30:00 PM 2.65 36.77 0.819 8.14 1.42 13.34
1/28/2021 11:45:00 PM 2.59 36.662 0.82 8.12 1.74 13.31
1/29/2021 12:00:00 AM 2.52 36.536 0.82 8.12 1.52 13.3
1/29/2021 12:15:00 AM 2.47 36.446 0.82 8.11 1.46 13.27
1/29/2021 12:30:00 AM 2.42 36.356 0.821 8.1 1.38 13.24
1/29/2021 12:45:00 AM 2.38 36.284 0.821 8.1 1.35 13.27
1/29/2021 1:00:00 AM 2.32 36.176 0.821 8.08 1.3 13.18
1/29/2021 1:15:00 AM 2.26 36.068 0.821 8.08 1.39 13.23
1/29/2021 1:30:00 AM 2.22 35.996 0.821 8.07 2.07 13.23
1/29/2021 1:45:00 AM 2.17 35.906 0.821 8.07 1.53 13.23
1/29/2021 2:00:00 AM 2.13 35.834 0.822 8.06 1.59 13.22
1/29/2021 2:15:00 AM 2.09 35.762 0.822 8.06 1.2 13.26
1/29/2021 2:30:00 AM 2.04 35.672 0.822 8.05 1.31 13.26
1/29/2021 2:45:00 AM 1.99 35.582 0.822 8.05 1.37 13.29
1/29/2021 3:00:00 AM 1.95 35.51 0.822 8.05 1.23 13.3
1/29/2021 3:15:00 AM 1.9 35.42 0.822 8.04 3.26 13.31
1/29/2021 3:30:00 AM 1.85 35.33 0.822 8.04 1.4 13.32
1/29/2021 3:45:00 AM 1.82 35.276 0.822 8.04 1.36 13.34
1/29/2021 4:00:00 AM 1.79 35.222 0.822 8.05 1.35 13.29
1/29/2021 4:15:00 AM 1.74 35.132 0.822 8.05 1.38 13.34
1/29/2021 4:30:00 AM 1.69 35.042 0.822 8.04 1.47 13.36
1/29/2021 4:45:00 AM 1.65 34.97 0.823 8.04 1.51 13.4
1/29/2021 5:00:00 AM 1.62 34.916 0.823 8.04 1.38 13.38
1/29/2021 5:15:00 AM 1.59 34.862 0.823 8.04 2.2 13.42
1/29/2021 5:30:00 AM 1.55 34.79 0.823 8.04 1.32 13.44
1/29/2021 5:45:00 AM 1.53 34.754 0.824 8.04 1.55 13.42
1/29/2021 6:00:00 AM 1.52 34.736 0.824 8.04 1.43 13.47
1/29/2021 6:15:00 AM 1.5 34.7 0.823 8.04 1.47 13.49
1/29/2021 6:30:00 AM 1.46 34.628 0.824 8.04 1.28 13.5
1/29/2021 6:45:00 AM 1.43 34.574 0.824 8.04 1.57 13.52
1/29/2021 7:00:00 AM 1.4 34.52 0.824 8.04 1.62 13.56
1/29/2021 7:15:00 AM 1.36 34.448 0.824 8.04 1.38 13.54
1/29/2021 7:30:00 AM 1.32 34.376 0.823 8.04 1.58 13.59
1/29/2021 7:45:00 AM 1.3 34.34 0.824 8.04 1.57 13.64
1/29/2021 8:00:00 AM 1.27 34.286 0.823 8.04 1.64 13.68
1/29/2021 8:15:00 AM 1.24 34.232 0.824 8.05 1.48 13.73
1/29/2021 8:30:00 AM 1.23 34.214 0.823 8.05 1.8 13.8
1/29/2021 8:45:00 AM 1.22 34.196 0.823 8.05 1.78 13.88
1/29/2021 9:00:00 AM 1.21 34.178 0.823 8.06 1.55 13.94
1/29/2021 9:15:00 AM 1.2 34.16 0.822 8.06 1.83 13.99
1/29/2021 9:30:00 AM 1.22 34.196 0.821 8.07 1.65 14.1
1/29/2021 9:45:00 AM 1.27 34.286 0.82 8.07 1.46 14.19
1/29/2021 10:00:00 AM 1.29 34.322 0.818 8.08 1.42 14.31
1/29/2021 10:15:00 AM 1.34 34.412 0.817 8.08 1.47 14.43
1/29/2021 10:30:00 AM 1.38 34.484 0.816 8.09 1.68 14.53
1/29/2021 10:45:00 AM 1.43 34.574 0.814 8.09 1.8 14.64
1/29/2021 11:00:00 AM 1.49 34.682 0.813 8.1 1.39 14.76
1/29/2021 11:15:00 AM 1.53 34.754 0.811 8.11 1.36 14.84
1/29/2021 11:30:00 AM 1.62 34.916 0.81 8.11 1.49 14.92
1/29/2021 11:45:00 AM 1.72 35.096 0.808 8.12 1.48 15.01
1/29/2021 12:00:00 PM 1.76 35.168 0.807 8.12 1.38 15.15
1/29/2021 12:15:00 PM 1.85 35.33 0.805 8.13 1.43 15.12
1/29/2021 12:30:00 PM 1.88 35.384 0.804 8.14 1.73 15.34
1/29/2021 12:45:00 PM 1.92 35.456 0.802 8.15 1.52 15.35
1/29/2021 1:00:00 PM 1.96 35.528 0.802 8.15 1.49 15.49
1/29/2021 1:15:00 PM 1.99 35.582 0.8 8.16 1.74 15.6
1/29/2021 1:30:00 PM 2.02 35.636 0.799 8.18 1.5 15.67
1/29/2021 1:45:00 PM 2.08 35.744 0.798 8.2 4.95 15.77
1/29/2021 2:00:00 PM 2.12 35.816 0.797 8.2 1.42 15.86
1/29/2021 2:15:00 PM 2.14 35.852 0.796 8.22 1.62 15.92
1/29/2021 2:30:00 PM 2.16 35.888 0.795 8.23 1.31 15.99
1/29/2021 2:45:00 PM 2.18 35.924 0.795 8.25 1.38 16.07
1/29/2021 3:00:00 PM 2.22 35.996 0.794 8.26 1.34 16.14
1/29/2021 3:15:00 PM 2.23 36.014 0.793 8.27 1.59 16.19
1/29/2021 3:30:00 PM 2.25 36.05 0.793 8.28 1.68 16.27
1/29/2021 3:45:00 PM 2.28 36.104 0.793 8.29 1.13 16.21
1/29/2021 4:00:00 PM 2.28 36.104 0.793 8.3 1.47 16.26
1/29/2021 4:15:00 PM 2.27 36.086 0.793 8.3 1.68 16.29
1/29/2021 4:30:00 PM 2.26 36.068 0.793 8.31 1.73 16.24
1/29/2021 4:45:00 PM 2.24 36.032 0.794 8.32 1.61 16.24
1/29/2021 5:00:00 PM 2.22 35.996 0.795 8.32 1.38 16.19
1/29/2021 5:15:00 PM 2.2 35.96 0.795 8.33 1.53 16.1
1/29/2021 5:30:00 PM 2.18 35.924 0.796 8.33 1.5 16.07
1/29/2021 5:45:00 PM 2.17 35.906 0.797 8.34 1.35 16.02
1/29/2021 6:00:00 PM 2.15 35.87 0.797 8.34 1.46 15.92
1/29/2021 6:15:00 PM 2.13 35.834 0.799 8.34 1.44 15.85
1/29/2021 6:30:00 PM 2.1 35.78 0.8 8.34 1.14 15.74
1/29/2021 6:45:00 PM 2.08 35.744 0.801 8.34 1.26 15.73
1/29/2021 7:00:00 PM 2.05 35.69 0.802 8.34 1.39 15.62
1/29/2021 7:15:00 PM 2.02 35.636 0.803 8.34 1.28 15.48
1/29/2021 7:30:00 PM 1.99 35.582 0.804 8.33 1.71 15.43
1/29/2021 7:45:00 PM 1.96 35.528 0.805 8.32 1.27 15.31
1/29/2021 8:00:00 PM 1.94 35.492 0.806 8.31 3.03 15.25
1/29/2021 8:15:00 PM 1.91 35.438 0.808 8.31 1.78 15.16
1/29/2021 8:30:00 PM 1.89 35.402 0.809 8.3 1.5 15.07
1/29/2021 8:45:00 PM 1.87 35.366 0.81 8.29 1.48 14.91
1/29/2021 9:00:00 PM 1.84 35.312 0.812 8.28 1.2 14.87
1/29/2021 9:15:00 PM 1.81 35.258 0.813 8.27 1.29 14.78
1/29/2021 9:30:00 PM 1.78 35.204 0.814 8.26 1.28 14.7
1/29/2021 9:45:00 PM 1.75 35.15 0.815 8.24 1.3 14.59
1/29/2021 10:00:00 PM 1.73 35.114 0.816 8.22 1.2 14.56
1/29/2021 10:15:00 PM 1.7 35.06 0.817 8.22 1.17 14.46
1/29/2021 10:30:00 PM 1.66 34.988 0.819 8.2 1.25 14.39
1/29/2021 10:45:00 PM 1.63 34.934 0.82 8.19 1.25 14.34
1/29/2021 11:00:00 PM 1.61 34.898 0.82 8.18 2.16 14.32
1/29/2021 11:15:00 PM 1.57 34.826 0.821 8.17 3.72 14.22
1/29/2021 11:30:00 PM 1.55 34.79 0.822 8.16 1.11 14.14
1/29/2021 11:45:00 PM 1.52 34.736 0.823 8.15 1.34 14.14
1/30/2021 12:00:00 AM 1.5 34.7 0.823 8.13 1.23 14.08
1/30/2021 12:15:00 AM 1.46 34.628 0.825 8.12 1.25 14.02
1/30/2021 12:30:00 AM 1.43 34.574 0.825 8.11 1.31 14.01
1/30/2021 12:45:00 AM 1.41 34.538 0.827 8.1 1.39 13.99
1/30/2021 1:00:00 AM 1.38 34.484 0.826 8.09 1.06 13.97
1/30/2021 1:15:00 AM 1.36 34.448 0.829 8.08 1.07 13.95
1/30/2021 1:30:00 AM 1.35 34.43 0.828 8.07 1.17 13.92
1/30/2021 1:45:00 AM 1.32 34.376 0.828 8.07 1.29 13.92
1/30/2021 2:00:00 AM 1.3 34.34 0.828 8.06 1.22 13.89
1/30/2021 2:15:00 AM 1.29 34.322 0.828 8.06 1.14 13.91
1/30/2021 2:30:00 AM 1.27 34.286 0.829 8.05 1.11 13.88
1/30/2021 2:45:00 AM 1.26 34.268 0.829 8.05 1.18 13.89
1/30/2021 3:00:00 AM 1.25 34.25 0.83 8.04 1.31 13.88
1/30/2021 3:15:00 AM 1.24 34.232 0.829 8.04 1.21 13.87
1/30/2021 3:30:00 AM 1.22 34.196 0.83 8.03 1.22 13.85
1/30/2021 3:45:00 AM 1.2 34.16 0.829 8.04 1.09 13.87
1/30/2021 4:00:00 AM 1.2 34.16 0.83 8.03 3.61 13.85
1/30/2021 4:15:00 AM 1.19 34.142 0.83 8.03 1.2 13.89
1/30/2021 4:30:00 AM 1.18 34.124 0.83 8.03 1.19 13.92
1/30/2021 4:45:00 AM 1.17 34.106 0.83 8.03 1.06 13.9
1/30/2021 5:00:00 AM 1.16 34.088 0.83 8.03 0.99 13.88
1/30/2021 5:15:00 AM 1.15 34.07 0.83 8.03 1.61 13.9
1/30/2021 5:30:00 AM 1.13 34.034 0.83 8.03 1.39 13.9
1/30/2021 5:45:00 AM 1.12 34.016 0.829 8.02 1.1 13.92
1/30/2021 6:00:00 AM 1.09 33.962 0.829 8.02 1.12 13.92
1/30/2021 6:15:00 AM 1.05 33.89 0.829 8.03 1.01 13.93
1/30/2021 6:30:00 AM 1.02 33.836 0.828 8.03 1.16 13.93
1/30/2021 6:45:00 AM 0.99 33.782 0.828 8.03 1.18 13.95
1/30/2021 7:00:00 AM 0.95 33.71 0.827 8.03 1.12 13.95
1/30/2021 7:15:00 AM 0.93 33.674 0.827 8.03 2.34 13.91
1/30/2021 7:30:00 AM 0.89 33.602 0.827 8.04 1.3 13.99
1/30/2021 7:45:00 AM 0.87 33.566 0.826 8.04 1.38 14.04
1/30/2021 8:00:00 AM 0.85 33.53 0.825 8.05 1.54 14.08
1/30/2021 8:15:00 AM 0.82 33.476 0.824 8.05 1.48 14.14
1/30/2021 8:30:00 AM 0.79 33.422 0.824 8.05 1.54 14.17
1/30/2021 8:45:00 AM 0.77 33.386 0.823 8.05 1.29 14.2
1/30/2021 9:00:00 AM 0.75 33.35 0.823 8.06 1.3 14.29
1/30/2021 9:15:00 AM 0.75 33.35 0.821 8.06 1.42 14.31
1/30/2021 9:30:00 AM 0.76 33.368 0.821 8.06 1.49 14.42
1/30/2021 9:45:00 AM 0.79 33.422 0.82 8.06 1.41 14.5
1/30/2021 10:00:00 AM 0.84 33.512 0.819 8.07 2.02 14.63
1/30/2021 10:15:00 AM 0.94 33.692 0.818 8.07 1.81 14.69
1/30/2021 10:30:00 AM 1.03 33.854 0.817 8.08 2.04 14.79
1/30/2021 10:45:00 AM 1.17 34.106 0.815 8.08 1.32 14.9
1/30/2021 11:00:00 AM 1.3 34.34 0.814 8.09 1.32 14.97
1/30/2021 11:15:00 AM 1.42 34.556 0.813 8.08 1.25 15.11
1/30/2021 11:30:00 AM 1.55 34.79 0.812 8.08 1.56 15.2
1/30/2021 11:45:00 AM 1.66 34.988 0.811 8.09 1.55 15.26
1/30/2021 12:00:00 PM 1.75 35.15 0.81 8.09 3.12 15.36
1/30/2021 12:15:00 PM 1.82 35.276 0.808 8.08 2.52 15.44
1/30/2021 12:30:00 PM 1.89 35.402 0.808 8.09 1.8 15.51
1/30/2021 12:45:00 PM 1.96 35.528 0.807 8.08 1.39 15.59
1/30/2021 1:00:00 PM 2.03 35.654 0.806 8.09 1.57 15.62
1/30/2021 1:15:00 PM 2.11 35.798 0.805 8.09 1.79 15.73
1/30/2021 1:30:00 PM 2.19 35.942 0.806 8.1 1.83 15.8
1/30/2021 1:45:00 PM 2.26 36.068 0.804 8.11 1.8 15.84
1/30/2021 2:00:00 PM 2.33 36.194 0.804 8.12 1.7 15.94
1/30/2021 2:15:00 PM 2.38 36.284 0.803 8.13 1.54 15.95
1/30/2021 2:30:00 PM 2.43 36.374 0.804 8.14 1.71 16.06
1/30/2021 2:45:00 PM 2.46 36.428 0.803 8.15 1.53 16.06
1/30/2021 3:00:00 PM 2.49 36.482 0.802 8.16 1.58 16.08
1/30/2021 3:15:00 PM 2.51 36.518 0.802 8.17 1.7 16.11
1/30/2021 3:30:00 PM 2.52 36.536 0.802 8.19 1.96 16.11
1/30/2021 3:45:00 PM 2.52 36.536 0.802 8.19 2.1 16.12
1/30/2021 4:00:00 PM 2.53 36.554 0.802 8.2 1.51 16.11
1/30/2021 4:15:00 PM 2.54 36.572 0.802 8.21 1.68 16.08
1/30/2021 4:30:00 PM 2.55 36.59 0.803 8.22 1.52 16.06
1/30/2021 4:45:00 PM 2.56 36.608 0.803 8.22 2.51 16.04
1/30/2021 5:00:00 PM 2.57 36.626 0.804 8.23 2.3 15.97
1/30/2021 5:15:00 PM 2.56 36.608 0.804 8.24 1.99 15.96
1/30/2021 5:30:00 PM 2.55 36.59 0.805 8.25 2.31 15.89
1/30/2021 5:45:00 PM 2.54 36.572 0.806 8.26 1.74 15.82
1/30/2021 6:00:00 PM 2.51 36.518 0.807 8.28 1.68 15.7
1/30/2021 6:15:00 PM 2.47 36.446 0.808 8.28 1.74 15.65
1/30/2021 6:30:00 PM 2.44 36.392 0.809 8.28 1.45 15.58
1/30/2021 6:45:00 PM 2.4 36.32 0.811 8.29 1.32 15.5
1/30/2021 7:00:00 PM 2.35 36.23 0.812 8.29 1.55 15.41
1/30/2021 7:15:00 PM 2.3 36.14 0.813 8.29 1.49 15.33
1/30/2021 7:30:00 PM 2.26 36.068 0.815 8.29 1.15 15.19
1/30/2021 7:45:00 PM 2.21 35.978 0.816 8.29 1.47 15.12
1/30/2021 8:00:00 PM 2.16 35.888 0.818 8.28 2.08 15.05
1/30/2021 8:15:00 PM 2.11 35.798 0.819 8.27 1.25 14.92
1/30/2021 8:30:00 PM 2.07 35.726 0.82 8.27 1.6 14.82
1/30/2021 8:45:00 PM 2.02 35.636 0.822 8.26 1.5 14.74
1/30/2021 9:00:00 PM 1.98 35.564 0.823 8.25 1.4 14.66
1/30/2021 9:15:00 PM 1.92 35.456 0.824 8.24 1.34 14.6
1/30/2021 9:30:00 PM 1.87 35.366 0.826 8.23 1.32 14.53
1/30/2021 9:45:00 PM 1.83 35.294 0.827 8.22 1.87 14.46
1/30/2021 10:00:00 PM 1.78 35.204 0.828 8.21 1.37 14.39
1/30/2021 10:15:00 PM 1.74 35.132 0.829 8.19 1.42 14.32
1/30/2021 10:30:00 PM 1.69 35.042 0.83 8.18 1.18 14.26
1/30/2021 10:45:00 PM 1.66 34.988 0.831 8.17 1.33 14.22
1/30/2021 11:00:00 PM 1.63 34.934 0.831 8.16 8.43 14.18
1/30/2021 11:15:00 PM 1.59 34.862 0.833 8.15 1.6 14.08
1/30/2021 11:30:00 PM 1.57 34.826 0.833 8.14 1.33 14.06
1/30/2021 11:45:00 PM 1.54 34.772 0.834 8.13 1.18 14.02
1/31/2021 12:00:00 AM 1.51 34.718 0.834 8.12 1.33 13.99
1/31/2021 12:15:00 AM 1.49 34.682 0.835 8.1 1.59 13.94
1/31/2021 12:30:00 AM 1.47 34.646 0.836 8.09 1.33 13.9
1/31/2021 12:45:00 AM 1.46 34.628 0.836 8.08 1.33 13.92
1/31/2021 1:00:00 AM 1.44 34.592 0.837 8.07 1.2 13.9
1/31/2021 1:15:00 AM 1.43 34.574 0.837 8.07 1.22 13.84
1/31/2021 1:30:00 AM 1.41 34.538 0.837 8.06 1.43 13.81
1/31/2021 1:45:00 AM 1.41 34.538 0.837 8.05 1.26 13.81
1/31/2021 2:00:00 AM 1.41 34.538 0.837 8.04 1.2 13.8
1/31/2021 2:15:00 AM 1.41 34.538 0.837 8.03 1.35 13.8
1/31/2021 2:30:00 AM 1.4 34.52 0.838 8.03 1.45 13.79
1/31/2021 2:45:00 AM 1.4 34.52 0.838 8.02 1.39 13.77
1/31/2021 3:00:00 AM 1.41 34.538 0.838 8.02 1.47 13.79
1/31/2021 3:15:00 AM 1.41 34.538 0.838 8.02 1.73 13.79
1/31/2021 3:30:00 AM 1.41 34.538 0.838 8.01 1.44 13.77
1/31/2021 3:45:00 AM 1.41 34.538 0.838 8.01 1.73 13.78
1/31/2021 4:00:00 AM 1.42 34.556 0.838 8.01 1.31 13.76
1/31/2021 4:15:00 AM 1.42 34.556 0.838 8 1.44 13.74
1/31/2021 4:30:00 AM 1.43 34.574 0.838 8 1.29 13.78
1/31/2021 4:45:00 AM 1.44 34.592 0.838 8 1.63 13.75
1/31/2021 5:00:00 AM 1.45 34.61 0.838 7.99 1.44 13.72
1/31/2021 5:15:00 AM 1.46 34.628 0.838 7.99 1.37 13.71
1/31/2021 5:30:00 AM 1.47 34.646 0.837 7.99 1.93 13.74
1/31/2021 5:45:00 AM 1.48 34.664 0.837 7.99 1.26 13.7
1/31/2021 6:00:00 AM 1.49 34.682 0.837 7.99 1.33 13.71
1/31/2021 6:15:00 AM 1.5 34.7 0.837 7.99 1.46 13.72
1/31/2021 6:30:00 AM 1.51 34.718 0.837 7.99 1.83 13.71
1/31/2021 6:45:00 AM 1.52 34.736 0.837 7.98 1.47 13.7
1/31/2021 7:00:00 AM 1.53 34.754 0.836 7.98 2.96 13.69
1/31/2021 7:15:00 AM 1.55 34.79 0.836 7.98 1.48 13.68
1/31/2021 7:30:00 AM 1.55 34.79 0.836 7.98 1.4 13.65
1/31/2021 7:45:00 AM 1.56 34.808 0.836 7.98 1.31 13.66
1/31/2021 8:00:00 AM 1.58 34.844 0.836 7.98 1.53 13.7
1/31/2021 8:15:00 AM 1.6 34.88 0.836 7.98 1.15 13.71
1/31/2021 8:30:00 AM 1.62 34.916 0.835 7.98 1.27 13.75
1/31/2021 8:45:00 AM 1.64 34.952 0.834 7.98 1.59 13.75
1/31/2021 9:00:00 AM 1.67 35.006 0.836 7.98 1.25 13.83
1/31/2021 9:15:00 AM 1.71 35.078 0.834 7.98 1.28 13.89
1/31/2021 9:30:00 AM 1.75 35.15 0.833 7.99 1.39 13.98
1/31/2021 9:45:00 AM 1.78 35.204 0.833 7.99 1.37 14.02
1/31/2021 10:00:00 AM 1.81 35.258 0.833 7.99 1.71 14.09
1/31/2021 10:15:00 AM 1.85 35.33 0.832 7.99 1.29 14.11
1/31/2021 10:30:00 AM 1.88 35.384 0.831 8 1.51 14.23
1/31/2021 10:45:00 AM 1.89 35.402 0.831 8 1.35 14.34
1/31/2021 11:00:00 AM 1.9 35.42 0.83 8.01 1.25 14.37
1/31/2021 11:15:00 AM 1.94 35.492 0.829 8.02 1.95 14.42
1/31/2021 11:30:00 AM 1.97 35.546 0.828 8.02 2.06 14.58
1/31/2021 11:45:00 AM 1.99 35.582 0.828 8.03 1.22 14.62
1/31/2021 12:00:00 PM 2.02 35.636 0.827 8.04 1.33 14.67
1/31/2021 12:15:00 PM 2.04 35.672 0.826 8.05 2 14.74
1/31/2021 12:30:00 PM 2.07 35.726 0.825 8.06 5.27 14.81
1/31/2021 12:45:00 PM 2.09 35.762 0.824 8.07 1.83 14.87
1/31/2021 1:00:00 PM 2.1 35.78 0.824 8.08 1.54 14.95
1/31/2021 1:15:00 PM 2.09 35.762 0.823 8.09 1.65 15.02
1/31/2021 1:30:00 PM 2.08 35.744 0.822 8.1 1.85 15.02
1/31/2021 1:45:00 PM 2.07 35.726 0.821 8.11 1.33 15.12
1/31/2021 2:00:00 PM 2.11 35.798 0.821 8.12 1.24 15.16
1/31/2021 2:15:00 PM 2.12 35.816 0.82 8.13 1.33 15.26
1/31/2021 2:30:00 PM 2.09 35.762 0.819 8.14 1.27 15.3
1/31/2021 2:45:00 PM 1.98 35.564 0.818 8.15 1.76 15.3
1/31/2021 3:00:00 PM 1.89 35.402 0.817 8.15 1.51 15.29
1/31/2021 3:15:00 PM 1.9 35.42 0.817 8.16 1.62 15.32
1/31/2021 3:30:00 PM 1.93 35.474 0.817 8.17 1.71 15.3
1/31/2021 3:45:00 PM 1.95 35.51 0.816 8.17 1.69 15.38
1/31/2021 4:00:00 PM 1.95 35.51 0.816 8.18 1.86 15.38
1/31/2021 4:15:00 PM 1.89 35.402 0.816 8.18 1.7 15.35
1/31/2021 4:30:00 PM 1.89 35.402 0.816 8.19 1.67 15.33
1/31/2021 4:45:00 PM 1.9 35.42 0.816 8.19 1.83 15.33
1/31/2021 5:00:00 PM 1.88 35.384 0.816 8.19 1.66 15.26
1/31/2021 5:15:00 PM 1.84 35.312 0.816 8.19 1.62 15.24
1/31/2021 5:30:00 PM 1.82 35.276 0.816 8.18 1.74 15.21
1/31/2021 5:45:00 PM 1.8 35.24 0.816 8.18 8.43 15.15
1/31/2021 6:00:00 PM 1.76 35.168 0.816 8.18 2.18 15.05
1/31/2021 6:15:00 PM 1.71 35.078 0.816 8.18 1.57 15.05
1/31/2021 6:30:00 PM 1.67 35.006 0.816 8.18 1.53 15.04
1/31/2021 6:45:00 PM 1.62 34.916 0.816 8.18 7.12 14.92
1/31/2021 7:00:00 PM 1.57 34.826 0.817 8.17 1.88 14.84
1/31/2021 7:15:00 PM 1.5 34.7 0.817 8.16 1.9 14.79
1/31/2021 7:30:00 PM 1.43 34.574 0.817 8.15 1.7 14.71
1/31/2021 7:45:00 PM 1.38 34.484 0.817 8.14 2.15 14.66
1/31/2021 8:00:00 PM 1.33 34.394 0.817 8.14 1.8 14.61
1/31/2021 8:15:00 PM 1.3 34.34 0.817 8.13 1.87 14.52
1/31/2021 8:30:00 PM 1.21 34.178 0.817 8.12 1.66 14.44
1/31/2021 8:45:00 PM 1.13 34.034 0.817 8.11 1.51 14.42
1/31/2021 9:00:00 PM 1.07 33.926 0.818 8.1 1.77 14.4
1/31/2021 9:15:00 PM 1.05 33.89 0.818 8.09 1.4 14.27
1/31/2021 9:30:00 PM 1 33.8 0.818 8.08 1.78 14.26
1/31/2021 9:45:00 PM 0.97 33.746 0.818 8.06 1.45 14.22
1/31/2021 10:00:00 PM 0.95 33.71 0.819 8.05 1.58 14.18
1/31/2021 10:15:00 PM 0.94 33.692 0.819 8.04 1.41 14.15
1/31/2021 10:30:00 PM 0.94 33.692 0.818 8.03 1.81 14.11
1/31/2021 10:45:00 PM 0.91 33.638 0.818 8.02 1.7 14.06
1/31/2021 11:00:00 PM 0.89 33.602 0.817 8.01 1.64 14.04
1/31/2021 11:15:00 PM 0.86 33.548 0.817 8 1.61 13.98
1/31/2021 11:30:00 PM 0.84 33.512 0.817 7.99 1.58 13.95
1/31/2021 11:45:00 PM 0.85 33.53 0.817 7.98 1.54 13.95
2/1/2021 12:00:00 AM 0.86 33.548 0.817 7.97 4.05 13.93
2/1/2021 12:15:00 AM 0.87 33.566 0.817 7.96 1.44 13.89
2/1/2021 12:30:00 AM 0.87 33.566 0.817 7.95 1.54 13.87
2/1/2021 12:45:00 AM 0.87 33.566 0.816 7.95 1.48 13.86
2/1/2021 1:00:00 AM 0.88 33.584 0.816 7.94 1.35 13.82
2/1/2021 1:15:00 AM 0.84 33.512 0.815 7.94 1.42 13.81
2/1/2021 1:30:00 AM 0.83 33.494 0.815 7.94 1.58 13.79
2/1/2021 1:45:00 AM 0.85 33.53 0.815 7.93 1.59 13.8
2/1/2021 2:00:00 AM 0.88 33.584 0.815 7.92 1.36 13.74
2/1/2021 2:15:00 AM 0.9 33.62 0.815 7.92 1.31 13.75
2/1/2021 2:30:00 AM 0.9 33.62 0.815 7.92 1.51 13.76
2/1/2021 2:45:00 AM 0.88 33.584 0.814 7.92 1.37 13.74
2/1/2021 3:00:00 AM 0.8 33.44 0.814 7.92 1.25 13.72
2/1/2021 3:15:00 AM 0.71 33.278 0.812 7.92 2.28 13.73
2/1/2021 3:30:00 AM 0.75 33.35 0.812 7.92 1.36 13.73
2/1/2021 3:45:00 AM 0.72 33.296 0.813 7.91 1.67 13.72
2/1/2021 4:00:00 AM 0.74 33.332 0.812 7.91 1.44 13.71
2/1/2021 4:15:00 AM 0.75 33.35 0.812 7.91 1.3 13.66
2/1/2021 4:30:00 AM 0.68 33.224 0.812 7.91 1.53 13.7
2/1/2021 4:45:00 AM 0.72 33.296 0.812 7.9 2.12 13.72
2/1/2021 5:00:00 AM 0.69 33.242 0.812 7.9 1.39 13.72
2/1/2021 5:15:00 AM 0.67 33.206 0.812 7.9 1.58 13.72
2/1/2021 5:30:00 AM 0.65 33.17 0.811 7.9 1.24 13.68
2/1/2021 5:45:00 AM 0.64 33.152 0.811 7.9 1.44 13.74
2/1/2021 6:00:00 AM 0.65 33.17 0.811 7.9 1.62 13.74
2/1/2021 6:15:00 AM 0.66 33.188 0.811 7.9 1.46 13.7
2/1/2021 6:30:00 AM 0.68 33.224 0.812 7.89 1.37 13.69
2/1/2021 6:45:00 AM 0.7 33.26 0.811 7.89 1.47 13.67
2/1/2021 7:00:00 AM 0.7 33.26 0.811 7.89 1.42 13.75
2/1/2021 7:15:00 AM 0.7 33.26 0.811 7.89 1.34 13.73
2/1/2021 7:30:00 AM 0.72 33.296 0.811 7.89 1.39 13.71
2/1/2021 7:45:00 AM 0.74 33.332 0.811 7.89 1.45 13.75
2/1/2021 8:00:00 AM 0.76 33.368 0.811 7.89 1.86 13.79
2/1/2021 8:15:00 AM 0.79 33.422 0.811 7.89 1.61 13.75
2/1/2021 8:30:00 AM 0.82 33.476 0.81 7.9 2.38 13.82
2/1/2021 8:45:00 AM 0.85 33.53 0.809 7.9 14.75 13.87
2/1/2021 9:00:00 AM 0.89 33.602 0.808 7.9 6.98 13.92
2/1/2021 9:15:00 AM 0.93 33.674 0.808 7.91 2.41 14
2/1/2021 9:30:00 AM 0.96 33.728 0.806 7.91 1.85 14.04
2/1/2021 9:45:00 AM 1.01 33.818 0.806 7.92 2.92 14.14
2/1/2021 10:00:00 AM 1.06 33.908 0.805 7.92 1.65 14.26
2/1/2021 10:15:00 AM 1.11 33.998 0.805 7.93 1.76 14.31
2/1/2021 10:30:00 AM 1.16 34.088 0.804 7.94 1.72 14.38
2/1/2021 10:45:00 AM 1.2 34.16 0.804 7.94 1.96 14.45
2/1/2021 11:00:00 AM 1.26 34.268 0.803 7.95 1.77 14.53
2/1/2021 11:15:00 AM 1.31 34.358 0.803 7.96 1.95 14.69
2/1/2021 11:30:00 AM 1.28 34.304 0.802 7.97 1.67 14.8
2/1/2021 11:45:00 AM 1.14 34.052 0.801 7.99 1.89 14.88
2/1/2021 12:00:00 PM 0.8 33.44 0.798 8 1.82 14.97
2/1/2021 12:15:00 PM 0.65 33.17 0.796 8.02 1.72 15.04
2/1/2021 12:30:00 PM 0.68 33.224 0.795 8.02 2.01 15.12
2/1/2021 12:45:00 PM 0.74 33.332 0.794 8.03 1.97 15.1
2/1/2021 1:00:00 PM 0.76 33.368 0.793 8.04 2.22 15.32
2/1/2021 1:15:00 PM 0.65 33.17 0.791 8.06 9.63 15.43
2/1/2021 1:30:00 PM 0.48 32.864 0.789 8.07 2.66 15.5
2/1/2021 1:45:00 PM 0.31 32.558 0.787 8.08 2.05 15.54
2/1/2021 2:00:00 PM 0.35 32.63 0.786 8.09 2.15 15.55
2/1/2021 2:15:00 PM 0.37 32.666 0.785 8.1 2.69 15.62
2/1/2021 2:30:00 PM 0.33 32.594 0.783 8.11 2.71 15.72
2/1/2021 2:45:00 PM 0.25 32.45 0.781 8.12 3.15 15.69
2/1/2021 3:00:00 PM 0.11 32.198 0.78 8.13 3.07 15.66
2/1/2021 3:15:00 PM 0.02 32.036 0.779 8.14 2.47 15.74
2/1/2021 3:30:00 PM -0.03 31.946 0.777 8.15 2.22 15.81
2/1/2021 3:45:00 PM -0.05 31.91 0.776 8.15 2.55 15.83
2/1/2021 4:00:00 PM 0 32 0.777 8.15 1.63 15.8
2/1/2021 4:15:00 PM -0.02 31.964 0.776 8.15 1.89 15.73
2/1/2021 4:30:00 PM -0.02 31.964 0.776 8.15 2.01 15.78
2/1/2021 4:45:00 PM -0.02 31.964 0.776 8.16 2.33 15.79
2/1/2021 5:00:00 PM -0.03 31.946 0.775 8.16 2.46 15.79
2/1/2021 5:15:00 PM -0.02 31.964 0.775 8.16 1.96 15.78
2/1/2021 5:30:00 PM -0.03 31.946 0.775 8.16 1.98 15.77
2/1/2021 5:45:00 PM -0.02 31.964 0.775 8.16 2.24 15.71
2/1/2021 6:00:00 PM -0.03 31.946 0.776 8.16 2.01 15.66
2/1/2021 6:15:00 PM -0.02 31.964 0.776 8.15 1.72 15.62
2/1/2021 6:30:00 PM -0.03 31.946 0.776 8.15 2.1 15.59
2/1/2021 6:45:00 PM -0.03 31.946 0.777 8.13 2.24 15.54
2/1/2021 7:00:00 PM -0.03 31.946 0.778 8.13 2.06 15.5
2/1/2021 7:15:00 PM -0.03 31.946 0.778 8.12 1.98 15.41
2/1/2021 7:30:00 PM -0.03 31.946 0.779 8.12 2.2 15.3
2/1/2021 7:45:00 PM -0.03 31.946 0.78 8.11 2.03 15.24
2/1/2021 8:00:00 PM -0.03 31.946 0.781 8.1 2.92 15.24
2/1/2021 8:15:00 PM -0.03 31.946 0.781 8.08 1.86 15.17
2/1/2021 8:30:00 PM -0.03 31.946 0.782 8.07 2.5 15.13
2/1/2021 8:45:00 PM -0.03 31.946 0.783 8.06 2.6 15.01
2/1/2021 9:00:00 PM -0.03 31.946 0.784 8.05 2.16 14.92
2/1/2021 9:15:00 PM -0.03 31.946 0.785 8.03 2.93 14.84
2/1/2021 9:30:00 PM -0.03 31.946 0.786 8.03 2.43 14.79
2/1/2021 9:45:00 PM -0.02 31.964 0.787 8.02 2.4 14.72
2/1/2021 10:00:00 PM -0.03 31.946 0.788 8.01 2.62 14.66
2/1/2021 10:15:00 PM -0.03 31.946 0.788 8 2.31 14.61
2/1/2021 10:30:00 PM -0.03 31.946 0.789 7.99 1.96 14.54
2/1/2021 10:45:00 PM -0.03 31.946 0.79 7.98 1.98 14.49
2/1/2021 11:00:00 PM -0.03 31.946 0.79 7.97 2.48 14.45
2/1/2021 11:15:00 PM -0.02 31.964 0.791 7.96 1.87 14.37
2/1/2021 11:30:00 PM -0.02 31.964 0.791 7.95 3.79 14.36
2/1/2021 11:45:00 PM -0.01 31.982 0.792 7.94 2.2 14.24
2/2/2021 12:00:00 AM -0.01 31.982 0.792 7.94 1.83 14.24
2/2/2021 12:15:00 AM -0.01 31.982 0.793 7.93 1.82 14.22
2/2/2021 12:30:00 AM 0 32 0.793 7.93 1.68 14.13
2/2/2021 12:45:00 AM 0 32 0.793 7.92 2.02 14.13
2/2/2021 1:00:00 AM 0 32 0.794 7.92 1.54 14.09
2/2/2021 1:15:00 AM 0.02 32.036 0.794 7.92 1.55 14.01
2/2/2021 1:30:00 AM 0.03 32.054 0.794 7.91 1.72 14.01
2/2/2021 1:45:00 AM 0.05 32.09 0.795 7.91 1.62 14.03
2/2/2021 2:00:00 AM 0.07 32.126 0.795 7.91 1.67 14
2/2/2021 2:15:00 AM 0.07 32.126 0.795 7.92 1.87 14.01
2/2/2021 2:30:00 AM 0.16 32.288 0.795 7.92 2.31 13.99
2/2/2021 2:45:00 AM 0.2 32.36 0.795 7.92 1.69 13.97
2/2/2021 3:00:00 AM 0.23 32.414 0.795 7.91 1.62 13.92
2/2/2021 3:15:00 AM 0.28 32.504 0.795 7.91 1.8 13.94
2/2/2021 3:30:00 AM 0.32 32.576 0.795 7.91 1.47 13.94
2/2/2021 3:45:00 AM 0.37 32.666 0.794 7.91 1.76 13.93
2/2/2021 4:00:00 AM 0.41 32.738 0.794 7.91 1.78 13.89
2/2/2021 4:15:00 AM 0.45 32.81 0.794 7.91 1.78 13.88
2/2/2021 4:30:00 AM 0.47 32.846 0.793 7.91 1.85 13.88
2/2/2021 4:45:00 AM 0.49 32.882 0.793 7.91 1.86 13.88
2/2/2021 5:00:00 AM 0.51 32.918 0.793 7.91 2.12 13.87
2/2/2021 5:15:00 AM 0.51 32.918 0.793 7.91 1.89 13.86
2/2/2021 5:30:00 AM 0.52 32.936 0.792 7.9 1.36 13.9
2/2/2021 5:45:00 AM 0.54 32.972 0.792 7.9 1.82 13.86
2/2/2021 6:00:00 AM 0.56 33.008 0.792 7.91 1.7 13.85
2/2/2021 6:15:00 AM 0.57 33.026 0.792 7.91 1.6 13.84
2/2/2021 6:30:00 AM 0.57 33.026 0.791 7.91 1.85 13.86
2/2/2021 6:45:00 AM 0.58 33.044 0.791 7.91 1.8 13.82
2/2/2021 7:00:00 AM 0.59 33.062 0.79 7.9 1.71 13.84
2/2/2021 7:15:00 AM 0.6 33.08 0.79 7.91 2.22 13.79
2/2/2021 7:30:00 AM 0.59 33.062 0.79 7.9 1.75 13.82
2/2/2021 7:45:00 AM 0.6 33.08 0.789 7.9 1.7 13.82
2/2/2021 8:00:00 AM 0.62 33.116 0.788 7.91 1.56 13.89
2/2/2021 8:15:00 AM 0.65 33.17 0.787 7.91 1.78 13.93
2/2/2021 8:30:00 AM 0.69 33.242 0.787 7.92 1.64 13.96
2/2/2021 8:45:00 AM 0.72 33.296 0.786 7.92 1.52 14.03
2/2/2021 9:00:00 AM 0.76 33.368 0.785 7.93 1.91 14.1
2/2/2021 9:15:00 AM 0.82 33.476 0.785 7.93 1.94 14.21
2/2/2021 9:30:00 AM 0.87 33.566 0.784 7.94 1.72 14.22
2/2/2021 9:45:00 AM 0.91 33.638 0.783 7.95 1.64 14.33
2/2/2021 10:00:00 AM 0.96 33.728 0.782 7.96 1.9 14.41
2/2/2021 10:15:00 AM 1.04 33.872 0.781 7.96 1.6 14.48
2/2/2021 10:30:00 AM 1.13 34.034 0.779 7.97 1.62 14.63
2/2/2021 10:45:00 AM 1.2 34.16 0.779 7.98 1.75 14.75
2/2/2021 11:00:00 AM 1.26 34.268 0.777 8 1.62 14.84
2/2/2021 11:15:00 AM 1.32 34.376 0.777 8 1.68 14.93
2/2/2021 11:30:00 AM 1.38 34.484 0.776 8.01 1.48 15.01
2/2/2021 11:45:00 AM 1.47 34.646 0.775 8.02 1.56 15.12
2/2/2021 12:00:00 PM 1.58 34.844 0.774 8.03 1.84 15.26
2/2/2021 12:15:00 PM 1.7 35.06 0.773 8.04 1.98 15.37
2/2/2021 12:30:00 PM 1.78 35.204 0.772 8.06 1.89 15.49
2/2/2021 12:45:00 PM 1.84 35.312 0.772 8.07 1.56 15.53
2/2/2021 1:00:00 PM 1.91 35.438 0.771 8.08 9.81 15.69
2/2/2021 1:15:00 PM 1.98 35.564 0.771 8.1 3 15.74
2/2/2021 1:30:00 PM 2.06 35.708 0.77 8.11 1.85 15.84
2/2/2021 1:45:00 PM 2.12 35.816 0.77 8.12 2.03 15.95
2/2/2021 2:00:00 PM 2.17 35.906 0.769 8.14 2.68 16.02
2/2/2021 2:15:00 PM 2.21 35.978 0.769 8.15 2.84 16.09
2/2/2021 2:30:00 PM 2.25 36.05 0.769 8.16 1.97 16.12
2/2/2021 2:45:00 PM 2.29 36.122 0.768 8.17 4.25 16.2
2/2/2021 3:00:00 PM 2.32 36.176 0.768 8.19 2.14 16.23
2/2/2021 3:15:00 PM 2.36 36.248 0.767 8.2 2.24 16.25
2/2/2021 3:30:00 PM 2.38 36.284 0.767 8.21 1.77 16.24
2/2/2021 3:45:00 PM 2.4 36.32 0.766 8.22 2.14 16.3
2/2/2021 4:00:00 PM 2.42 36.356 0.766 8.23 1.82 16.28
2/2/2021 4:15:00 PM 2.44 36.392 0.766 8.24 1.96 16.26
2/2/2021 4:30:00 PM 2.45 36.41 0.767 8.24 2.42 16.22
2/2/2021 4:45:00 PM 2.46 36.428 0.768 8.26 1.86 16.12
2/2/2021 5:00:00 PM 2.46 36.428 0.769 8.26 2.15 16.11
2/2/2021 5:15:00 PM 2.46 36.428 0.771 8.26 2.24 16
2/2/2021 5:30:00 PM 2.46 36.428 0.774 8.26 2.1 15.94
2/2/2021 5:45:00 PM 2.46 36.428 0.776 8.27 2.24 15.86
2/2/2021 6:00:00 PM 2.46 36.428 0.78 8.27 2.98 15.74
2/2/2021 6:15:00 PM 2.46 36.428 0.784 8.27 1.83 15.69
2/2/2021 6:30:00 PM 2.45 36.41 0.788 8.27 4.39 15.55
2/2/2021 6:45:00 PM 2.44 36.392 0.791 8.26 1.85 15.38
2/2/2021 7:00:00 PM 2.44 36.392 0.795 8.26 1.8 15.3
2/2/2021 7:15:00 PM 2.42 36.356 0.798 8.25 1.76 15.17
2/2/2021 7:30:00 PM 2.42 36.356 0.8 8.25 1.99 15.05
2/2/2021 7:45:00 PM 2.4 36.32 0.802 8.24 2.02 14.93
2/2/2021 8:00:00 PM 2.38 36.284 0.804 8.23 1.78 14.76
2/2/2021 8:15:00 PM 2.37 36.266 0.805 8.21 3.16 14.68
2/2/2021 8:30:00 PM 2.35 36.23 0.807 8.2 1.94 14.57
2/2/2021 8:45:00 PM 2.33 36.194 0.807 8.19 2.43 14.45
2/2/2021 9:00:00 PM 2.31 36.158 0.807 8.18 1.82 14.37
2/2/2021 9:15:00 PM 2.27 36.086 0.808 8.16 2.07 14.26
2/2/2021 9:30:00 PM 2.24 36.032 0.808 8.15 1.97 14.12
2/2/2021 9:45:00 PM 2.22 35.996 0.808 8.14 1.85 14.05
2/2/2021 10:00:00 PM 2.19 35.942 0.808 8.12 1.82 13.99
2/2/2021 10:15:00 PM 2.16 35.888 0.807 8.11 1.83 13.87
2/2/2021 10:30:00 PM 2.13 35.834 0.807 8.1 1.85 13.81
2/2/2021 10:45:00 PM 2.09 35.762 0.806 8.08 1.92 13.76
2/2/2021 11:00:00 PM 2.06 35.708 0.806 8.07 1.64 13.7
2/2/2021 11:15:00 PM 2.04 35.672 0.806 8.05 3.16 13.63
2/2/2021 11:30:00 PM 2 35.6 0.806 8.04 1.68 13.59
2/2/2021 11:45:00 PM 1.98 35.564 0.806 8.03 2.01 13.52
2/3/2021 12:00:00 AM 1.95 35.51 0.806 8.02 1.66 13.49
2/3/2021 12:15:00 AM 1.92 35.456 0.807 8.01 1.35 13.41
2/3/2021 12:30:00 AM 1.9 35.42 0.81 8 1.63 13.4
2/3/2021 12:45:00 AM 1.88 35.384 0.812 7.99 1.66 13.38
2/3/2021 1:00:00 AM 1.86 35.348 0.816 7.98 1.81 13.36
2/3/2021 1:15:00 AM 1.84 35.312 0.821 7.97 1.51 13.31
2/3/2021 1:30:00 AM 1.83 35.294 0.827 7.96 1.73 13.34
2/3/2021 1:45:00 AM 1.81 35.258 0.835 7.96 1.63 13.31
2/3/2021 2:00:00 AM 1.8 35.24 0.845 7.95 1.62 13.3
2/3/2021 2:15:00 AM 1.79 35.222 0.857 7.95 1.63 13.27
2/3/2021 2:30:00 AM 1.78 35.204 0.871 7.94 1.75 13.22
2/3/2021 2:45:00 AM 1.77 35.186 0.886 7.93 1.77 13.2
2/3/2021 3:00:00 AM 1.77 35.186 0.903 7.93 1.81 13.25
2/3/2021 3:15:00 AM 1.76 35.168 0.919 7.93 1.45 13.25
2/3/2021 3:30:00 AM 1.76 35.168 0.936 7.92 1.88 13.21
2/3/2021 3:45:00 AM 1.76 35.168 0.951 7.92 1.93 13.24
2/3/2021 4:00:00 AM 1.76 35.168 0.964 7.92 1.81 13.23
2/3/2021 4:15:00 AM 1.76 35.168 0.975 7.92 1.65 13.23
2/3/2021 4:30:00 AM 1.77 35.186 0.984 7.91 1.71 13.17
2/3/2021 4:45:00 AM 1.77 35.186 0.99 7.91 1.72 13.22
2/3/2021 5:00:00 AM 1.77 35.186 0.994 7.92 1.73 13.2
2/3/2021 5:15:00 AM 1.77 35.186 0.995 7.92 1.68 13.2
2/3/2021 5:30:00 AM 1.77 35.186 0.994 7.91 1.99 13.21
2/3/2021 5:45:00 AM 1.77 35.186 0.991 7.91 1.73 13.2
2/3/2021 6:00:00 AM 1.78 35.204 0.986 7.92 1.75 13.18
2/3/2021 6:15:00 AM 1.78 35.204 0.98 7.92 1.76 13.19
2/3/2021 6:30:00 AM 1.79 35.222 0.973 7.92 1.65 13.17
2/3/2021 6:45:00 AM 1.79 35.222 0.965 7.92 1.92 13.18
2/3/2021 7:00:00 AM 1.79 35.222 0.957 7.92 1.63 13.18
2/3/2021 7:15:00 AM 1.8 35.24 0.948 7.92 1.63 13.19
2/3/2021 7:30:00 AM 1.81 35.258 0.94 7.92 1.69 13.2
2/3/2021 7:45:00 AM 1.82 35.276 0.931 7.92 1.9 13.24
2/3/2021 8:00:00 AM 1.86 35.348 0.923 7.92 1.66 13.31
2/3/2021 8:15:00 AM 1.89 35.402 0.915 7.93 1.76 13.37
2/3/2021 8:30:00 AM 1.93 35.474 0.907 7.93 2.3 13.4
2/3/2021 8:45:00 AM 1.97 35.546 0.9 7.94 1.93 13.49
2/3/2021 9:00:00 AM 2.03 35.654 0.893 7.94 1.56 13.57
2/3/2021 9:15:00 AM 2.1 35.78 0.886 7.95 2.05 13.67
2/3/2021 9:30:00 AM 2.14 35.852 0.881 7.96 1.95 13.79
2/3/2021 9:45:00 AM 2.19 35.942 0.875 7.97 1.72 13.88
2/3/2021 10:00:00 AM 2.27 36.086 0.87 7.97 1.51 13.98
2/3/2021 10:15:00 AM 2.39 36.302 0.866 7.99 1.58 14.12
2/3/2021 10:30:00 AM 2.53 36.554 0.862 8 1.58 14.25
2/3/2021 10:45:00 AM 2.67 36.806 0.858 8.02 2.52 14.34
2/3/2021 11:00:00 AM 2.74 36.932 0.855 8.02 3.43 14.49
2/3/2021 11:15:00 AM 2.78 37.004 0.853 8.03 1.64 14.6
2/3/2021 11:30:00 AM 2.86 37.148 0.85 8.05 1.7 14.73
2/3/2021 11:45:00 AM 2.94 37.292 0.849 8.07 1.73 14.86
2/3/2021 12:00:00 PM 3.03 37.454 0.847 8.09 1.91 14.98
2/3/2021 12:15:00 PM 3.1 37.58 0.846 8.1 2.28 15.11
2/3/2021 12:30:00 PM 3.17 37.706 0.845 8.12 2.79 15.2
2/3/2021 12:45:00 PM 3.25 37.85 0.845 8.13 1.95 15.35
2/3/2021 1:00:00 PM 3.34 38.012 0.844 8.15 2.07 15.44
2/3/2021 1:15:00 PM 3.41 38.138 0.843 8.16 4.2 15.58
2/3/2021 1:30:00 PM 3.46 38.228 0.843 8.18 2.36 15.66
2/3/2021 1:45:00 PM 3.51 38.318 0.843 8.2 1.63 15.75
2/3/2021 2:00:00 PM 3.53 38.354 0.842 8.22 1.96 15.78
2/3/2021 2:15:00 PM 3.57 38.426 0.841 8.24 1.78 15.89
2/3/2021 2:30:00 PM 3.61 38.498 0.84 8.25 1.8 15.97
2/3/2021 2:45:00 PM 3.66 38.588 0.839 8.27 2.03 16.07
2/3/2021 3:00:00 PM 3.71 38.678 0.837 8.28 1.82 16.12
2/3/2021 3:15:00 PM 3.74 38.732 0.835 8.3 2.24 16.19
2/3/2021 3:30:00 PM 3.75 38.75 0.833 8.31 1.82 16.22
2/3/2021 3:45:00 PM 3.74 38.732 0.831 8.32 1.7 16.24
2/3/2021 4:00:00 PM 3.72 38.696 0.829 8.33 1.68 16.15
2/3/2021 4:15:00 PM 3.72 38.696 0.827 8.34 1.3 16.18
2/3/2021 4:30:00 PM 3.72 38.696 0.824 8.35 1.73 16.11
2/3/2021 4:45:00 PM 3.72 38.696 0.821 8.35 4.59 16.06
2/3/2021 5:00:00 PM 3.71 38.678 0.819 8.37 4.45 16.03
2/3/2021 5:15:00 PM 3.7 38.66 0.816 8.36 6.92 15.93
2/3/2021 5:30:00 PM 3.68 38.624 0.814 8.36 2.66 15.81
2/3/2021 5:45:00 PM 3.64 38.552 0.811 8.37 2.16 15.72
2/3/2021 6:00:00 PM 3.6 38.48 0.809 8.37 2.32 15.55
2/3/2021 6:15:00 PM 3.57 38.426 0.807 8.37 1.91 15.5
2/3/2021 6:30:00 PM 3.54 38.372 0.805 8.36 1.65 15.37
2/3/2021 6:45:00 PM 3.51 38.318 0.803 8.36 2.34 15.22
2/3/2021 7:00:00 PM 3.48 38.264 0.801 8.35 2.04 15.12
2/3/2021 7:15:00 PM 3.44 38.192 0.8 8.35 1.71 15
2/3/2021 7:30:00 PM 3.41 38.138 0.798 8.34 1.97 14.87
2/3/2021 7:45:00 PM 3.38 38.084 0.797 8.33 1.84 14.72
2/3/2021 8:00:00 PM 3.35 38.03 0.796 8.32 1.99 14.62
2/3/2021 8:15:00 PM 3.33 37.994 0.794 8.31 1.72 14.51
2/3/2021 8:30:00 PM 3.29 37.922 0.794 8.3 1.83 14.37
2/3/2021 8:45:00 PM 3.27 37.886 0.793 8.28 1.97 14.25
2/3/2021 9:00:00 PM 3.24 37.832 0.792 8.26 1.98 14.12
2/3/2021 9:15:00 PM 3.2 37.76 0.792 8.25 1.65 13.98
2/3/2021 9:30:00 PM 3.17 37.706 0.791 8.23 1.83 13.92
2/3/2021 9:45:00 PM 3.13 37.634 0.791 8.21 1.95 13.86
2/3/2021 10:00:00 PM 3.1 37.58 0.791 8.19 1.85 13.72
2/3/2021 10:15:00 PM 3.07 37.526 0.791 8.17 2.4 13.6
2/3/2021 10:30:00 PM 3.01 37.418 0.791 8.16 1.95 13.54
2/3/2021 10:45:00 PM 2.96 37.328 0.79 8.14 1.84 13.49
2/3/2021 11:00:00 PM 2.91 37.238 0.79 8.12 2.36 13.43
2/3/2021 11:15:00 PM 2.87 37.166 0.79 8.1 1.7 13.35
2/3/2021 11:30:00 PM 2.83 37.094 0.79 8.09 2.05 13.29
2/3/2021 11:45:00 PM 2.79 37.022 0.79 8.08 2.02 13.22
2/4/2021 12:00:00 AM 2.74 36.932 0.79 8.06 2 13.2
2/4/2021 12:15:00 AM 2.7 36.86 0.79 8.05 1.7 13.1
2/4/2021 12:30:00 AM 2.66 36.788 0.79 8.04 2.06 13.12
2/4/2021 12:45:00 AM 2.62 36.716 0.789 8.03 2.14 13.11
2/4/2021 1:00:00 AM 2.58 36.644 0.789 8.02 1.97 13.06
2/4/2021 1:15:00 AM 2.55 36.59 0.789 8 1.68 13.03
2/4/2021 1:30:00 AM 2.52 36.536 0.789 8 1.82 13.01
2/4/2021 1:45:00 AM 2.48 36.464 0.788 7.99 3.3 13
2/4/2021 2:00:00 AM 2.46 36.428 0.788 7.99 1.62 12.96
2/4/2021 2:15:00 AM 2.43 36.374 0.788 7.98 1.53 12.95
2/4/2021 2:30:00 AM 2.41 36.338 0.788 7.98 1.61 12.97
2/4/2021 2:45:00 AM 2.39 36.302 0.787 7.97 1.65 12.93
2/4/2021 3:00:00 AM 2.37 36.266 0.787 7.97 7.37 12.94
2/4/2021 3:15:00 AM 2.35 36.23 0.787 7.97 1.32 12.91
2/4/2021 3:30:00 AM 2.33 36.194 0.787 7.96 1.43 12.95
2/4/2021 3:45:00 AM 2.31 36.158 0.786 7.96 1.69 12.94
2/4/2021 4:00:00 AM 2.29 36.122 0.786 7.96 1.61 12.92
2/4/2021 4:15:00 AM 2.27 36.086 0.786 7.96 1.78 12.97
2/4/2021 4:30:00 AM 2.24 36.032 0.786 7.96 1.56 12.95
2/4/2021 4:45:00 AM 2.22 35.996 0.785 7.96 1.71 12.96
2/4/2021 5:00:00 AM 2.2 35.96 0.785 7.96 1.37 12.99
2/4/2021 5:15:00 AM 2.17 35.906 0.785 7.96 1.42 12.97
2/4/2021 5:30:00 AM 2.15 35.87 0.785 7.96 1.63 12.98
2/4/2021 5:45:00 AM 2.13 35.834 0.785 7.96 1.77 13
2/4/2021 6:00:00 AM 2.1 35.78 0.785 7.96 1.47 13.02
2/4/2021 6:15:00 AM 2.07 35.726 0.785 7.96 1.5 13.01
2/4/2021 6:30:00 AM 2.04 35.672 0.785 7.96 1.73 13.03
2/4/2021 6:45:00 AM 2.01 35.618 0.785 7.96 1.52 13.05
2/4/2021 7:00:00 AM 1.98 35.564 0.785 7.96 1.55 13.07
2/4/2021 7:15:00 AM 1.95 35.51 0.785 7.96 1.51 13.06
2/4/2021 7:30:00 AM 1.93 35.474 0.785 7.96 1.6 13.11
2/4/2021 7:45:00 AM 1.91 35.438 0.784 7.96 1.42 13.09
2/4/2021 8:00:00 AM 1.89 35.402 0.784 7.97 1.55 13.17
2/4/2021 8:15:00 AM 1.88 35.384 0.784 7.97 1.85 13.18
2/4/2021 8:30:00 AM 1.87 35.366 0.784 7.98 1.59 13.27
2/4/2021 8:45:00 AM 1.87 35.366 0.784 7.98 3.68 13.35
2/4/2021 9:00:00 AM 1.88 35.384 0.783 7.98 1.51 13.37
2/4/2021 9:15:00 AM 1.89 35.402 0.783 7.99 1.91 13.5
2/4/2021 9:30:00 AM 1.92 35.456 0.782 7.99 1.76 13.62
2/4/2021 9:45:00 AM 1.98 35.564 0.781 8 2.02 13.71
2/4/2021 10:00:00 AM 2.07 35.726 0.78 8.01 2.03 13.82
2/4/2021 10:15:00 AM 2.18 35.924 0.778 8.01 1.65 13.95
2/4/2021 10:30:00 AM 2.32 36.176 0.778 8.02 1.92 14.08
2/4/2021 10:45:00 AM 2.5 36.5 0.776 8.03 1.75 14.23
2/4/2021 11:00:00 AM 2.65 36.77 0.775 8.03 1.9 14.36
2/4/2021 11:15:00 AM 2.81 37.058 0.773 8.04 1.65 14.5
2/4/2021 11:30:00 AM 2.97 37.346 0.772 8.05 1.72 14.65
2/4/2021 11:45:00 AM 3.12 37.616 0.77 8.06 1.8 14.72
2/4/2021 12:00:00 PM 3.24 37.832 0.769 8.07 1.82 14.86
2/4/2021 12:15:00 PM 3.34 38.012 0.768 8.08 2.11 14.95
2/4/2021 12:30:00 PM 3.44 38.192 0.766 8.09 2.08 15.1
2/4/2021 12:45:00 PM 3.55 38.39 0.765 8.1 2.05 15.19
2/4/2021 1:00:00 PM 3.65 38.57 0.764 8.12 2.02 15.31
2/4/2021 1:15:00 PM 3.76 38.768 0.763 8.13 3.31 15.41
2/4/2021 1:30:00 PM 3.88 38.984 0.762 8.15 3.83 15.5
2/4/2021 1:45:00 PM 3.99 39.182 0.761 8.17 2.59 15.56
2/4/2021 2:00:00 PM 4.08 39.344 0.761 8.19 2.1 15.66
2/4/2021 2:15:00 PM 4.17 39.506 0.761 8.2 2.85 15.74
2/4/2021 2:30:00 PM 4.24 39.632 0.76 8.22 2.54 15.8
2/4/2021 2:45:00 PM 4.29 39.722 0.759 8.23 2.47 15.88
2/4/2021 3:00:00 PM 4.34 39.812 0.759 8.25 2.12 15.89
2/4/2021 3:15:00 PM 4.38 39.884 0.759 8.26 1.99 15.94
2/4/2021 3:30:00 PM 4.41 39.938 0.759 8.27 2.19 15.92
2/4/2021 3:45:00 PM 4.43 39.974 0.758 8.29 2.32 15.97
2/4/2021 4:00:00 PM 4.44 39.992 0.759 8.3 2.37 15.94
2/4/2021 4:15:00 PM 4.46 40.028 0.759 8.31 2.57 15.89
2/4/2021 4:30:00 PM 4.48 40.064 0.759 8.31 8.61 15.9
2/4/2021 4:45:00 PM 4.5 40.1 0.759 8.33 2.04 15.79
2/4/2021 5:00:00 PM 4.51 40.118 0.76 8.33 2.42 15.78
2/4/2021 5:15:00 PM 4.51 40.118 0.76 8.34 2.22 15.68
2/4/2021 5:30:00 PM 4.51 40.118 0.761 8.35 2.46 15.54
2/4/2021 5:45:00 PM 4.49 40.082 0.761 8.35 2.13 15.46
2/4/2021 6:00:00 PM 4.47 40.046 0.762 8.36 2.16 15.37
2/4/2021 6:15:00 PM 4.45 40.01 0.763 8.37 2.36 15.27
2/4/2021 6:30:00 PM 4.43 39.974 0.764 8.37 2.16 15.14
2/4/2021 6:45:00 PM 4.39 39.902 0.765 8.37 2.42 15
2/4/2021 7:00:00 PM 4.35 39.83 0.766 8.37 1.87 14.89
2/4/2021 7:15:00 PM 4.3 39.74 0.767 8.36 2.24 14.75
2/4/2021 7:30:00 PM 4.25 39.65 0.769 8.36 2.25 14.62
2/4/2021 7:45:00 PM 4.21 39.578 0.77 8.34 2.14 14.48
2/4/2021 8:00:00 PM 4.16 39.488 0.772 8.33 1.74 14.33
2/4/2021 8:15:00 PM 4.1 39.38 0.773 8.32 4.44 14.19
2/4/2021 8:30:00 PM 4.05 39.29 0.775 8.31 2.39 14.05
2/4/2021 8:45:00 PM 4.01 39.218 0.777 8.3 2.17 13.99
2/4/2021 9:00:00 PM 3.96 39.128 0.778 8.28 1.93 13.86
2/4/2021 9:15:00 PM 3.91 39.038 0.78 8.26 1.77 13.74
2/4/2021 9:30:00 PM 3.87 38.966 0.781 8.25 1.92 13.58
2/4/2021 9:45:00 PM 3.83 38.894 0.782 8.23 1.92 13.46
2/4/2021 10:00:00 PM 3.78 38.804 0.784 8.21 2.5 13.44
2/4/2021 10:15:00 PM 3.75 38.75 0.785 8.2 1.94 13.32
2/4/2021 10:30:00 PM 3.7 38.66 0.786 8.18 1.9 13.24
2/4/2021 10:45:00 PM 3.66 38.588 0.787 8.17 2.36 13.13
2/4/2021 11:00:00 PM 3.62 38.516 0.789 8.15 2.38 13.06
2/4/2021 11:15:00 PM 3.59 38.462 0.789 8.13 1.9 13.04
2/4/2021 11:30:00 PM 3.55 38.39 0.79 8.11 2.33 12.98
2/4/2021 11:45:00 PM 3.52 38.336 0.791 8.1 2.21 12.9
2/5/2021 12:00:00 AM 3.5 38.3 0.791 8.08 2.07 12.85
2/5/2021 12:15:00 AM 3.47 38.246 0.792 8.07 1.9 12.81
2/5/2021 12:30:00 AM 3.45 38.21 0.792 8.05 2.02 12.79
2/5/2021 12:45:00 AM 3.43 38.174 0.793 8.04 3.05 12.74
2/5/2021 1:00:00 AM 3.41 38.138 0.792 8.03 1.82 12.74
2/5/2021 1:15:00 AM 3.4 38.12 0.793 8.02 104.7 12.61
2/5/2021 1:30:00 AM 3.38 38.084 0.793 8.01 1.53 12.64
2/5/2021 1:45:00 AM 3.38 38.084 0.793 8 2.28 12.62
2/5/2021 2:00:00 AM 3.37 38.066 0.793 7.99 1.65 12.62
2/5/2021 2:15:00 AM 3.36 38.048 0.793 7.98 1.81 12.59
2/5/2021 2:30:00 AM 3.36 38.048 0.793 7.97 1.44 12.57
2/5/2021 2:45:00 AM 3.36 38.048 0.793 7.96 1.75 12.55
2/5/2021 3:00:00 AM 3.36 38.048 0.793 7.96 1.68 12.55
2/5/2021 3:15:00 AM 3.36 38.048 0.793 7.95 2.01 12.5
2/5/2021 3:30:00 AM 3.36 38.048 0.793 7.95 1.98 12.53
2/5/2021 3:45:00 AM 3.37 38.066 0.793 7.94 1.83 12.5
2/5/2021 4:00:00 AM 3.38 38.084 0.793 7.94 1.82 12.52
2/5/2021 4:15:00 AM 3.39 38.102 0.792 7.94 1.61 12.5
2/5/2021 4:30:00 AM 3.4 38.12 0.793 7.94 2.1 12.46
2/5/2021 4:45:00 AM 3.4 38.12 0.793 7.93 1.61 12.49
2/5/2021 5:00:00 AM 3.36 38.048 0.792 7.93 1.53 12.47
2/5/2021 5:15:00 AM 3.35 38.03 0.792 7.93 1.64 12.47
2/5/2021 5:30:00 AM 3.36 38.048 0.792 7.93 2.2 12.42
2/5/2021 5:45:00 AM 3.37 38.066 0.793 7.93 1.75 12.44
2/5/2021 6:00:00 AM 3.36 38.048 0.793 7.93 1.83 12.45
2/5/2021 6:15:00 AM 3.35 38.03 0.793 7.93 1.87 12.45
2/5/2021 6:30:00 AM 3.35 38.03 0.793 7.93 1.59 12.41
2/5/2021 6:45:00 AM 3.37 38.066 0.793 7.93 1.83 12.43
2/5/2021 7:00:00 AM 3.39 38.102 0.794 7.93 1.67 12.43
2/5/2021 7:15:00 AM 3.4 38.12 0.794 7.93 1.82 12.42
2/5/2021 7:30:00 AM 3.41 38.138 0.795 7.93 1.58 12.39
2/5/2021 7:45:00 AM 3.43 38.174 0.795 7.92 4.69 12.42
2/5/2021 8:00:00 AM 3.45 38.21 0.796 7.92 1.64 12.44
2/5/2021 8:15:00 AM 3.47 38.246 0.796 7.92 1.68 12.49
2/5/2021 8:30:00 AM 3.51 38.318 0.796 7.92 2.57 12.6
2/5/2021 8:45:00 AM 3.54 38.372 0.796 7.92 1.97 12.69
2/5/2021 9:00:00 AM 3.54 38.372 0.796 7.93 1.58 12.72
2/5/2021 9:15:00 AM 3.55 38.39 0.796 7.93 1.87 12.77
2/5/2021 9:30:00 AM 3.59 38.462 0.795 7.93 1.67 12.84
2/5/2021 9:45:00 AM 3.66 38.588 0.795 7.94 3.04 12.97
2/5/2021 10:00:00 AM 3.76 38.768 0.793 7.94 2.1 13.11
2/5/2021 10:15:00 AM 3.88 38.984 0.793 7.95 1.79 13.25
2/5/2021 10:30:00 AM 4.02 39.236 0.792 7.96 1.59 13.43
2/5/2021 10:45:00 AM 4.22 39.596 0.79